<?xml version="1.0" encoding="UTF-8" standalone="no" ?>
<gpx xmlns="http://www.topografix.com/GPX/1/1" xmlns:xsi="http://www.w3.org/2001/XMLSchema-instance" xsi:schemaLocation="http://www.topografix.com/GPX/1/1 http://www.topografix.com/GPX/1/1/gpx.xsd" version="1.1" creator="VisuGPX - https://www.visugpx.com">
  <metadata>
    <name>Du plateau au vigne</name>
  </metadata>
  <trk>
    <name><![CDATA[Trace 1762869816849]]></name>
    <trkseg>
      <trkpt lat="47.3029" lon="5.00014">
        <ele>376.4</ele>
        <time>2025-11-11T14:03:36.849Z</time>
      </trkpt>
      <trkpt lat="47.30315" lon="5.00088">
        <ele>365.5</ele>
        <time>2025-11-11T14:07:14.847Z</time>
      </trkpt>
      <trkpt lat="47.30314" lon="5.00097">
        <ele>379.3</ele>
        <time>2025-11-11T14:07:20.749Z</time>
      </trkpt>
      <trkpt lat="47.30319" lon="5.00083">
        <ele>373.4</ele>
        <time>2025-11-11T14:07:27.000Z</time>
      </trkpt>
      <trkpt lat="47.30321" lon="5.00084">
        <ele>368.8</ele>
        <time>2025-11-11T14:07:32.000Z</time>
      </trkpt>
      <trkpt lat="47.30327" lon="5.00088">
        <ele>367.8</ele>
        <time>2025-11-11T14:07:37.000Z</time>
      </trkpt>
      <trkpt lat="47.30332" lon="5.00088">
        <ele>368.1</ele>
        <time>2025-11-11T14:07:42.000Z</time>
      </trkpt>
      <trkpt lat="47.30336" lon="5.00088">
        <ele>368.6</ele>
        <time>2025-11-11T14:07:47.000Z</time>
      </trkpt>
      <trkpt lat="47.3034" lon="5.00087">
        <ele>369.2</ele>
        <time>2025-11-11T14:07:52.000Z</time>
      </trkpt>
      <trkpt lat="47.30347" lon="5.00086">
        <ele>371.2</ele>
        <time>2025-11-11T14:07:57.000Z</time>
      </trkpt>
      <trkpt lat="47.30351" lon="5.00086">
        <ele>369</ele>
        <time>2025-11-11T14:08:02.000Z</time>
      </trkpt>
      <trkpt lat="47.30356" lon="5.00084">
        <ele>367.9</ele>
        <time>2025-11-11T14:08:07.000Z</time>
      </trkpt>
      <trkpt lat="47.30359" lon="5.00082">
        <ele>368.3</ele>
        <time>2025-11-11T14:08:12.000Z</time>
      </trkpt>
      <trkpt lat="47.30362" lon="5.00079">
        <ele>365.9</ele>
        <time>2025-11-11T14:08:17.000Z</time>
      </trkpt>
      <trkpt lat="47.30364" lon="5.00074">
        <ele>366.2</ele>
        <time>2025-11-11T14:08:22.000Z</time>
      </trkpt>
      <trkpt lat="47.30366" lon="5.00069">
        <ele>365.8</ele>
        <time>2025-11-11T14:08:27.000Z</time>
      </trkpt>
      <trkpt lat="47.30367" lon="5.00063">
        <ele>363.1</ele>
        <time>2025-11-11T14:08:32.000Z</time>
      </trkpt>
      <trkpt lat="47.3037" lon="5.00058">
        <ele>363.2</ele>
        <time>2025-11-11T14:08:37.000Z</time>
      </trkpt>
      <trkpt lat="47.30371" lon="5.00053">
        <ele>364.4</ele>
        <time>2025-11-11T14:08:42.000Z</time>
      </trkpt>
      <trkpt lat="47.3037" lon="5.00048">
        <ele>364.8</ele>
        <time>2025-11-11T14:08:47.000Z</time>
      </trkpt>
      <trkpt lat="47.30371" lon="5.00042">
        <ele>366</ele>
        <time>2025-11-11T14:08:52.000Z</time>
      </trkpt>
      <trkpt lat="47.30372" lon="5.00038">
        <ele>364.1</ele>
        <time>2025-11-11T14:08:57.000Z</time>
      </trkpt>
      <trkpt lat="47.30373" lon="5.00034">
        <ele>366</ele>
        <time>2025-11-11T14:09:02.000Z</time>
      </trkpt>
      <trkpt lat="47.30373" lon="5.00029">
        <ele>367.7</ele>
        <time>2025-11-11T14:09:07.000Z</time>
      </trkpt>
      <trkpt lat="47.30372" lon="5.00025">
        <ele>367.2</ele>
        <time>2025-11-11T14:09:12.000Z</time>
      </trkpt>
      <trkpt lat="47.30372" lon="5.00021">
        <ele>368.4</ele>
        <time>2025-11-11T14:09:17.000Z</time>
      </trkpt>
      <trkpt lat="47.30373" lon="5.00016">
        <ele>367.9</ele>
        <time>2025-11-11T14:09:22.000Z</time>
      </trkpt>
      <trkpt lat="47.30373" lon="5.00015">
        <ele>368</ele>
        <time>2025-11-11T14:09:27.000Z</time>
      </trkpt>
      <trkpt lat="47.30375" lon="5.00013">
        <ele>368.8</ele>
        <time>2025-11-11T14:09:32.000Z</time>
      </trkpt>
      <trkpt lat="47.30374" lon="5.00008">
        <ele>366.3</ele>
        <time>2025-11-11T14:09:37.000Z</time>
      </trkpt>
      <trkpt lat="47.30375" lon="5.00003">
        <ele>369.6</ele>
        <time>2025-11-11T14:09:42.000Z</time>
      </trkpt>
      <trkpt lat="47.30379" lon="4.99999">
        <ele>371</ele>
        <time>2025-11-11T14:09:47.000Z</time>
      </trkpt>
      <trkpt lat="47.3038" lon="4.99995">
        <ele>370.6</ele>
        <time>2025-11-11T14:09:52.000Z</time>
      </trkpt>
      <trkpt lat="47.30381" lon="4.99991">
        <ele>371.8</ele>
        <time>2025-11-11T14:09:57.000Z</time>
      </trkpt>
      <trkpt lat="47.30381" lon="4.99986">
        <ele>370</ele>
        <time>2025-11-11T14:10:02.000Z</time>
      </trkpt>
      <trkpt lat="47.3038" lon="4.99982">
        <ele>370.6</ele>
        <time>2025-11-11T14:10:07.000Z</time>
      </trkpt>
      <trkpt lat="47.3038" lon="4.99978">
        <ele>372.1</ele>
        <time>2025-11-11T14:10:12.000Z</time>
      </trkpt>
      <trkpt lat="47.3038" lon="4.99973">
        <ele>371</ele>
        <time>2025-11-11T14:10:17.000Z</time>
      </trkpt>
      <trkpt lat="47.30381" lon="4.99969">
        <ele>372</ele>
        <time>2025-11-11T14:10:22.000Z</time>
      </trkpt>
      <trkpt lat="47.30382" lon="4.99965">
        <ele>370.1</ele>
        <time>2025-11-11T14:10:27.000Z</time>
      </trkpt>
      <trkpt lat="47.30383" lon="4.99961">
        <ele>369.6</ele>
        <time>2025-11-11T14:10:32.000Z</time>
      </trkpt>
      <trkpt lat="47.30383" lon="4.99956">
        <ele>373</ele>
        <time>2025-11-11T14:10:37.000Z</time>
      </trkpt>
      <trkpt lat="47.30385" lon="4.99952">
        <ele>376</ele>
        <time>2025-11-11T14:10:42.000Z</time>
      </trkpt>
      <trkpt lat="47.30385" lon="4.99948">
        <ele>377.1</ele>
        <time>2025-11-11T14:10:47.000Z</time>
      </trkpt>
      <trkpt lat="47.30386" lon="4.99941">
        <ele>378.1</ele>
        <time>2025-11-11T14:10:52.000Z</time>
      </trkpt>
      <trkpt lat="47.30387" lon="4.99936">
        <ele>379.1</ele>
        <time>2025-11-11T14:10:57.000Z</time>
      </trkpt>
      <trkpt lat="47.30388" lon="4.9993">
        <ele>379.5</ele>
        <time>2025-11-11T14:11:02.000Z</time>
      </trkpt>
      <trkpt lat="47.30389" lon="4.99924">
        <ele>380.1</ele>
        <time>2025-11-11T14:11:07.000Z</time>
      </trkpt>
      <trkpt lat="47.3039" lon="4.99918">
        <ele>382.8</ele>
        <time>2025-11-11T14:11:12.000Z</time>
      </trkpt>
      <trkpt lat="47.30392" lon="4.99913">
        <ele>383.8</ele>
        <time>2025-11-11T14:11:17.000Z</time>
      </trkpt>
      <trkpt lat="47.3039" lon="4.99908">
        <ele>383.6</ele>
        <time>2025-11-11T14:11:22.000Z</time>
      </trkpt>
      <trkpt lat="47.30387" lon="4.99907">
        <ele>384.1</ele>
        <time>2025-11-11T14:11:27.000Z</time>
      </trkpt>
      <trkpt lat="47.30383" lon="4.99904">
        <ele>384.4</ele>
        <time>2025-11-11T14:11:32.000Z</time>
      </trkpt>
      <trkpt lat="47.30378" lon="4.99903">
        <ele>381.5</ele>
        <time>2025-11-11T14:11:37.000Z</time>
      </trkpt>
      <trkpt lat="47.30373" lon="4.99902">
        <ele>381.2</ele>
        <time>2025-11-11T14:11:42.000Z</time>
      </trkpt>
      <trkpt lat="47.30368" lon="4.99901">
        <ele>379.3</ele>
        <time>2025-11-11T14:11:47.000Z</time>
      </trkpt>
      <trkpt lat="47.30364" lon="4.99899">
        <ele>380.5</ele>
        <time>2025-11-11T14:11:52.000Z</time>
      </trkpt>
      <trkpt lat="47.30359" lon="4.99899">
        <ele>378.7</ele>
        <time>2025-11-11T14:11:57.000Z</time>
      </trkpt>
      <trkpt lat="47.30355" lon="4.99899">
        <ele>377.6</ele>
        <time>2025-11-11T14:12:02.000Z</time>
      </trkpt>
      <trkpt lat="47.30352" lon="4.99896">
        <ele>376.9</ele>
        <time>2025-11-11T14:12:07.000Z</time>
      </trkpt>
      <trkpt lat="47.30352" lon="4.99894">
        <ele>376.8</ele>
        <time>2025-11-11T14:12:12.000Z</time>
      </trkpt>
      <trkpt lat="47.30349" lon="4.99893">
        <ele>376.9</ele>
        <time>2025-11-11T14:12:17.000Z</time>
      </trkpt>
      <trkpt lat="47.30345" lon="4.99891">
        <ele>374.9</ele>
        <time>2025-11-11T14:12:22.000Z</time>
      </trkpt>
      <trkpt lat="47.3034" lon="4.99888">
        <ele>373.8</ele>
        <time>2025-11-11T14:12:27.000Z</time>
      </trkpt>
      <trkpt lat="47.30334" lon="4.99885">
        <ele>373.2</ele>
        <time>2025-11-11T14:12:32.000Z</time>
      </trkpt>
      <trkpt lat="47.30329" lon="4.99884">
        <ele>372.2</ele>
        <time>2025-11-11T14:12:37.000Z</time>
      </trkpt>
      <trkpt lat="47.30324" lon="4.99881">
        <ele>373.3</ele>
        <time>2025-11-11T14:12:42.000Z</time>
      </trkpt>
      <trkpt lat="47.30318" lon="4.99878">
        <ele>372.2</ele>
        <time>2025-11-11T14:12:47.000Z</time>
      </trkpt>
      <trkpt lat="47.30314" lon="4.99876">
        <ele>372.1</ele>
        <time>2025-11-11T14:12:52.000Z</time>
      </trkpt>
      <trkpt lat="47.3031" lon="4.99875">
        <ele>371.8</ele>
        <time>2025-11-11T14:12:57.000Z</time>
      </trkpt>
      <trkpt lat="47.30306" lon="4.99875">
        <ele>369.5</ele>
        <time>2025-11-11T14:13:02.000Z</time>
      </trkpt>
      <trkpt lat="47.30301" lon="4.99872">
        <ele>372.1</ele>
        <time>2025-11-11T14:13:07.000Z</time>
      </trkpt>
      <trkpt lat="47.30298" lon="4.9987">
        <ele>371.8</ele>
        <time>2025-11-11T14:13:12.000Z</time>
      </trkpt>
      <trkpt lat="47.30293" lon="4.99867">
        <ele>371.1</ele>
        <time>2025-11-11T14:13:17.000Z</time>
      </trkpt>
      <trkpt lat="47.30288" lon="4.99868">
        <ele>373.8</ele>
        <time>2025-11-11T14:13:22.000Z</time>
      </trkpt>
      <trkpt lat="47.30283" lon="4.99867">
        <ele>374.6</ele>
        <time>2025-11-11T14:13:27.000Z</time>
      </trkpt>
      <trkpt lat="47.30279" lon="4.99868">
        <ele>377.2</ele>
        <time>2025-11-11T14:13:32.000Z</time>
      </trkpt>
      <trkpt lat="47.30274" lon="4.99867">
        <ele>379.6</ele>
        <time>2025-11-11T14:13:37.000Z</time>
      </trkpt>
      <trkpt lat="47.30269" lon="4.99865">
        <ele>379.5</ele>
        <time>2025-11-11T14:13:42.000Z</time>
      </trkpt>
      <trkpt lat="47.30263" lon="4.9986">
        <ele>381.6</ele>
        <time>2025-11-11T14:13:47.000Z</time>
      </trkpt>
      <trkpt lat="47.30259" lon="4.9986">
        <ele>381.9</ele>
        <time>2025-11-11T14:13:52.000Z</time>
      </trkpt>
      <trkpt lat="47.30253" lon="4.99857">
        <ele>381.6</ele>
        <time>2025-11-11T14:13:57.000Z</time>
      </trkpt>
      <trkpt lat="47.30249" lon="4.99858">
        <ele>383.7</ele>
        <time>2025-11-11T14:14:02.000Z</time>
      </trkpt>
      <trkpt lat="47.30243" lon="4.99856">
        <ele>382.2</ele>
        <time>2025-11-11T14:14:07.000Z</time>
      </trkpt>
      <trkpt lat="47.30238" lon="4.99854">
        <ele>383.2</ele>
        <time>2025-11-11T14:14:12.000Z</time>
      </trkpt>
      <trkpt lat="47.30234" lon="4.99852">
        <ele>383</ele>
        <time>2025-11-11T14:14:17.000Z</time>
      </trkpt>
      <trkpt lat="47.3023" lon="4.99851">
        <ele>384.4</ele>
        <time>2025-11-11T14:14:22.000Z</time>
      </trkpt>
      <trkpt lat="47.30228" lon="4.99846">
        <ele>384.1</ele>
        <time>2025-11-11T14:14:27.000Z</time>
      </trkpt>
      <trkpt lat="47.30228" lon="4.99842">
        <ele>383.9</ele>
        <time>2025-11-11T14:14:32.000Z</time>
      </trkpt>
      <trkpt lat="47.30226" lon="4.99837">
        <ele>385.7</ele>
        <time>2025-11-11T14:14:37.000Z</time>
      </trkpt>
      <trkpt lat="47.30225" lon="4.99832">
        <ele>386.6</ele>
        <time>2025-11-11T14:14:42.000Z</time>
      </trkpt>
      <trkpt lat="47.30225" lon="4.99827">
        <ele>388.8</ele>
        <time>2025-11-11T14:14:47.000Z</time>
      </trkpt>
      <trkpt lat="47.30223" lon="4.99822">
        <ele>388</ele>
        <time>2025-11-11T14:14:52.000Z</time>
      </trkpt>
      <trkpt lat="47.30221" lon="4.99816">
        <ele>390.6</ele>
        <time>2025-11-11T14:14:57.000Z</time>
      </trkpt>
      <trkpt lat="47.30219" lon="4.99811">
        <ele>390.1</ele>
        <time>2025-11-11T14:15:02.000Z</time>
      </trkpt>
      <trkpt lat="47.30216" lon="4.99807">
        <ele>390.7</ele>
        <time>2025-11-11T14:15:07.000Z</time>
      </trkpt>
      <trkpt lat="47.30213" lon="4.99802">
        <ele>389</ele>
        <time>2025-11-11T14:15:12.000Z</time>
      </trkpt>
      <trkpt lat="47.3021" lon="4.99798">
        <ele>388.9</ele>
        <time>2025-11-11T14:15:17.000Z</time>
      </trkpt>
      <trkpt lat="47.30208" lon="4.99793">
        <ele>384.2</ele>
        <time>2025-11-11T14:15:22.000Z</time>
      </trkpt>
      <trkpt lat="47.30206" lon="4.99786">
        <ele>384</ele>
        <time>2025-11-11T14:15:27.000Z</time>
      </trkpt>
      <trkpt lat="47.30206" lon="4.99784">
        <ele>384</ele>
        <time>2025-11-11T14:15:32.000Z</time>
      </trkpt>
      <trkpt lat="47.30206" lon="4.99784">
        <ele>383.9</ele>
        <time>2025-11-11T14:15:37.000Z</time>
      </trkpt>
      <trkpt lat="47.30206" lon="4.99784">
        <ele>383.9</ele>
        <time>2025-11-11T14:15:42.000Z</time>
      </trkpt>
      <trkpt lat="47.30206" lon="4.99784">
        <ele>383.9</ele>
        <time>2025-11-11T14:15:47.000Z</time>
      </trkpt>
      <trkpt lat="47.30206" lon="4.99784">
        <ele>383.9</ele>
        <time>2025-11-11T14:15:52.000Z</time>
      </trkpt>
      <trkpt lat="47.30206" lon="4.99784">
        <ele>383.9</ele>
        <time>2025-11-11T14:15:57.000Z</time>
      </trkpt>
      <trkpt lat="47.30206" lon="4.99784">
        <ele>383.9</ele>
        <time>2025-11-11T14:16:02.000Z</time>
      </trkpt>
      <trkpt lat="47.30206" lon="4.99783">
        <ele>383.3</ele>
        <time>2025-11-11T14:16:07.000Z</time>
      </trkpt>
      <trkpt lat="47.30204" lon="4.99779">
        <ele>384.2</ele>
        <time>2025-11-11T14:16:12.000Z</time>
      </trkpt>
      <trkpt lat="47.30202" lon="4.99773">
        <ele>385.4</ele>
        <time>2025-11-11T14:16:17.000Z</time>
      </trkpt>
      <trkpt lat="47.30199" lon="4.99766">
        <ele>385.9</ele>
        <time>2025-11-11T14:16:22.000Z</time>
      </trkpt>
      <trkpt lat="47.30197" lon="4.99759">
        <ele>386.3</ele>
        <time>2025-11-11T14:16:27.000Z</time>
      </trkpt>
      <trkpt lat="47.30195" lon="4.99752">
        <ele>386</ele>
        <time>2025-11-11T14:16:32.000Z</time>
      </trkpt>
      <trkpt lat="47.30194" lon="4.99748">
        <ele>387.3</ele>
        <time>2025-11-11T14:16:37.000Z</time>
      </trkpt>
      <trkpt lat="47.30192" lon="4.99746">
        <ele>386</ele>
        <time>2025-11-11T14:16:42.000Z</time>
      </trkpt>
      <trkpt lat="47.3019" lon="4.99742">
        <ele>385.9</ele>
        <time>2025-11-11T14:16:47.000Z</time>
      </trkpt>
      <trkpt lat="47.30189" lon="4.99738">
        <ele>384.3</ele>
        <time>2025-11-11T14:16:52.000Z</time>
      </trkpt>
      <trkpt lat="47.30189" lon="4.99739">
        <ele>384.9</ele>
        <time>2025-11-11T14:16:57.000Z</time>
      </trkpt>
      <trkpt lat="47.30189" lon="4.99739">
        <ele>384.4</ele>
        <time>2025-11-11T14:17:02.000Z</time>
      </trkpt>
      <trkpt lat="47.30189" lon="4.99738">
        <ele>384.6</ele>
        <time>2025-11-11T14:17:07.000Z</time>
      </trkpt>
      <trkpt lat="47.30188" lon="4.99735">
        <ele>383.3</ele>
        <time>2025-11-11T14:17:12.000Z</time>
      </trkpt>
      <trkpt lat="47.30185" lon="4.9973">
        <ele>384.8</ele>
        <time>2025-11-11T14:17:17.000Z</time>
      </trkpt>
      <trkpt lat="47.30183" lon="4.99725">
        <ele>385.4</ele>
        <time>2025-11-11T14:17:22.000Z</time>
      </trkpt>
      <trkpt lat="47.30182" lon="4.99719">
        <ele>386.1</ele>
        <time>2025-11-11T14:17:27.000Z</time>
      </trkpt>
      <trkpt lat="47.30179" lon="4.99715">
        <ele>386.7</ele>
        <time>2025-11-11T14:17:32.000Z</time>
      </trkpt>
      <trkpt lat="47.30176" lon="4.9971">
        <ele>385.6</ele>
        <time>2025-11-11T14:17:37.000Z</time>
      </trkpt>
      <trkpt lat="47.30175" lon="4.99704">
        <ele>382.9</ele>
        <time>2025-11-11T14:17:42.000Z</time>
      </trkpt>
      <trkpt lat="47.30174" lon="4.997">
        <ele>381.9</ele>
        <time>2025-11-11T14:17:47.000Z</time>
      </trkpt>
      <trkpt lat="47.30176" lon="4.99698">
        <ele>380.6</ele>
        <time>2025-11-11T14:17:52.000Z</time>
      </trkpt>
      <trkpt lat="47.30176" lon="4.99698">
        <ele>380.5</ele>
        <time>2025-11-11T14:17:57.000Z</time>
      </trkpt>
      <trkpt lat="47.30176" lon="4.99698">
        <ele>380.5</ele>
        <time>2025-11-11T14:18:02.000Z</time>
      </trkpt>
      <trkpt lat="47.30176" lon="4.99698">
        <ele>380.5</ele>
        <time>2025-11-11T14:18:07.000Z</time>
      </trkpt>
      <trkpt lat="47.30176" lon="4.99698">
        <ele>380.5</ele>
        <time>2025-11-11T14:18:12.000Z</time>
      </trkpt>
      <trkpt lat="47.30176" lon="4.99698">
        <ele>380.5</ele>
        <time>2025-11-11T14:18:17.000Z</time>
      </trkpt>
      <trkpt lat="47.30176" lon="4.99697">
        <ele>380.5</ele>
        <time>2025-11-11T14:18:22.000Z</time>
      </trkpt>
      <trkpt lat="47.30175" lon="4.99698">
        <ele>380</ele>
        <time>2025-11-11T14:18:27.000Z</time>
      </trkpt>
      <trkpt lat="47.30175" lon="4.99698">
        <ele>380.8</ele>
        <time>2025-11-11T14:18:32.000Z</time>
      </trkpt>
      <trkpt lat="47.30175" lon="4.99698">
        <ele>380.9</ele>
        <time>2025-11-11T14:18:37.000Z</time>
      </trkpt>
      <trkpt lat="47.30175" lon="4.99698">
        <ele>380.9</ele>
        <time>2025-11-11T14:18:42.000Z</time>
      </trkpt>
      <trkpt lat="47.30175" lon="4.99698">
        <ele>380.9</ele>
        <time>2025-11-11T14:18:47.000Z</time>
      </trkpt>
      <trkpt lat="47.30175" lon="4.99698">
        <ele>380.9</ele>
        <time>2025-11-11T14:18:52.000Z</time>
      </trkpt>
      <trkpt lat="47.30175" lon="4.99698">
        <ele>380.9</ele>
        <time>2025-11-11T14:18:57.000Z</time>
      </trkpt>
      <trkpt lat="47.30175" lon="4.99698">
        <ele>380.9</ele>
        <time>2025-11-11T14:19:02.000Z</time>
      </trkpt>
      <trkpt lat="47.30175" lon="4.99698">
        <ele>381</ele>
        <time>2025-11-11T14:19:07.000Z</time>
      </trkpt>
      <trkpt lat="47.30175" lon="4.99698">
        <ele>381</ele>
        <time>2025-11-11T14:19:12.000Z</time>
      </trkpt>
      <trkpt lat="47.30175" lon="4.99698">
        <ele>380.9</ele>
        <time>2025-11-11T14:19:17.000Z</time>
      </trkpt>
      <trkpt lat="47.30175" lon="4.99698">
        <ele>380.9</ele>
        <time>2025-11-11T14:19:22.000Z</time>
      </trkpt>
      <trkpt lat="47.30175" lon="4.99698">
        <ele>380.9</ele>
        <time>2025-11-11T14:19:27.000Z</time>
      </trkpt>
      <trkpt lat="47.30175" lon="4.99698">
        <ele>380.9</ele>
        <time>2025-11-11T14:19:32.000Z</time>
      </trkpt>
      <trkpt lat="47.30175" lon="4.99698">
        <ele>381</ele>
        <time>2025-11-11T14:19:37.000Z</time>
      </trkpt>
      <trkpt lat="47.30175" lon="4.99698">
        <ele>381</ele>
        <time>2025-11-11T14:19:42.000Z</time>
      </trkpt>
      <trkpt lat="47.30175" lon="4.99698">
        <ele>381</ele>
        <time>2025-11-11T14:19:47.000Z</time>
      </trkpt>
      <trkpt lat="47.30176" lon="4.99697">
        <ele>380.4</ele>
        <time>2025-11-11T14:19:52.000Z</time>
      </trkpt>
      <trkpt lat="47.30176" lon="4.99696">
        <ele>379.9</ele>
        <time>2025-11-11T14:19:57.000Z</time>
      </trkpt>
      <trkpt lat="47.30175" lon="4.99694">
        <ele>379.1</ele>
        <time>2025-11-11T14:20:02.000Z</time>
      </trkpt>
      <trkpt lat="47.30172" lon="4.99688">
        <ele>380.5</ele>
        <time>2025-11-11T14:20:07.000Z</time>
      </trkpt>
      <trkpt lat="47.3017" lon="4.99684">
        <ele>378.2</ele>
        <time>2025-11-11T14:20:12.000Z</time>
      </trkpt>
      <trkpt lat="47.30167" lon="4.99679">
        <ele>379</ele>
        <time>2025-11-11T14:20:17.000Z</time>
      </trkpt>
      <trkpt lat="47.30165" lon="4.99674">
        <ele>379.4</ele>
        <time>2025-11-11T14:20:22.000Z</time>
      </trkpt>
      <trkpt lat="47.30162" lon="4.9967">
        <ele>381.2</ele>
        <time>2025-11-11T14:20:27.000Z</time>
      </trkpt>
      <trkpt lat="47.30159" lon="4.99664">
        <ele>382</ele>
        <time>2025-11-11T14:20:32.000Z</time>
      </trkpt>
      <trkpt lat="47.30157" lon="4.99659">
        <ele>381</ele>
        <time>2025-11-11T14:20:37.000Z</time>
      </trkpt>
      <trkpt lat="47.30157" lon="4.99655">
        <ele>379.6</ele>
        <time>2025-11-11T14:20:42.000Z</time>
      </trkpt>
      <trkpt lat="47.30154" lon="4.99652">
        <ele>378.6</ele>
        <time>2025-11-11T14:20:47.000Z</time>
      </trkpt>
      <trkpt lat="47.30151" lon="4.99647">
        <ele>380.7</ele>
        <time>2025-11-11T14:20:52.000Z</time>
      </trkpt>
      <trkpt lat="47.30148" lon="4.99646">
        <ele>380.5</ele>
        <time>2025-11-11T14:20:57.000Z</time>
      </trkpt>
      <trkpt lat="47.30145" lon="4.99643">
        <ele>378.2</ele>
        <time>2025-11-11T14:21:02.000Z</time>
      </trkpt>
      <trkpt lat="47.3014" lon="4.99641">
        <ele>374.8</ele>
        <time>2025-11-11T14:21:07.000Z</time>
      </trkpt>
      <trkpt lat="47.30137" lon="4.99636">
        <ele>376.9</ele>
        <time>2025-11-11T14:21:12.000Z</time>
      </trkpt>
      <trkpt lat="47.30135" lon="4.99631">
        <ele>377.2</ele>
        <time>2025-11-11T14:21:17.000Z</time>
      </trkpt>
      <trkpt lat="47.30133" lon="4.99626">
        <ele>377</ele>
        <time>2025-11-11T14:21:22.000Z</time>
      </trkpt>
      <trkpt lat="47.30129" lon="4.99623">
        <ele>376.3</ele>
        <time>2025-11-11T14:21:27.000Z</time>
      </trkpt>
      <trkpt lat="47.30124" lon="4.99621">
        <ele>378.2</ele>
        <time>2025-11-11T14:21:32.000Z</time>
      </trkpt>
      <trkpt lat="47.3012" lon="4.99621">
        <ele>378.7</ele>
        <time>2025-11-11T14:21:37.000Z</time>
      </trkpt>
      <trkpt lat="47.30117" lon="4.99622">
        <ele>377.9</ele>
        <time>2025-11-11T14:21:42.000Z</time>
      </trkpt>
      <trkpt lat="47.30115" lon="4.9962">
        <ele>375.2</ele>
        <time>2025-11-11T14:21:47.000Z</time>
      </trkpt>
      <trkpt lat="47.30115" lon="4.9962">
        <ele>375.7</ele>
        <time>2025-11-11T14:21:52.000Z</time>
      </trkpt>
      <trkpt lat="47.30111" lon="4.99621">
        <ele>375.6</ele>
        <time>2025-11-11T14:21:57.000Z</time>
      </trkpt>
      <trkpt lat="47.30107" lon="4.99621">
        <ele>373.5</ele>
        <time>2025-11-11T14:22:02.000Z</time>
      </trkpt>
      <trkpt lat="47.30105" lon="4.99619">
        <ele>373.9</ele>
        <time>2025-11-11T14:22:07.000Z</time>
      </trkpt>
      <trkpt lat="47.30101" lon="4.99619">
        <ele>373</ele>
        <time>2025-11-11T14:22:12.000Z</time>
      </trkpt>
      <trkpt lat="47.30098" lon="4.99619">
        <ele>373.6</ele>
        <time>2025-11-11T14:22:17.000Z</time>
      </trkpt>
      <trkpt lat="47.30095" lon="4.99619">
        <ele>373</ele>
        <time>2025-11-11T14:22:22.000Z</time>
      </trkpt>
      <trkpt lat="47.30092" lon="4.99616">
        <ele>371.5</ele>
        <time>2025-11-11T14:22:27.000Z</time>
      </trkpt>
      <trkpt lat="47.30089" lon="4.99617">
        <ele>372</ele>
        <time>2025-11-11T14:22:32.000Z</time>
      </trkpt>
      <trkpt lat="47.30084" lon="4.99617">
        <ele>372.6</ele>
        <time>2025-11-11T14:22:37.000Z</time>
      </trkpt>
      <trkpt lat="47.30084" lon="4.99616">
        <ele>372.6</ele>
        <time>2025-11-11T14:22:42.000Z</time>
      </trkpt>
      <trkpt lat="47.30083" lon="4.99613">
        <ele>371.7</ele>
        <time>2025-11-11T14:22:47.000Z</time>
      </trkpt>
      <trkpt lat="47.30085" lon="4.99609">
        <ele>370.9</ele>
        <time>2025-11-11T14:22:52.000Z</time>
      </trkpt>
      <trkpt lat="47.30089" lon="4.99605">
        <ele>372.2</ele>
        <time>2025-11-11T14:22:57.000Z</time>
      </trkpt>
      <trkpt lat="47.3009" lon="4.99601">
        <ele>371.8</ele>
        <time>2025-11-11T14:23:02.000Z</time>
      </trkpt>
      <trkpt lat="47.3009" lon="4.99596">
        <ele>372.6</ele>
        <time>2025-11-11T14:23:07.000Z</time>
      </trkpt>
      <trkpt lat="47.30091" lon="4.99591">
        <ele>372</ele>
        <time>2025-11-11T14:23:12.000Z</time>
      </trkpt>
      <trkpt lat="47.30093" lon="4.99586">
        <ele>373.5</ele>
        <time>2025-11-11T14:23:17.000Z</time>
      </trkpt>
      <trkpt lat="47.30095" lon="4.99579">
        <ele>373.3</ele>
        <time>2025-11-11T14:23:22.000Z</time>
      </trkpt>
      <trkpt lat="47.30097" lon="4.99573">
        <ele>372.8</ele>
        <time>2025-11-11T14:23:27.000Z</time>
      </trkpt>
      <trkpt lat="47.30098" lon="4.99566">
        <ele>375.4</ele>
        <time>2025-11-11T14:23:32.000Z</time>
      </trkpt>
      <trkpt lat="47.30099" lon="4.9956">
        <ele>375.2</ele>
        <time>2025-11-11T14:23:37.000Z</time>
      </trkpt>
      <trkpt lat="47.301" lon="4.99553">
        <ele>377.1</ele>
        <time>2025-11-11T14:23:42.000Z</time>
      </trkpt>
      <trkpt lat="47.30101" lon="4.99547">
        <ele>379.9</ele>
        <time>2025-11-11T14:23:47.000Z</time>
      </trkpt>
      <trkpt lat="47.30102" lon="4.9954">
        <ele>380.7</ele>
        <time>2025-11-11T14:23:52.000Z</time>
      </trkpt>
      <trkpt lat="47.30102" lon="4.99534">
        <ele>381.7</ele>
        <time>2025-11-11T14:23:57.000Z</time>
      </trkpt>
      <trkpt lat="47.301" lon="4.99529">
        <ele>381.7</ele>
        <time>2025-11-11T14:24:02.000Z</time>
      </trkpt>
      <trkpt lat="47.30097" lon="4.99525">
        <ele>381.1</ele>
        <time>2025-11-11T14:24:07.000Z</time>
      </trkpt>
      <trkpt lat="47.30094" lon="4.99522">
        <ele>381.5</ele>
        <time>2025-11-11T14:24:12.000Z</time>
      </trkpt>
      <trkpt lat="47.30094" lon="4.99519">
        <ele>380.6</ele>
        <time>2025-11-11T14:24:17.000Z</time>
      </trkpt>
      <trkpt lat="47.30094" lon="4.99517">
        <ele>381</ele>
        <time>2025-11-11T14:24:22.000Z</time>
      </trkpt>
      <trkpt lat="47.30095" lon="4.99518">
        <ele>380.8</ele>
        <time>2025-11-11T14:24:27.000Z</time>
      </trkpt>
      <trkpt lat="47.30098" lon="4.99515">
        <ele>380.4</ele>
        <time>2025-11-11T14:24:32.000Z</time>
      </trkpt>
      <trkpt lat="47.30101" lon="4.99511">
        <ele>381.6</ele>
        <time>2025-11-11T14:24:37.000Z</time>
      </trkpt>
      <trkpt lat="47.30102" lon="4.99506">
        <ele>382.2</ele>
        <time>2025-11-11T14:24:42.000Z</time>
      </trkpt>
      <trkpt lat="47.30104" lon="4.99502">
        <ele>382.9</ele>
        <time>2025-11-11T14:24:47.000Z</time>
      </trkpt>
      <trkpt lat="47.30104" lon="4.99499">
        <ele>386</ele>
        <time>2025-11-11T14:24:52.000Z</time>
      </trkpt>
      <trkpt lat="47.30105" lon="4.99491">
        <ele>387</ele>
        <time>2025-11-11T14:24:57.000Z</time>
      </trkpt>
      <trkpt lat="47.30103" lon="4.99483">
        <ele>386.8</ele>
        <time>2025-11-11T14:25:02.000Z</time>
      </trkpt>
      <trkpt lat="47.301" lon="4.99478">
        <ele>386.3</ele>
        <time>2025-11-11T14:25:07.000Z</time>
      </trkpt>
      <trkpt lat="47.30101" lon="4.99473">
        <ele>385</ele>
        <time>2025-11-11T14:25:12.000Z</time>
      </trkpt>
      <trkpt lat="47.30102" lon="4.99471">
        <ele>386</ele>
        <time>2025-11-11T14:25:17.000Z</time>
      </trkpt>
      <trkpt lat="47.30102" lon="4.99467">
        <ele>386.9</ele>
        <time>2025-11-11T14:25:22.000Z</time>
      </trkpt>
      <trkpt lat="47.30103" lon="4.99459">
        <ele>388.7</ele>
        <time>2025-11-11T14:25:27.000Z</time>
      </trkpt>
      <trkpt lat="47.30103" lon="4.99453">
        <ele>387</ele>
        <time>2025-11-11T14:25:32.000Z</time>
      </trkpt>
      <trkpt lat="47.30104" lon="4.99448">
        <ele>389.5</ele>
        <time>2025-11-11T14:25:37.000Z</time>
      </trkpt>
      <trkpt lat="47.30104" lon="4.99444">
        <ele>390.6</ele>
        <time>2025-11-11T14:25:42.000Z</time>
      </trkpt>
      <trkpt lat="47.30102" lon="4.9944">
        <ele>390.6</ele>
        <time>2025-11-11T14:25:47.000Z</time>
      </trkpt>
      <trkpt lat="47.30101" lon="4.99434">
        <ele>390.9</ele>
        <time>2025-11-11T14:25:52.000Z</time>
      </trkpt>
      <trkpt lat="47.301" lon="4.9943">
        <ele>391.5</ele>
        <time>2025-11-11T14:25:57.000Z</time>
      </trkpt>
      <trkpt lat="47.301" lon="4.99427">
        <ele>392.9</ele>
        <time>2025-11-11T14:26:02.000Z</time>
      </trkpt>
      <trkpt lat="47.30101" lon="4.99421">
        <ele>391</ele>
        <time>2025-11-11T14:26:07.000Z</time>
      </trkpt>
      <trkpt lat="47.30101" lon="4.99415">
        <ele>390</ele>
        <time>2025-11-11T14:26:12.000Z</time>
      </trkpt>
      <trkpt lat="47.30101" lon="4.9941">
        <ele>389.8</ele>
        <time>2025-11-11T14:26:17.000Z</time>
      </trkpt>
      <trkpt lat="47.30102" lon="4.99404">
        <ele>392.8</ele>
        <time>2025-11-11T14:26:22.000Z</time>
      </trkpt>
      <trkpt lat="47.30102" lon="4.99399">
        <ele>393.4</ele>
        <time>2025-11-11T14:26:27.000Z</time>
      </trkpt>
      <trkpt lat="47.301" lon="4.99395">
        <ele>392.9</ele>
        <time>2025-11-11T14:26:32.000Z</time>
      </trkpt>
      <trkpt lat="47.30099" lon="4.99388">
        <ele>392.9</ele>
        <time>2025-11-11T14:26:37.000Z</time>
      </trkpt>
      <trkpt lat="47.30097" lon="4.99382">
        <ele>395</ele>
        <time>2025-11-11T14:26:42.000Z</time>
      </trkpt>
      <trkpt lat="47.30097" lon="4.99376">
        <ele>396.5</ele>
        <time>2025-11-11T14:26:47.000Z</time>
      </trkpt>
      <trkpt lat="47.30096" lon="4.99371">
        <ele>400.6</ele>
        <time>2025-11-11T14:26:52.000Z</time>
      </trkpt>
      <trkpt lat="47.30094" lon="4.99365">
        <ele>399.6</ele>
        <time>2025-11-11T14:26:57.000Z</time>
      </trkpt>
      <trkpt lat="47.30093" lon="4.99359">
        <ele>400.7</ele>
        <time>2025-11-11T14:27:02.000Z</time>
      </trkpt>
      <trkpt lat="47.30092" lon="4.99354">
        <ele>398.2</ele>
        <time>2025-11-11T14:27:07.000Z</time>
      </trkpt>
      <trkpt lat="47.30093" lon="4.99348">
        <ele>400.9</ele>
        <time>2025-11-11T14:27:12.000Z</time>
      </trkpt>
      <trkpt lat="47.30095" lon="4.99341">
        <ele>402.1</ele>
        <time>2025-11-11T14:27:17.000Z</time>
      </trkpt>
      <trkpt lat="47.30095" lon="4.99336">
        <ele>402.1</ele>
        <time>2025-11-11T14:27:22.000Z</time>
      </trkpt>
      <trkpt lat="47.30094" lon="4.99333">
        <ele>402.2</ele>
        <time>2025-11-11T14:27:27.000Z</time>
      </trkpt>
      <trkpt lat="47.30093" lon="4.99332">
        <ele>402</ele>
        <time>2025-11-11T14:27:32.000Z</time>
      </trkpt>
      <trkpt lat="47.30091" lon="4.99328">
        <ele>401.8</ele>
        <time>2025-11-11T14:27:37.000Z</time>
      </trkpt>
      <trkpt lat="47.30089" lon="4.99322">
        <ele>403.4</ele>
        <time>2025-11-11T14:27:42.000Z</time>
      </trkpt>
      <trkpt lat="47.30086" lon="4.9932">
        <ele>402</ele>
        <time>2025-11-11T14:27:47.000Z</time>
      </trkpt>
      <trkpt lat="47.30083" lon="4.99318">
        <ele>402.6</ele>
        <time>2025-11-11T14:27:52.000Z</time>
      </trkpt>
      <trkpt lat="47.3008" lon="4.99315">
        <ele>404.6</ele>
        <time>2025-11-11T14:27:57.000Z</time>
      </trkpt>
      <trkpt lat="47.30076" lon="4.99309">
        <ele>403.2</ele>
        <time>2025-11-11T14:28:02.000Z</time>
      </trkpt>
      <trkpt lat="47.30074" lon="4.99303">
        <ele>404.6</ele>
        <time>2025-11-11T14:28:07.000Z</time>
      </trkpt>
      <trkpt lat="47.30069" lon="4.993">
        <ele>405.5</ele>
        <time>2025-11-11T14:28:12.000Z</time>
      </trkpt>
      <trkpt lat="47.30065" lon="4.99297">
        <ele>406.6</ele>
        <time>2025-11-11T14:28:17.000Z</time>
      </trkpt>
      <trkpt lat="47.3006" lon="4.99297">
        <ele>406.1</ele>
        <time>2025-11-11T14:28:22.000Z</time>
      </trkpt>
      <trkpt lat="47.30056" lon="4.99296">
        <ele>405.5</ele>
        <time>2025-11-11T14:28:27.000Z</time>
      </trkpt>
      <trkpt lat="47.30054" lon="4.99295">
        <ele>405.3</ele>
        <time>2025-11-11T14:28:32.000Z</time>
      </trkpt>
      <trkpt lat="47.3005" lon="4.99294">
        <ele>403.6</ele>
        <time>2025-11-11T14:28:37.000Z</time>
      </trkpt>
      <trkpt lat="47.30046" lon="4.99294">
        <ele>406.3</ele>
        <time>2025-11-11T14:28:42.000Z</time>
      </trkpt>
      <trkpt lat="47.30042" lon="4.99294">
        <ele>405.6</ele>
        <time>2025-11-11T14:28:47.000Z</time>
      </trkpt>
      <trkpt lat="47.3004" lon="4.99292">
        <ele>405.4</ele>
        <time>2025-11-11T14:28:52.000Z</time>
      </trkpt>
      <trkpt lat="47.30037" lon="4.9929">
        <ele>404.6</ele>
        <time>2025-11-11T14:28:57.000Z</time>
      </trkpt>
      <trkpt lat="47.30033" lon="4.99289">
        <ele>404.2</ele>
        <time>2025-11-11T14:29:02.000Z</time>
      </trkpt>
      <trkpt lat="47.30029" lon="4.99288">
        <ele>403.3</ele>
        <time>2025-11-11T14:29:07.000Z</time>
      </trkpt>
      <trkpt lat="47.30025" lon="4.99284">
        <ele>405.6</ele>
        <time>2025-11-11T14:29:12.000Z</time>
      </trkpt>
      <trkpt lat="47.30021" lon="4.9928">
        <ele>407.3</ele>
        <time>2025-11-11T14:29:17.000Z</time>
      </trkpt>
      <trkpt lat="47.30016" lon="4.99277">
        <ele>407.8</ele>
        <time>2025-11-11T14:29:22.000Z</time>
      </trkpt>
      <trkpt lat="47.30012" lon="4.99275">
        <ele>407.5</ele>
        <time>2025-11-11T14:29:27.000Z</time>
      </trkpt>
      <trkpt lat="47.30009" lon="4.99274">
        <ele>408.1</ele>
        <time>2025-11-11T14:29:32.000Z</time>
      </trkpt>
      <trkpt lat="47.30005" lon="4.99273">
        <ele>408.1</ele>
        <time>2025-11-11T14:29:37.000Z</time>
      </trkpt>
      <trkpt lat="47.30002" lon="4.99271">
        <ele>410.5</ele>
        <time>2025-11-11T14:29:42.000Z</time>
      </trkpt>
      <trkpt lat="47.29998" lon="4.99269">
        <ele>411.4</ele>
        <time>2025-11-11T14:29:47.000Z</time>
      </trkpt>
      <trkpt lat="47.29993" lon="4.99266">
        <ele>410.1</ele>
        <time>2025-11-11T14:29:52.000Z</time>
      </trkpt>
      <trkpt lat="47.29989" lon="4.9926">
        <ele>409.8</ele>
        <time>2025-11-11T14:29:57.000Z</time>
      </trkpt>
      <trkpt lat="47.29985" lon="4.99256">
        <ele>410</ele>
        <time>2025-11-11T14:30:02.000Z</time>
      </trkpt>
      <trkpt lat="47.29981" lon="4.99253">
        <ele>410.3</ele>
        <time>2025-11-11T14:30:07.000Z</time>
      </trkpt>
      <trkpt lat="47.29979" lon="4.99247">
        <ele>407.6</ele>
        <time>2025-11-11T14:30:12.000Z</time>
      </trkpt>
      <trkpt lat="47.29979" lon="4.9924">
        <ele>407.9</ele>
        <time>2025-11-11T14:30:17.000Z</time>
      </trkpt>
      <trkpt lat="47.29979" lon="4.99235">
        <ele>407.2</ele>
        <time>2025-11-11T14:30:22.000Z</time>
      </trkpt>
      <trkpt lat="47.29977" lon="4.99229">
        <ele>407.1</ele>
        <time>2025-11-11T14:30:27.000Z</time>
      </trkpt>
      <trkpt lat="47.29978" lon="4.99223">
        <ele>407.7</ele>
        <time>2025-11-11T14:30:32.000Z</time>
      </trkpt>
      <trkpt lat="47.29978" lon="4.99216">
        <ele>406.1</ele>
        <time>2025-11-11T14:30:37.000Z</time>
      </trkpt>
      <trkpt lat="47.29978" lon="4.99211">
        <ele>406.7</ele>
        <time>2025-11-11T14:30:42.000Z</time>
      </trkpt>
      <trkpt lat="47.29979" lon="4.99205">
        <ele>408.1</ele>
        <time>2025-11-11T14:30:47.000Z</time>
      </trkpt>
      <trkpt lat="47.29979" lon="4.99199">
        <ele>407.8</ele>
        <time>2025-11-11T14:30:52.000Z</time>
      </trkpt>
      <trkpt lat="47.29979" lon="4.99191">
        <ele>410.6</ele>
        <time>2025-11-11T14:30:57.000Z</time>
      </trkpt>
      <trkpt lat="47.29979" lon="4.99186">
        <ele>409.5</ele>
        <time>2025-11-11T14:31:02.000Z</time>
      </trkpt>
      <trkpt lat="47.29978" lon="4.9918">
        <ele>409.1</ele>
        <time>2025-11-11T14:31:07.000Z</time>
      </trkpt>
      <trkpt lat="47.29977" lon="4.99174">
        <ele>410.3</ele>
        <time>2025-11-11T14:31:12.000Z</time>
      </trkpt>
      <trkpt lat="47.29975" lon="4.99168">
        <ele>409.9</ele>
        <time>2025-11-11T14:31:17.000Z</time>
      </trkpt>
      <trkpt lat="47.29973" lon="4.99162">
        <ele>409</ele>
        <time>2025-11-11T14:31:22.000Z</time>
      </trkpt>
      <trkpt lat="47.29973" lon="4.99156">
        <ele>409.3</ele>
        <time>2025-11-11T14:31:27.000Z</time>
      </trkpt>
      <trkpt lat="47.29976" lon="4.99149">
        <ele>410.1</ele>
        <time>2025-11-11T14:31:32.000Z</time>
      </trkpt>
      <trkpt lat="47.29979" lon="4.99143">
        <ele>412.2</ele>
        <time>2025-11-11T14:31:37.000Z</time>
      </trkpt>
      <trkpt lat="47.29981" lon="4.99136">
        <ele>413</ele>
        <time>2025-11-11T14:31:42.000Z</time>
      </trkpt>
      <trkpt lat="47.29983" lon="4.9913">
        <ele>413</ele>
        <time>2025-11-11T14:31:47.000Z</time>
      </trkpt>
      <trkpt lat="47.29985" lon="4.99124">
        <ele>412.5</ele>
        <time>2025-11-11T14:31:52.000Z</time>
      </trkpt>
      <trkpt lat="47.29987" lon="4.99117">
        <ele>413.6</ele>
        <time>2025-11-11T14:31:57.000Z</time>
      </trkpt>
      <trkpt lat="47.29988" lon="4.99111">
        <ele>411.5</ele>
        <time>2025-11-11T14:32:02.000Z</time>
      </trkpt>
      <trkpt lat="47.2999" lon="4.99104">
        <ele>411.3</ele>
        <time>2025-11-11T14:32:07.000Z</time>
      </trkpt>
      <trkpt lat="47.29993" lon="4.99098">
        <ele>410.9</ele>
        <time>2025-11-11T14:32:12.000Z</time>
      </trkpt>
      <trkpt lat="47.29996" lon="4.99092">
        <ele>410.2</ele>
        <time>2025-11-11T14:32:17.000Z</time>
      </trkpt>
      <trkpt lat="47.29999" lon="4.99087">
        <ele>411</ele>
        <time>2025-11-11T14:32:22.000Z</time>
      </trkpt>
      <trkpt lat="47.30003" lon="4.99082">
        <ele>411.9</ele>
        <time>2025-11-11T14:32:27.000Z</time>
      </trkpt>
      <trkpt lat="47.30007" lon="4.99078">
        <ele>412.7</ele>
        <time>2025-11-11T14:32:32.000Z</time>
      </trkpt>
      <trkpt lat="47.3001" lon="4.99074">
        <ele>412.6</ele>
        <time>2025-11-11T14:32:37.000Z</time>
      </trkpt>
      <trkpt lat="47.30013" lon="4.99068">
        <ele>412.8</ele>
        <time>2025-11-11T14:32:42.000Z</time>
      </trkpt>
      <trkpt lat="47.30014" lon="4.99061">
        <ele>412.2</ele>
        <time>2025-11-11T14:32:47.000Z</time>
      </trkpt>
      <trkpt lat="47.30016" lon="4.99054">
        <ele>412.8</ele>
        <time>2025-11-11T14:32:52.000Z</time>
      </trkpt>
      <trkpt lat="47.30018" lon="4.99048">
        <ele>411.8</ele>
        <time>2025-11-11T14:32:57.000Z</time>
      </trkpt>
      <trkpt lat="47.3002" lon="4.99041">
        <ele>410.2</ele>
        <time>2025-11-11T14:33:02.000Z</time>
      </trkpt>
      <trkpt lat="47.30021" lon="4.99034">
        <ele>412.2</ele>
        <time>2025-11-11T14:33:07.000Z</time>
      </trkpt>
      <trkpt lat="47.30024" lon="4.99028">
        <ele>413.2</ele>
        <time>2025-11-11T14:33:12.000Z</time>
      </trkpt>
      <trkpt lat="47.30024" lon="4.99019">
        <ele>413.2</ele>
        <time>2025-11-11T14:33:17.000Z</time>
      </trkpt>
      <trkpt lat="47.30025" lon="4.9901">
        <ele>415.7</ele>
        <time>2025-11-11T14:33:22.000Z</time>
      </trkpt>
      <trkpt lat="47.30025" lon="4.99003">
        <ele>413.6</ele>
        <time>2025-11-11T14:33:27.000Z</time>
      </trkpt>
      <trkpt lat="47.30024" lon="4.98996">
        <ele>414</ele>
        <time>2025-11-11T14:33:32.000Z</time>
      </trkpt>
      <trkpt lat="47.3002" lon="4.98994">
        <ele>412.3</ele>
        <time>2025-11-11T14:33:37.000Z</time>
      </trkpt>
      <trkpt lat="47.30015" lon="4.98994">
        <ele>413</ele>
        <time>2025-11-11T14:33:42.000Z</time>
      </trkpt>
      <trkpt lat="47.30009" lon="4.98996">
        <ele>414.6</ele>
        <time>2025-11-11T14:33:47.000Z</time>
      </trkpt>
      <trkpt lat="47.30004" lon="4.98995">
        <ele>413.8</ele>
        <time>2025-11-11T14:33:52.000Z</time>
      </trkpt>
      <trkpt lat="47.29999" lon="4.98996">
        <ele>413.3</ele>
        <time>2025-11-11T14:33:57.000Z</time>
      </trkpt>
      <trkpt lat="47.29993" lon="4.98996">
        <ele>412.8</ele>
        <time>2025-11-11T14:34:02.000Z</time>
      </trkpt>
      <trkpt lat="47.29989" lon="4.98995">
        <ele>413.2</ele>
        <time>2025-11-11T14:34:07.000Z</time>
      </trkpt>
      <trkpt lat="47.29984" lon="4.98994">
        <ele>413.3</ele>
        <time>2025-11-11T14:34:13.000Z</time>
      </trkpt>
      <trkpt lat="47.2998" lon="4.98992">
        <ele>415.3</ele>
        <time>2025-11-11T14:34:18.000Z</time>
      </trkpt>
      <trkpt lat="47.29975" lon="4.98989">
        <ele>416.2</ele>
        <time>2025-11-11T14:34:23.000Z</time>
      </trkpt>
      <trkpt lat="47.2997" lon="4.98988">
        <ele>415.9</ele>
        <time>2025-11-11T14:34:28.000Z</time>
      </trkpt>
      <trkpt lat="47.29965" lon="4.98985">
        <ele>416.2</ele>
        <time>2025-11-11T14:34:33.000Z</time>
      </trkpt>
      <trkpt lat="47.29961" lon="4.98981">
        <ele>416.1</ele>
        <time>2025-11-11T14:34:38.000Z</time>
      </trkpt>
      <trkpt lat="47.29955" lon="4.98976">
        <ele>416.8</ele>
        <time>2025-11-11T14:34:43.000Z</time>
      </trkpt>
      <trkpt lat="47.2995" lon="4.98973">
        <ele>417.1</ele>
        <time>2025-11-11T14:34:48.000Z</time>
      </trkpt>
      <trkpt lat="47.29945" lon="4.98972">
        <ele>416.8</ele>
        <time>2025-11-11T14:34:53.000Z</time>
      </trkpt>
      <trkpt lat="47.2994" lon="4.98969">
        <ele>418.7</ele>
        <time>2025-11-11T14:34:59.000Z</time>
      </trkpt>
      <trkpt lat="47.29934" lon="4.98965">
        <ele>419.4</ele>
        <time>2025-11-11T14:35:04.000Z</time>
      </trkpt>
      <trkpt lat="47.29928" lon="4.98963">
        <ele>418.1</ele>
        <time>2025-11-11T14:35:09.000Z</time>
      </trkpt>
      <trkpt lat="47.29923" lon="4.98961">
        <ele>418.6</ele>
        <time>2025-11-11T14:35:14.000Z</time>
      </trkpt>
      <trkpt lat="47.29918" lon="4.9896">
        <ele>417.8</ele>
        <time>2025-11-11T14:35:19.000Z</time>
      </trkpt>
      <trkpt lat="47.29913" lon="4.98954">
        <ele>418.6</ele>
        <time>2025-11-11T14:35:24.000Z</time>
      </trkpt>
      <trkpt lat="47.29908" lon="4.98954">
        <ele>417.3</ele>
        <time>2025-11-11T14:35:29.000Z</time>
      </trkpt>
      <trkpt lat="47.29906" lon="4.98955">
        <ele>418.1</ele>
        <time>2025-11-11T14:35:34.000Z</time>
      </trkpt>
      <trkpt lat="47.299" lon="4.98951">
        <ele>419.3</ele>
        <time>2025-11-11T14:35:39.000Z</time>
      </trkpt>
      <trkpt lat="47.29894" lon="4.98949">
        <ele>419.5</ele>
        <time>2025-11-11T14:35:44.000Z</time>
      </trkpt>
      <trkpt lat="47.2989" lon="4.98948">
        <ele>417.7</ele>
        <time>2025-11-11T14:35:49.000Z</time>
      </trkpt>
      <trkpt lat="47.29884" lon="4.98946">
        <ele>418</ele>
        <time>2025-11-11T14:35:54.000Z</time>
      </trkpt>
      <trkpt lat="47.29879" lon="4.98946">
        <ele>418.6</ele>
        <time>2025-11-11T14:35:59.000Z</time>
      </trkpt>
      <trkpt lat="47.29874" lon="4.98944">
        <ele>419.5</ele>
        <time>2025-11-11T14:36:04.000Z</time>
      </trkpt>
      <trkpt lat="47.29867" lon="4.98943">
        <ele>418.2</ele>
        <time>2025-11-11T14:36:09.000Z</time>
      </trkpt>
      <trkpt lat="47.29862" lon="4.9894">
        <ele>419.3</ele>
        <time>2025-11-11T14:36:14.000Z</time>
      </trkpt>
      <trkpt lat="47.29858" lon="4.9894">
        <ele>417.8</ele>
        <time>2025-11-11T14:36:19.000Z</time>
      </trkpt>
      <trkpt lat="47.29852" lon="4.98938">
        <ele>419.6</ele>
        <time>2025-11-11T14:36:24.000Z</time>
      </trkpt>
      <trkpt lat="47.29847" lon="4.98937">
        <ele>419.3</ele>
        <time>2025-11-11T14:36:29.000Z</time>
      </trkpt>
      <trkpt lat="47.29842" lon="4.98935">
        <ele>422.7</ele>
        <time>2025-11-11T14:36:34.000Z</time>
      </trkpt>
      <trkpt lat="47.29836" lon="4.98932">
        <ele>422.1</ele>
        <time>2025-11-11T14:36:39.000Z</time>
      </trkpt>
      <trkpt lat="47.2983" lon="4.98931">
        <ele>421.2</ele>
        <time>2025-11-11T14:36:44.000Z</time>
      </trkpt>
      <trkpt lat="47.29825" lon="4.98929">
        <ele>422.3</ele>
        <time>2025-11-11T14:36:49.000Z</time>
      </trkpt>
      <trkpt lat="47.29819" lon="4.98926">
        <ele>421.4</ele>
        <time>2025-11-11T14:36:54.000Z</time>
      </trkpt>
      <trkpt lat="47.29815" lon="4.98923">
        <ele>421.2</ele>
        <time>2025-11-11T14:36:59.000Z</time>
      </trkpt>
      <trkpt lat="47.29809" lon="4.98919">
        <ele>422.7</ele>
        <time>2025-11-11T14:37:04.000Z</time>
      </trkpt>
      <trkpt lat="47.29804" lon="4.98918">
        <ele>422.1</ele>
        <time>2025-11-11T14:37:09.000Z</time>
      </trkpt>
      <trkpt lat="47.29799" lon="4.98917">
        <ele>421</ele>
        <time>2025-11-11T14:37:14.000Z</time>
      </trkpt>
      <trkpt lat="47.29793" lon="4.98916">
        <ele>420.8</ele>
        <time>2025-11-11T14:37:20.000Z</time>
      </trkpt>
      <trkpt lat="47.29788" lon="4.98916">
        <ele>420.6</ele>
        <time>2025-11-11T14:37:25.000Z</time>
      </trkpt>
      <trkpt lat="47.29782" lon="4.98913">
        <ele>420.5</ele>
        <time>2025-11-11T14:37:30.000Z</time>
      </trkpt>
      <trkpt lat="47.29776" lon="4.98911">
        <ele>419.9</ele>
        <time>2025-11-11T14:37:35.000Z</time>
      </trkpt>
      <trkpt lat="47.29771" lon="4.98909">
        <ele>420</ele>
        <time>2025-11-11T14:37:40.000Z</time>
      </trkpt>
      <trkpt lat="47.29765" lon="4.98907">
        <ele>418.9</ele>
        <time>2025-11-11T14:37:45.000Z</time>
      </trkpt>
      <trkpt lat="47.2976" lon="4.98906">
        <ele>418</ele>
        <time>2025-11-11T14:37:50.000Z</time>
      </trkpt>
      <trkpt lat="47.29755" lon="4.98904">
        <ele>419</ele>
        <time>2025-11-11T14:37:55.000Z</time>
      </trkpt>
      <trkpt lat="47.2975" lon="4.98902">
        <ele>419</ele>
        <time>2025-11-11T14:38:00.000Z</time>
      </trkpt>
      <trkpt lat="47.29744" lon="4.98899">
        <ele>420.3</ele>
        <time>2025-11-11T14:38:05.000Z</time>
      </trkpt>
      <trkpt lat="47.29739" lon="4.98897">
        <ele>422.2</ele>
        <time>2025-11-11T14:38:10.000Z</time>
      </trkpt>
      <trkpt lat="47.29734" lon="4.98895">
        <ele>421.3</ele>
        <time>2025-11-11T14:38:15.000Z</time>
      </trkpt>
      <trkpt lat="47.29728" lon="4.98893">
        <ele>422.3</ele>
        <time>2025-11-11T14:38:20.000Z</time>
      </trkpt>
      <trkpt lat="47.29723" lon="4.98891">
        <ele>422.3</ele>
        <time>2025-11-11T14:38:25.000Z</time>
      </trkpt>
      <trkpt lat="47.29717" lon="4.98888">
        <ele>422.2</ele>
        <time>2025-11-11T14:38:30.000Z</time>
      </trkpt>
      <trkpt lat="47.29711" lon="4.98886">
        <ele>420.7</ele>
        <time>2025-11-11T14:38:35.000Z</time>
      </trkpt>
      <trkpt lat="47.29705" lon="4.98881">
        <ele>420.9</ele>
        <time>2025-11-11T14:38:40.000Z</time>
      </trkpt>
      <trkpt lat="47.297" lon="4.98879">
        <ele>421.4</ele>
        <time>2025-11-11T14:38:45.000Z</time>
      </trkpt>
      <trkpt lat="47.29695" lon="4.98875">
        <ele>421</ele>
        <time>2025-11-11T14:38:50.000Z</time>
      </trkpt>
      <trkpt lat="47.29689" lon="4.98873">
        <ele>420.2</ele>
        <time>2025-11-11T14:38:55.000Z</time>
      </trkpt>
      <trkpt lat="47.29684" lon="4.98869">
        <ele>422.1</ele>
        <time>2025-11-11T14:39:00.000Z</time>
      </trkpt>
      <trkpt lat="47.29679" lon="4.98868">
        <ele>422.9</ele>
        <time>2025-11-11T14:39:05.000Z</time>
      </trkpt>
      <trkpt lat="47.29674" lon="4.98866">
        <ele>423.8</ele>
        <time>2025-11-11T14:39:10.000Z</time>
      </trkpt>
      <trkpt lat="47.29669" lon="4.98866">
        <ele>423.4</ele>
        <time>2025-11-11T14:39:15.000Z</time>
      </trkpt>
      <trkpt lat="47.29664" lon="4.98866">
        <ele>422.8</ele>
        <time>2025-11-11T14:39:20.000Z</time>
      </trkpt>
      <trkpt lat="47.29657" lon="4.98865">
        <ele>421.3</ele>
        <time>2025-11-11T14:39:25.000Z</time>
      </trkpt>
      <trkpt lat="47.29653" lon="4.98864">
        <ele>422.3</ele>
        <time>2025-11-11T14:39:30.000Z</time>
      </trkpt>
      <trkpt lat="47.29647" lon="4.98862">
        <ele>423.1</ele>
        <time>2025-11-11T14:39:35.000Z</time>
      </trkpt>
      <trkpt lat="47.29642" lon="4.98859">
        <ele>421</ele>
        <time>2025-11-11T14:39:40.000Z</time>
      </trkpt>
      <trkpt lat="47.29635" lon="4.98858">
        <ele>421</ele>
        <time>2025-11-11T14:39:45.000Z</time>
      </trkpt>
      <trkpt lat="47.29628" lon="4.98856">
        <ele>420.2</ele>
        <time>2025-11-11T14:39:50.000Z</time>
      </trkpt>
      <trkpt lat="47.29623" lon="4.98852">
        <ele>421</ele>
        <time>2025-11-11T14:39:55.000Z</time>
      </trkpt>
      <trkpt lat="47.29618" lon="4.98848">
        <ele>421.1</ele>
        <time>2025-11-11T14:40:00.000Z</time>
      </trkpt>
      <trkpt lat="47.29614" lon="4.98846">
        <ele>420.6</ele>
        <time>2025-11-11T14:40:05.000Z</time>
      </trkpt>
      <trkpt lat="47.2961" lon="4.98844">
        <ele>419.3</ele>
        <time>2025-11-11T14:40:10.000Z</time>
      </trkpt>
      <trkpt lat="47.29604" lon="4.98841">
        <ele>421.1</ele>
        <time>2025-11-11T14:40:15.000Z</time>
      </trkpt>
      <trkpt lat="47.29599" lon="4.98837">
        <ele>421.3</ele>
        <time>2025-11-11T14:40:20.000Z</time>
      </trkpt>
      <trkpt lat="47.29594" lon="4.98835">
        <ele>420.4</ele>
        <time>2025-11-11T14:40:25.000Z</time>
      </trkpt>
      <trkpt lat="47.29589" lon="4.98832">
        <ele>419.2</ele>
        <time>2025-11-11T14:40:30.000Z</time>
      </trkpt>
      <trkpt lat="47.29584" lon="4.9883">
        <ele>417.6</ele>
        <time>2025-11-11T14:40:35.000Z</time>
      </trkpt>
      <trkpt lat="47.29579" lon="4.98826">
        <ele>418.3</ele>
        <time>2025-11-11T14:40:40.000Z</time>
      </trkpt>
      <trkpt lat="47.29574" lon="4.98823">
        <ele>418.3</ele>
        <time>2025-11-11T14:40:45.000Z</time>
      </trkpt>
      <trkpt lat="47.29569" lon="4.98819">
        <ele>418.9</ele>
        <time>2025-11-11T14:40:50.000Z</time>
      </trkpt>
      <trkpt lat="47.29564" lon="4.98817">
        <ele>418.5</ele>
        <time>2025-11-11T14:40:55.000Z</time>
      </trkpt>
      <trkpt lat="47.29557" lon="4.98814">
        <ele>417.8</ele>
        <time>2025-11-11T14:41:00.000Z</time>
      </trkpt>
      <trkpt lat="47.29552" lon="4.9881">
        <ele>418.6</ele>
        <time>2025-11-11T14:41:05.000Z</time>
      </trkpt>
      <trkpt lat="47.29546" lon="4.98806">
        <ele>417.9</ele>
        <time>2025-11-11T14:41:10.000Z</time>
      </trkpt>
      <trkpt lat="47.29541" lon="4.98802">
        <ele>419.4</ele>
        <time>2025-11-11T14:41:15.000Z</time>
      </trkpt>
      <trkpt lat="47.29537" lon="4.98798">
        <ele>420.6</ele>
        <time>2025-11-11T14:41:20.000Z</time>
      </trkpt>
      <trkpt lat="47.29532" lon="4.98795">
        <ele>421</ele>
        <time>2025-11-11T14:41:25.000Z</time>
      </trkpt>
      <trkpt lat="47.29526" lon="4.98791">
        <ele>420.8</ele>
        <time>2025-11-11T14:41:30.000Z</time>
      </trkpt>
      <trkpt lat="47.2952" lon="4.98788">
        <ele>420.1</ele>
        <time>2025-11-11T14:41:35.000Z</time>
      </trkpt>
      <trkpt lat="47.29516" lon="4.98787">
        <ele>419.5</ele>
        <time>2025-11-11T14:41:40.000Z</time>
      </trkpt>
      <trkpt lat="47.29512" lon="4.98786">
        <ele>419.3</ele>
        <time>2025-11-11T14:41:45.000Z</time>
      </trkpt>
      <trkpt lat="47.29506" lon="4.98783">
        <ele>419.4</ele>
        <time>2025-11-11T14:41:50.000Z</time>
      </trkpt>
      <trkpt lat="47.29502" lon="4.9878">
        <ele>418.5</ele>
        <time>2025-11-11T14:41:55.000Z</time>
      </trkpt>
      <trkpt lat="47.29496" lon="4.98778">
        <ele>418.5</ele>
        <time>2025-11-11T14:42:00.000Z</time>
      </trkpt>
      <trkpt lat="47.29492" lon="4.98775">
        <ele>418.2</ele>
        <time>2025-11-11T14:42:05.000Z</time>
      </trkpt>
      <trkpt lat="47.29485" lon="4.98774">
        <ele>416.4</ele>
        <time>2025-11-11T14:42:10.000Z</time>
      </trkpt>
      <trkpt lat="47.2948" lon="4.98772">
        <ele>415.6</ele>
        <time>2025-11-11T14:42:15.000Z</time>
      </trkpt>
      <trkpt lat="47.29473" lon="4.9877">
        <ele>416.3</ele>
        <time>2025-11-11T14:42:20.000Z</time>
      </trkpt>
      <trkpt lat="47.29468" lon="4.98768">
        <ele>416.1</ele>
        <time>2025-11-11T14:42:25.000Z</time>
      </trkpt>
      <trkpt lat="47.29463" lon="4.98766">
        <ele>415.7</ele>
        <time>2025-11-11T14:42:30.000Z</time>
      </trkpt>
      <trkpt lat="47.29458" lon="4.98765">
        <ele>415.2</ele>
        <time>2025-11-11T14:42:35.000Z</time>
      </trkpt>
      <trkpt lat="47.29452" lon="4.98764">
        <ele>414.5</ele>
        <time>2025-11-11T14:42:40.000Z</time>
      </trkpt>
      <trkpt lat="47.29448" lon="4.9876">
        <ele>415.7</ele>
        <time>2025-11-11T14:42:45.000Z</time>
      </trkpt>
      <trkpt lat="47.29442" lon="4.98757">
        <ele>416.7</ele>
        <time>2025-11-11T14:42:50.000Z</time>
      </trkpt>
      <trkpt lat="47.29436" lon="4.98753">
        <ele>417.4</ele>
        <time>2025-11-11T14:42:55.000Z</time>
      </trkpt>
      <trkpt lat="47.29431" lon="4.9875">
        <ele>417.7</ele>
        <time>2025-11-11T14:43:00.000Z</time>
      </trkpt>
      <trkpt lat="47.29425" lon="4.98747">
        <ele>418.9</ele>
        <time>2025-11-11T14:43:05.000Z</time>
      </trkpt>
      <trkpt lat="47.2942" lon="4.98746">
        <ele>419</ele>
        <time>2025-11-11T14:43:10.000Z</time>
      </trkpt>
      <trkpt lat="47.29415" lon="4.98743">
        <ele>418.2</ele>
        <time>2025-11-11T14:43:15.000Z</time>
      </trkpt>
      <trkpt lat="47.29409" lon="4.9874">
        <ele>416.6</ele>
        <time>2025-11-11T14:43:20.000Z</time>
      </trkpt>
      <trkpt lat="47.29404" lon="4.98736">
        <ele>418.5</ele>
        <time>2025-11-11T14:43:25.000Z</time>
      </trkpt>
      <trkpt lat="47.29398" lon="4.98733">
        <ele>418.1</ele>
        <time>2025-11-11T14:43:30.000Z</time>
      </trkpt>
      <trkpt lat="47.29392" lon="4.98729">
        <ele>416.9</ele>
        <time>2025-11-11T14:43:35.000Z</time>
      </trkpt>
      <trkpt lat="47.29386" lon="4.98728">
        <ele>415.6</ele>
        <time>2025-11-11T14:43:40.000Z</time>
      </trkpt>
      <trkpt lat="47.29381" lon="4.98725">
        <ele>415.5</ele>
        <time>2025-11-11T14:43:45.000Z</time>
      </trkpt>
      <trkpt lat="47.29375" lon="4.98722">
        <ele>418.1</ele>
        <time>2025-11-11T14:43:50.000Z</time>
      </trkpt>
      <trkpt lat="47.29371" lon="4.9872">
        <ele>417.1</ele>
        <time>2025-11-11T14:43:55.000Z</time>
      </trkpt>
      <trkpt lat="47.29363" lon="4.98715">
        <ele>417.6</ele>
        <time>2025-11-11T14:44:00.000Z</time>
      </trkpt>
      <trkpt lat="47.2936" lon="4.98711">
        <ele>418.2</ele>
        <time>2025-11-11T14:44:05.000Z</time>
      </trkpt>
      <trkpt lat="47.29354" lon="4.98707">
        <ele>417.4</ele>
        <time>2025-11-11T14:44:10.000Z</time>
      </trkpt>
      <trkpt lat="47.29351" lon="4.98707">
        <ele>416.4</ele>
        <time>2025-11-11T14:44:15.000Z</time>
      </trkpt>
      <trkpt lat="47.29346" lon="4.98705">
        <ele>413.7</ele>
        <time>2025-11-11T14:44:20.000Z</time>
      </trkpt>
      <trkpt lat="47.29342" lon="4.98704">
        <ele>413.6</ele>
        <time>2025-11-11T14:44:25.000Z</time>
      </trkpt>
      <trkpt lat="47.29336" lon="4.98702">
        <ele>415.4</ele>
        <time>2025-11-11T14:44:30.000Z</time>
      </trkpt>
      <trkpt lat="47.29329" lon="4.98698">
        <ele>415.5</ele>
        <time>2025-11-11T14:44:35.000Z</time>
      </trkpt>
      <trkpt lat="47.29322" lon="4.98694">
        <ele>415</ele>
        <time>2025-11-11T14:44:40.000Z</time>
      </trkpt>
      <trkpt lat="47.29318" lon="4.98692">
        <ele>413.9</ele>
        <time>2025-11-11T14:44:45.000Z</time>
      </trkpt>
      <trkpt lat="47.29313" lon="4.9869">
        <ele>414.2</ele>
        <time>2025-11-11T14:44:50.000Z</time>
      </trkpt>
      <trkpt lat="47.29308" lon="4.98689">
        <ele>412.5</ele>
        <time>2025-11-11T14:44:55.000Z</time>
      </trkpt>
      <trkpt lat="47.29302" lon="4.98688">
        <ele>413.3</ele>
        <time>2025-11-11T14:45:00.000Z</time>
      </trkpt>
      <trkpt lat="47.29298" lon="4.98687">
        <ele>413.3</ele>
        <time>2025-11-11T14:45:05.000Z</time>
      </trkpt>
      <trkpt lat="47.29292" lon="4.98687">
        <ele>413.4</ele>
        <time>2025-11-11T14:45:10.000Z</time>
      </trkpt>
      <trkpt lat="47.29287" lon="4.98685">
        <ele>413.2</ele>
        <time>2025-11-11T14:45:15.000Z</time>
      </trkpt>
      <trkpt lat="47.29281" lon="4.98683">
        <ele>413.8</ele>
        <time>2025-11-11T14:45:20.000Z</time>
      </trkpt>
      <trkpt lat="47.29277" lon="4.98683">
        <ele>413.6</ele>
        <time>2025-11-11T14:45:25.000Z</time>
      </trkpt>
      <trkpt lat="47.29272" lon="4.98682">
        <ele>414.3</ele>
        <time>2025-11-11T14:45:30.000Z</time>
      </trkpt>
      <trkpt lat="47.29267" lon="4.98681">
        <ele>412.1</ele>
        <time>2025-11-11T14:45:35.000Z</time>
      </trkpt>
      <trkpt lat="47.29261" lon="4.98676">
        <ele>413.7</ele>
        <time>2025-11-11T14:45:40.000Z</time>
      </trkpt>
      <trkpt lat="47.29256" lon="4.98672">
        <ele>414.2</ele>
        <time>2025-11-11T14:45:45.000Z</time>
      </trkpt>
      <trkpt lat="47.2925" lon="4.98669">
        <ele>416.3</ele>
        <time>2025-11-11T14:45:50.000Z</time>
      </trkpt>
      <trkpt lat="47.29243" lon="4.98667">
        <ele>416.7</ele>
        <time>2025-11-11T14:45:55.000Z</time>
      </trkpt>
      <trkpt lat="47.29237" lon="4.98664">
        <ele>416.9</ele>
        <time>2025-11-11T14:46:00.000Z</time>
      </trkpt>
      <trkpt lat="47.29231" lon="4.98661">
        <ele>417</ele>
        <time>2025-11-11T14:46:05.000Z</time>
      </trkpt>
      <trkpt lat="47.29225" lon="4.9866">
        <ele>415.2</ele>
        <time>2025-11-11T14:46:10.000Z</time>
      </trkpt>
      <trkpt lat="47.29219" lon="4.98659">
        <ele>415</ele>
        <time>2025-11-11T14:46:15.000Z</time>
      </trkpt>
      <trkpt lat="47.29213" lon="4.98657">
        <ele>415.1</ele>
        <time>2025-11-11T14:46:20.000Z</time>
      </trkpt>
      <trkpt lat="47.29207" lon="4.98652">
        <ele>415.2</ele>
        <time>2025-11-11T14:46:25.000Z</time>
      </trkpt>
      <trkpt lat="47.29208" lon="4.98647">
        <ele>414.6</ele>
        <time>2025-11-11T14:46:30.000Z</time>
      </trkpt>
      <trkpt lat="47.29209" lon="4.98641">
        <ele>414.2</ele>
        <time>2025-11-11T14:46:35.000Z</time>
      </trkpt>
      <trkpt lat="47.29212" lon="4.98634">
        <ele>413.7</ele>
        <time>2025-11-11T14:46:40.000Z</time>
      </trkpt>
      <trkpt lat="47.29215" lon="4.98627">
        <ele>413.7</ele>
        <time>2025-11-11T14:46:45.000Z</time>
      </trkpt>
      <trkpt lat="47.29217" lon="4.9862">
        <ele>413.3</ele>
        <time>2025-11-11T14:46:50.000Z</time>
      </trkpt>
      <trkpt lat="47.29217" lon="4.98613">
        <ele>412.2</ele>
        <time>2025-11-11T14:46:55.000Z</time>
      </trkpt>
      <trkpt lat="47.29218" lon="4.98606">
        <ele>413.3</ele>
        <time>2025-11-11T14:47:00.000Z</time>
      </trkpt>
      <trkpt lat="47.29219" lon="4.98599">
        <ele>414.4</ele>
        <time>2025-11-11T14:47:05.000Z</time>
      </trkpt>
      <trkpt lat="47.2922" lon="4.9859">
        <ele>415.4</ele>
        <time>2025-11-11T14:47:10.000Z</time>
      </trkpt>
      <trkpt lat="47.2922" lon="4.98583">
        <ele>416.5</ele>
        <time>2025-11-11T14:47:15.000Z</time>
      </trkpt>
      <trkpt lat="47.29219" lon="4.98575">
        <ele>417</ele>
        <time>2025-11-11T14:47:20.000Z</time>
      </trkpt>
      <trkpt lat="47.29221" lon="4.98566">
        <ele>418.3</ele>
        <time>2025-11-11T14:47:25.000Z</time>
      </trkpt>
      <trkpt lat="47.29221" lon="4.98558">
        <ele>419.1</ele>
        <time>2025-11-11T14:47:30.000Z</time>
      </trkpt>
      <trkpt lat="47.2922" lon="4.9855">
        <ele>419.6</ele>
        <time>2025-11-11T14:47:35.000Z</time>
      </trkpt>
      <trkpt lat="47.29221" lon="4.98542">
        <ele>418.7</ele>
        <time>2025-11-11T14:47:40.000Z</time>
      </trkpt>
      <trkpt lat="47.29221" lon="4.98534">
        <ele>418.5</ele>
        <time>2025-11-11T14:47:45.000Z</time>
      </trkpt>
      <trkpt lat="47.29219" lon="4.98528">
        <ele>417.4</ele>
        <time>2025-11-11T14:47:50.000Z</time>
      </trkpt>
      <trkpt lat="47.29218" lon="4.98522">
        <ele>417.3</ele>
        <time>2025-11-11T14:47:55.000Z</time>
      </trkpt>
      <trkpt lat="47.29216" lon="4.98517">
        <ele>416.1</ele>
        <time>2025-11-11T14:48:00.000Z</time>
      </trkpt>
      <trkpt lat="47.29214" lon="4.9851">
        <ele>416.7</ele>
        <time>2025-11-11T14:48:05.000Z</time>
      </trkpt>
      <trkpt lat="47.29211" lon="4.98502">
        <ele>418.2</ele>
        <time>2025-11-11T14:48:10.000Z</time>
      </trkpt>
      <trkpt lat="47.2921" lon="4.98496">
        <ele>418.7</ele>
        <time>2025-11-11T14:48:15.000Z</time>
      </trkpt>
      <trkpt lat="47.29214" lon="4.9849">
        <ele>418.8</ele>
        <time>2025-11-11T14:48:20.000Z</time>
      </trkpt>
      <trkpt lat="47.29217" lon="4.98487">
        <ele>417.4</ele>
        <time>2025-11-11T14:48:25.000Z</time>
      </trkpt>
      <trkpt lat="47.29218" lon="4.98483">
        <ele>418.4</ele>
        <time>2025-11-11T14:48:30.000Z</time>
      </trkpt>
      <trkpt lat="47.29219" lon="4.98477">
        <ele>418.9</ele>
        <time>2025-11-11T14:48:35.000Z</time>
      </trkpt>
      <trkpt lat="47.29221" lon="4.98471">
        <ele>420.3</ele>
        <time>2025-11-11T14:48:40.000Z</time>
      </trkpt>
      <trkpt lat="47.29221" lon="4.98463">
        <ele>420.3</ele>
        <time>2025-11-11T14:48:45.000Z</time>
      </trkpt>
      <trkpt lat="47.29219" lon="4.98458">
        <ele>419.5</ele>
        <time>2025-11-11T14:48:50.000Z</time>
      </trkpt>
      <trkpt lat="47.29217" lon="4.98454">
        <ele>420.2</ele>
        <time>2025-11-11T14:48:55.000Z</time>
      </trkpt>
      <trkpt lat="47.29214" lon="4.98449">
        <ele>421</ele>
        <time>2025-11-11T14:49:00.000Z</time>
      </trkpt>
      <trkpt lat="47.29211" lon="4.98444">
        <ele>420.6</ele>
        <time>2025-11-11T14:49:05.000Z</time>
      </trkpt>
      <trkpt lat="47.29208" lon="4.98442">
        <ele>419.9</ele>
        <time>2025-11-11T14:49:10.000Z</time>
      </trkpt>
      <trkpt lat="47.29208" lon="4.98437">
        <ele>421.3</ele>
        <time>2025-11-11T14:49:15.000Z</time>
      </trkpt>
      <trkpt lat="47.29205" lon="4.98432">
        <ele>420.9</ele>
        <time>2025-11-11T14:49:20.000Z</time>
      </trkpt>
      <trkpt lat="47.29203" lon="4.98428">
        <ele>420.1</ele>
        <time>2025-11-11T14:49:25.000Z</time>
      </trkpt>
      <trkpt lat="47.292" lon="4.98424">
        <ele>418.9</ele>
        <time>2025-11-11T14:49:30.000Z</time>
      </trkpt>
      <trkpt lat="47.29198" lon="4.98417">
        <ele>419.2</ele>
        <time>2025-11-11T14:49:35.000Z</time>
      </trkpt>
      <trkpt lat="47.29198" lon="4.9841">
        <ele>420.1</ele>
        <time>2025-11-11T14:49:40.000Z</time>
      </trkpt>
      <trkpt lat="47.29196" lon="4.98403">
        <ele>420.3</ele>
        <time>2025-11-11T14:49:45.000Z</time>
      </trkpt>
      <trkpt lat="47.29195" lon="4.98397">
        <ele>421.4</ele>
        <time>2025-11-11T14:49:50.000Z</time>
      </trkpt>
      <trkpt lat="47.29194" lon="4.98391">
        <ele>420.3</ele>
        <time>2025-11-11T14:49:55.000Z</time>
      </trkpt>
      <trkpt lat="47.29193" lon="4.98385">
        <ele>420.3</ele>
        <time>2025-11-11T14:50:00.000Z</time>
      </trkpt>
      <trkpt lat="47.29193" lon="4.98378">
        <ele>421.1</ele>
        <time>2025-11-11T14:50:05.000Z</time>
      </trkpt>
      <trkpt lat="47.2919" lon="4.98372">
        <ele>421.2</ele>
        <time>2025-11-11T14:50:10.000Z</time>
      </trkpt>
      <trkpt lat="47.29188" lon="4.98367">
        <ele>421.7</ele>
        <time>2025-11-11T14:50:15.000Z</time>
      </trkpt>
      <trkpt lat="47.29187" lon="4.98362">
        <ele>422.4</ele>
        <time>2025-11-11T14:50:20.000Z</time>
      </trkpt>
      <trkpt lat="47.29186" lon="4.98356">
        <ele>423.6</ele>
        <time>2025-11-11T14:50:25.000Z</time>
      </trkpt>
      <trkpt lat="47.29185" lon="4.98349">
        <ele>422.6</ele>
        <time>2025-11-11T14:50:30.000Z</time>
      </trkpt>
      <trkpt lat="47.29184" lon="4.98343">
        <ele>422.6</ele>
        <time>2025-11-11T14:50:35.000Z</time>
      </trkpt>
      <trkpt lat="47.29184" lon="4.98337">
        <ele>422.6</ele>
        <time>2025-11-11T14:50:40.000Z</time>
      </trkpt>
      <trkpt lat="47.29185" lon="4.98331">
        <ele>423.2</ele>
        <time>2025-11-11T14:50:45.000Z</time>
      </trkpt>
      <trkpt lat="47.29187" lon="4.98325">
        <ele>423.4</ele>
        <time>2025-11-11T14:50:50.000Z</time>
      </trkpt>
      <trkpt lat="47.29187" lon="4.98319">
        <ele>422.6</ele>
        <time>2025-11-11T14:50:55.000Z</time>
      </trkpt>
      <trkpt lat="47.29188" lon="4.98314">
        <ele>421.6</ele>
        <time>2025-11-11T14:51:00.000Z</time>
      </trkpt>
      <trkpt lat="47.29189" lon="4.98309">
        <ele>421.4</ele>
        <time>2025-11-11T14:51:05.000Z</time>
      </trkpt>
      <trkpt lat="47.2919" lon="4.98305">
        <ele>423</ele>
        <time>2025-11-11T14:51:10.000Z</time>
      </trkpt>
      <trkpt lat="47.29192" lon="4.98299">
        <ele>421.7</ele>
        <time>2025-11-11T14:51:15.000Z</time>
      </trkpt>
      <trkpt lat="47.29193" lon="4.98293">
        <ele>421</ele>
        <time>2025-11-11T14:51:20.000Z</time>
      </trkpt>
      <trkpt lat="47.29195" lon="4.98288">
        <ele>421.4</ele>
        <time>2025-11-11T14:51:25.000Z</time>
      </trkpt>
      <trkpt lat="47.29197" lon="4.9828">
        <ele>420.2</ele>
        <time>2025-11-11T14:51:30.000Z</time>
      </trkpt>
      <trkpt lat="47.29199" lon="4.98273">
        <ele>420.9</ele>
        <time>2025-11-11T14:51:35.000Z</time>
      </trkpt>
      <trkpt lat="47.29201" lon="4.98269">
        <ele>421.7</ele>
        <time>2025-11-11T14:51:40.000Z</time>
      </trkpt>
      <trkpt lat="47.29202" lon="4.98267">
        <ele>421.7</ele>
        <time>2025-11-11T14:51:45.000Z</time>
      </trkpt>
      <trkpt lat="47.29204" lon="4.98266">
        <ele>419.7</ele>
        <time>2025-11-11T14:51:50.000Z</time>
      </trkpt>
      <trkpt lat="47.29207" lon="4.98263">
        <ele>420.3</ele>
        <time>2025-11-11T14:51:55.000Z</time>
      </trkpt>
      <trkpt lat="47.29211" lon="4.98258">
        <ele>422.8</ele>
        <time>2025-11-11T14:52:00.000Z</time>
      </trkpt>
      <trkpt lat="47.29209" lon="4.98253">
        <ele>421.5</ele>
        <time>2025-11-11T14:52:05.000Z</time>
      </trkpt>
      <trkpt lat="47.29204" lon="4.9825">
        <ele>422.2</ele>
        <time>2025-11-11T14:52:10.000Z</time>
      </trkpt>
      <trkpt lat="47.292" lon="4.98248">
        <ele>419.8</ele>
        <time>2025-11-11T14:52:15.000Z</time>
      </trkpt>
      <trkpt lat="47.29196" lon="4.98246">
        <ele>419.1</ele>
        <time>2025-11-11T14:52:20.000Z</time>
      </trkpt>
      <trkpt lat="47.2919" lon="4.98241">
        <ele>419.2</ele>
        <time>2025-11-11T14:52:25.000Z</time>
      </trkpt>
      <trkpt lat="47.29184" lon="4.98238">
        <ele>418.2</ele>
        <time>2025-11-11T14:52:30.000Z</time>
      </trkpt>
      <trkpt lat="47.29179" lon="4.98235">
        <ele>419</ele>
        <time>2025-11-11T14:52:35.000Z</time>
      </trkpt>
      <trkpt lat="47.29174" lon="4.98233">
        <ele>416.6</ele>
        <time>2025-11-11T14:52:40.000Z</time>
      </trkpt>
      <trkpt lat="47.29168" lon="4.98233">
        <ele>414.6</ele>
        <time>2025-11-11T14:52:45.000Z</time>
      </trkpt>
      <trkpt lat="47.29163" lon="4.98232">
        <ele>413.2</ele>
        <time>2025-11-11T14:52:50.000Z</time>
      </trkpt>
      <trkpt lat="47.29157" lon="4.98227">
        <ele>413.9</ele>
        <time>2025-11-11T14:52:55.000Z</time>
      </trkpt>
      <trkpt lat="47.29152" lon="4.98224">
        <ele>413.7</ele>
        <time>2025-11-11T14:53:00.000Z</time>
      </trkpt>
      <trkpt lat="47.29147" lon="4.98222">
        <ele>414.5</ele>
        <time>2025-11-11T14:53:05.000Z</time>
      </trkpt>
      <trkpt lat="47.29139" lon="4.98219">
        <ele>415.4</ele>
        <time>2025-11-11T14:53:10.000Z</time>
      </trkpt>
      <trkpt lat="47.29133" lon="4.98215">
        <ele>414.8</ele>
        <time>2025-11-11T14:53:15.000Z</time>
      </trkpt>
      <trkpt lat="47.29128" lon="4.98214">
        <ele>414.5</ele>
        <time>2025-11-11T14:53:20.000Z</time>
      </trkpt>
      <trkpt lat="47.29124" lon="4.98214">
        <ele>413.3</ele>
        <time>2025-11-11T14:53:25.000Z</time>
      </trkpt>
      <trkpt lat="47.29119" lon="4.98211">
        <ele>413.3</ele>
        <time>2025-11-11T14:53:30.000Z</time>
      </trkpt>
      <trkpt lat="47.29112" lon="4.98207">
        <ele>413.2</ele>
        <time>2025-11-11T14:53:35.000Z</time>
      </trkpt>
      <trkpt lat="47.29108" lon="4.98204">
        <ele>414.3</ele>
        <time>2025-11-11T14:53:40.000Z</time>
      </trkpt>
      <trkpt lat="47.29102" lon="4.98202">
        <ele>417</ele>
        <time>2025-11-11T14:53:45.000Z</time>
      </trkpt>
      <trkpt lat="47.29098" lon="4.98205">
        <ele>417.2</ele>
        <time>2025-11-11T14:53:50.000Z</time>
      </trkpt>
      <trkpt lat="47.29093" lon="4.98201">
        <ele>418.6</ele>
        <time>2025-11-11T14:53:55.000Z</time>
      </trkpt>
      <trkpt lat="47.29087" lon="4.98199">
        <ele>418.5</ele>
        <time>2025-11-11T14:54:00.000Z</time>
      </trkpt>
      <trkpt lat="47.29082" lon="4.98196">
        <ele>417.7</ele>
        <time>2025-11-11T14:54:05.000Z</time>
      </trkpt>
      <trkpt lat="47.29074" lon="4.98192">
        <ele>417.3</ele>
        <time>2025-11-11T14:54:10.000Z</time>
      </trkpt>
      <trkpt lat="47.2907" lon="4.98191">
        <ele>415.5</ele>
        <time>2025-11-11T14:54:15.000Z</time>
      </trkpt>
      <trkpt lat="47.29066" lon="4.98186">
        <ele>416.1</ele>
        <time>2025-11-11T14:54:20.000Z</time>
      </trkpt>
      <trkpt lat="47.29062" lon="4.98184">
        <ele>415.7</ele>
        <time>2025-11-11T14:54:25.000Z</time>
      </trkpt>
      <trkpt lat="47.29057" lon="4.98181">
        <ele>416.9</ele>
        <time>2025-11-11T14:54:30.000Z</time>
      </trkpt>
      <trkpt lat="47.29053" lon="4.9818">
        <ele>418.2</ele>
        <time>2025-11-11T14:54:35.000Z</time>
      </trkpt>
      <trkpt lat="47.29048" lon="4.98173">
        <ele>418</ele>
        <time>2025-11-11T14:54:40.000Z</time>
      </trkpt>
      <trkpt lat="47.29044" lon="4.98167">
        <ele>416.5</ele>
        <time>2025-11-11T14:54:45.000Z</time>
      </trkpt>
      <trkpt lat="47.29039" lon="4.98162">
        <ele>417.3</ele>
        <time>2025-11-11T14:54:50.000Z</time>
      </trkpt>
      <trkpt lat="47.29033" lon="4.98158">
        <ele>417.4</ele>
        <time>2025-11-11T14:54:55.000Z</time>
      </trkpt>
      <trkpt lat="47.29028" lon="4.98155">
        <ele>419.6</ele>
        <time>2025-11-11T14:55:00.000Z</time>
      </trkpt>
      <trkpt lat="47.29023" lon="4.9815">
        <ele>419</ele>
        <time>2025-11-11T14:55:05.000Z</time>
      </trkpt>
      <trkpt lat="47.29016" lon="4.98143">
        <ele>421.3</ele>
        <time>2025-11-11T14:55:10.000Z</time>
      </trkpt>
      <trkpt lat="47.29009" lon="4.98136">
        <ele>420.7</ele>
        <time>2025-11-11T14:55:15.000Z</time>
      </trkpt>
      <trkpt lat="47.29002" lon="4.98133">
        <ele>420</ele>
        <time>2025-11-11T14:55:20.000Z</time>
      </trkpt>
      <trkpt lat="47.28996" lon="4.98131">
        <ele>422.2</ele>
        <time>2025-11-11T14:55:25.000Z</time>
      </trkpt>
      <trkpt lat="47.28989" lon="4.98131">
        <ele>423</ele>
        <time>2025-11-11T14:55:30.000Z</time>
      </trkpt>
      <trkpt lat="47.28983" lon="4.98133">
        <ele>421.1</ele>
        <time>2025-11-11T14:55:35.000Z</time>
      </trkpt>
      <trkpt lat="47.28977" lon="4.98135">
        <ele>419.8</ele>
        <time>2025-11-11T14:55:40.000Z</time>
      </trkpt>
      <trkpt lat="47.28971" lon="4.98137">
        <ele>419</ele>
        <time>2025-11-11T14:55:45.000Z</time>
      </trkpt>
      <trkpt lat="47.28966" lon="4.98137">
        <ele>417.9</ele>
        <time>2025-11-11T14:55:50.000Z</time>
      </trkpt>
      <trkpt lat="47.2896" lon="4.98135">
        <ele>419</ele>
        <time>2025-11-11T14:55:55.000Z</time>
      </trkpt>
      <trkpt lat="47.28953" lon="4.98135">
        <ele>418.9</ele>
        <time>2025-11-11T14:56:00.000Z</time>
      </trkpt>
      <trkpt lat="47.28948" lon="4.98135">
        <ele>421</ele>
        <time>2025-11-11T14:56:05.000Z</time>
      </trkpt>
      <trkpt lat="47.28942" lon="4.98139">
        <ele>416.7</ele>
        <time>2025-11-11T14:56:10.000Z</time>
      </trkpt>
      <trkpt lat="47.28935" lon="4.98139">
        <ele>417.9</ele>
        <time>2025-11-11T14:56:15.000Z</time>
      </trkpt>
      <trkpt lat="47.28929" lon="4.98141">
        <ele>420.2</ele>
        <time>2025-11-11T14:56:20.000Z</time>
      </trkpt>
      <trkpt lat="47.28924" lon="4.98147">
        <ele>418.9</ele>
        <time>2025-11-11T14:56:25.000Z</time>
      </trkpt>
      <trkpt lat="47.28921" lon="4.98155">
        <ele>419.3</ele>
        <time>2025-11-11T14:56:30.000Z</time>
      </trkpt>
      <trkpt lat="47.2892" lon="4.98161">
        <ele>418.8</ele>
        <time>2025-11-11T14:56:35.000Z</time>
      </trkpt>
      <trkpt lat="47.28916" lon="4.98168">
        <ele>417.3</ele>
        <time>2025-11-11T14:56:40.000Z</time>
      </trkpt>
      <trkpt lat="47.28912" lon="4.98174">
        <ele>415.8</ele>
        <time>2025-11-11T14:56:45.000Z</time>
      </trkpt>
      <trkpt lat="47.2891" lon="4.98181">
        <ele>417.9</ele>
        <time>2025-11-11T14:56:50.000Z</time>
      </trkpt>
      <trkpt lat="47.28907" lon="4.98188">
        <ele>415.9</ele>
        <time>2025-11-11T14:56:55.000Z</time>
      </trkpt>
      <trkpt lat="47.28905" lon="4.98197">
        <ele>414.2</ele>
        <time>2025-11-11T14:57:00.000Z</time>
      </trkpt>
      <trkpt lat="47.28905" lon="4.98202">
        <ele>414.8</ele>
        <time>2025-11-11T14:57:05.000Z</time>
      </trkpt>
      <trkpt lat="47.28903" lon="4.98211">
        <ele>413.4</ele>
        <time>2025-11-11T14:57:10.000Z</time>
      </trkpt>
      <trkpt lat="47.28901" lon="4.98222">
        <ele>415</ele>
        <time>2025-11-11T14:57:15.000Z</time>
      </trkpt>
      <trkpt lat="47.28901" lon="4.98231">
        <ele>411.8</ele>
        <time>2025-11-11T14:57:20.000Z</time>
      </trkpt>
      <trkpt lat="47.28901" lon="4.98241">
        <ele>413.8</ele>
        <time>2025-11-11T14:57:25.000Z</time>
      </trkpt>
      <trkpt lat="47.28901" lon="4.98249">
        <ele>407.9</ele>
        <time>2025-11-11T14:57:30.000Z</time>
      </trkpt>
      <trkpt lat="47.289" lon="4.98254">
        <ele>407.5</ele>
        <time>2025-11-11T14:57:35.000Z</time>
      </trkpt>
      <trkpt lat="47.28899" lon="4.98262">
        <ele>407.4</ele>
        <time>2025-11-11T14:57:40.000Z</time>
      </trkpt>
      <trkpt lat="47.28898" lon="4.98271">
        <ele>408.7</ele>
        <time>2025-11-11T14:57:45.000Z</time>
      </trkpt>
      <trkpt lat="47.28897" lon="4.98279">
        <ele>408.6</ele>
        <time>2025-11-11T14:57:50.000Z</time>
      </trkpt>
      <trkpt lat="47.28894" lon="4.9829">
        <ele>409.4</ele>
        <time>2025-11-11T14:57:55.000Z</time>
      </trkpt>
      <trkpt lat="47.28893" lon="4.983">
        <ele>409.6</ele>
        <time>2025-11-11T14:58:00.000Z</time>
      </trkpt>
      <trkpt lat="47.28894" lon="4.98312">
        <ele>408.1</ele>
        <time>2025-11-11T14:58:05.000Z</time>
      </trkpt>
      <trkpt lat="47.28896" lon="4.9832">
        <ele>406.9</ele>
        <time>2025-11-11T14:58:10.000Z</time>
      </trkpt>
      <trkpt lat="47.28898" lon="4.98331">
        <ele>407.3</ele>
        <time>2025-11-11T14:58:15.000Z</time>
      </trkpt>
      <trkpt lat="47.289" lon="4.98339">
        <ele>408.7</ele>
        <time>2025-11-11T14:58:20.000Z</time>
      </trkpt>
      <trkpt lat="47.28902" lon="4.98349">
        <ele>411.6</ele>
        <time>2025-11-11T14:58:25.000Z</time>
      </trkpt>
      <trkpt lat="47.28906" lon="4.98357">
        <ele>410.7</ele>
        <time>2025-11-11T14:58:30.000Z</time>
      </trkpt>
      <trkpt lat="47.28908" lon="4.98365">
        <ele>410.8</ele>
        <time>2025-11-11T14:58:35.000Z</time>
      </trkpt>
      <trkpt lat="47.2891" lon="4.98374">
        <ele>411.8</ele>
        <time>2025-11-11T14:58:40.000Z</time>
      </trkpt>
      <trkpt lat="47.28912" lon="4.98385">
        <ele>412.8</ele>
        <time>2025-11-11T14:58:45.000Z</time>
      </trkpt>
      <trkpt lat="47.28914" lon="4.98391">
        <ele>411.1</ele>
        <time>2025-11-11T14:58:50.000Z</time>
      </trkpt>
      <trkpt lat="47.28917" lon="4.98398">
        <ele>412.7</ele>
        <time>2025-11-11T14:58:55.000Z</time>
      </trkpt>
      <trkpt lat="47.28918" lon="4.98409">
        <ele>411.9</ele>
        <time>2025-11-11T14:59:00.000Z</time>
      </trkpt>
      <trkpt lat="47.28919" lon="4.9842">
        <ele>411.6</ele>
        <time>2025-11-11T14:59:05.000Z</time>
      </trkpt>
      <trkpt lat="47.2892" lon="4.98427">
        <ele>410</ele>
        <time>2025-11-11T14:59:10.000Z</time>
      </trkpt>
      <trkpt lat="47.2892" lon="4.98437">
        <ele>410.8</ele>
        <time>2025-11-11T14:59:15.000Z</time>
      </trkpt>
      <trkpt lat="47.28921" lon="4.98446">
        <ele>408.4</ele>
        <time>2025-11-11T14:59:20.000Z</time>
      </trkpt>
      <trkpt lat="47.28922" lon="4.98454">
        <ele>407.3</ele>
        <time>2025-11-11T14:59:25.000Z</time>
      </trkpt>
      <trkpt lat="47.28922" lon="4.98461">
        <ele>406.9</ele>
        <time>2025-11-11T14:59:30.000Z</time>
      </trkpt>
      <trkpt lat="47.28918" lon="4.98466">
        <ele>409.5</ele>
        <time>2025-11-11T14:59:35.000Z</time>
      </trkpt>
      <trkpt lat="47.28912" lon="4.9847">
        <ele>408.3</ele>
        <time>2025-11-11T14:59:40.000Z</time>
      </trkpt>
      <trkpt lat="47.28905" lon="4.98476">
        <ele>411.5</ele>
        <time>2025-11-11T14:59:45.000Z</time>
      </trkpt>
      <trkpt lat="47.28901" lon="4.98481">
        <ele>410</ele>
        <time>2025-11-11T14:59:50.000Z</time>
      </trkpt>
      <trkpt lat="47.28897" lon="4.98486">
        <ele>407.8</ele>
        <time>2025-11-11T14:59:55.000Z</time>
      </trkpt>
      <trkpt lat="47.28891" lon="4.9849">
        <ele>406.6</ele>
        <time>2025-11-11T15:00:00.000Z</time>
      </trkpt>
      <trkpt lat="47.28884" lon="4.98498">
        <ele>407.6</ele>
        <time>2025-11-11T15:00:05.000Z</time>
      </trkpt>
      <trkpt lat="47.28882" lon="4.985">
        <ele>406.4</ele>
        <time>2025-11-11T15:00:10.000Z</time>
      </trkpt>
      <trkpt lat="47.28875" lon="4.98503">
        <ele>407.3</ele>
        <time>2025-11-11T15:00:15.000Z</time>
      </trkpt>
      <trkpt lat="47.28869" lon="4.98507">
        <ele>408.7</ele>
        <time>2025-11-11T15:00:20.000Z</time>
      </trkpt>
      <trkpt lat="47.28863" lon="4.98512">
        <ele>407.9</ele>
        <time>2025-11-11T15:00:25.000Z</time>
      </trkpt>
      <trkpt lat="47.28859" lon="4.98514">
        <ele>408.5</ele>
        <time>2025-11-11T15:00:30.000Z</time>
      </trkpt>
      <trkpt lat="47.28853" lon="4.98518">
        <ele>406.8</ele>
        <time>2025-11-11T15:00:35.000Z</time>
      </trkpt>
      <trkpt lat="47.28846" lon="4.98524">
        <ele>407.9</ele>
        <time>2025-11-11T15:00:40.000Z</time>
      </trkpt>
      <trkpt lat="47.28842" lon="4.98527">
        <ele>408.1</ele>
        <time>2025-11-11T15:00:45.000Z</time>
      </trkpt>
      <trkpt lat="47.28837" lon="4.98531">
        <ele>406.8</ele>
        <time>2025-11-11T15:00:50.000Z</time>
      </trkpt>
      <trkpt lat="47.28833" lon="4.98537">
        <ele>406.7</ele>
        <time>2025-11-11T15:00:55.000Z</time>
      </trkpt>
      <trkpt lat="47.28828" lon="4.98544">
        <ele>403.8</ele>
        <time>2025-11-11T15:01:00.000Z</time>
      </trkpt>
      <trkpt lat="47.28826" lon="4.9855">
        <ele>402.7</ele>
        <time>2025-11-11T15:01:05.000Z</time>
      </trkpt>
      <trkpt lat="47.28822" lon="4.98556">
        <ele>401</ele>
        <time>2025-11-11T15:01:10.000Z</time>
      </trkpt>
      <trkpt lat="47.28816" lon="4.98564">
        <ele>402.3</ele>
        <time>2025-11-11T15:01:15.000Z</time>
      </trkpt>
      <trkpt lat="47.28811" lon="4.98569">
        <ele>400.6</ele>
        <time>2025-11-11T15:01:20.000Z</time>
      </trkpt>
      <trkpt lat="47.28805" lon="4.98572">
        <ele>401.2</ele>
        <time>2025-11-11T15:01:25.000Z</time>
      </trkpt>
      <trkpt lat="47.288" lon="4.98576">
        <ele>398.4</ele>
        <time>2025-11-11T15:01:30.000Z</time>
      </trkpt>
      <trkpt lat="47.28795" lon="4.98583">
        <ele>401</ele>
        <time>2025-11-11T15:01:35.000Z</time>
      </trkpt>
      <trkpt lat="47.2879" lon="4.98591">
        <ele>399.1</ele>
        <time>2025-11-11T15:01:40.000Z</time>
      </trkpt>
      <trkpt lat="47.28786" lon="4.98595">
        <ele>401.1</ele>
        <time>2025-11-11T15:01:45.000Z</time>
      </trkpt>
      <trkpt lat="47.28783" lon="4.98601">
        <ele>399.8</ele>
        <time>2025-11-11T15:01:50.000Z</time>
      </trkpt>
      <trkpt lat="47.28781" lon="4.98609">
        <ele>401</ele>
        <time>2025-11-11T15:01:55.000Z</time>
      </trkpt>
      <trkpt lat="47.28778" lon="4.98612">
        <ele>399</ele>
        <time>2025-11-11T15:02:00.000Z</time>
      </trkpt>
      <trkpt lat="47.28772" lon="4.98613">
        <ele>398.8</ele>
        <time>2025-11-11T15:02:05.000Z</time>
      </trkpt>
      <trkpt lat="47.28767" lon="4.98616">
        <ele>397.4</ele>
        <time>2025-11-11T15:02:10.000Z</time>
      </trkpt>
      <trkpt lat="47.28761" lon="4.98619">
        <ele>396.9</ele>
        <time>2025-11-11T15:02:15.000Z</time>
      </trkpt>
      <trkpt lat="47.28758" lon="4.98621">
        <ele>395</ele>
        <time>2025-11-11T15:02:20.000Z</time>
      </trkpt>
      <trkpt lat="47.28753" lon="4.98623">
        <ele>395.1</ele>
        <time>2025-11-11T15:02:25.000Z</time>
      </trkpt>
      <trkpt lat="47.2875" lon="4.98628">
        <ele>393.8</ele>
        <time>2025-11-11T15:02:30.000Z</time>
      </trkpt>
      <trkpt lat="47.28744" lon="4.98633">
        <ele>393.5</ele>
        <time>2025-11-11T15:02:35.000Z</time>
      </trkpt>
      <trkpt lat="47.28741" lon="4.98635">
        <ele>391.4</ele>
        <time>2025-11-11T15:02:40.000Z</time>
      </trkpt>
      <trkpt lat="47.28735" lon="4.98635">
        <ele>389.3</ele>
        <time>2025-11-11T15:02:45.000Z</time>
      </trkpt>
      <trkpt lat="47.2873" lon="4.98636">
        <ele>390.9</ele>
        <time>2025-11-11T15:02:50.000Z</time>
      </trkpt>
      <trkpt lat="47.28724" lon="4.98639">
        <ele>391</ele>
        <time>2025-11-11T15:02:55.000Z</time>
      </trkpt>
      <trkpt lat="47.28717" lon="4.98644">
        <ele>391.7</ele>
        <time>2025-11-11T15:03:00.000Z</time>
      </trkpt>
      <trkpt lat="47.28711" lon="4.98644">
        <ele>392.5</ele>
        <time>2025-11-11T15:03:05.000Z</time>
      </trkpt>
      <trkpt lat="47.28705" lon="4.98646">
        <ele>390.6</ele>
        <time>2025-11-11T15:03:10.000Z</time>
      </trkpt>
      <trkpt lat="47.28697" lon="4.98651">
        <ele>390.7</ele>
        <time>2025-11-11T15:03:15.000Z</time>
      </trkpt>
      <trkpt lat="47.28694" lon="4.98653">
        <ele>389.9</ele>
        <time>2025-11-11T15:03:20.000Z</time>
      </trkpt>
      <trkpt lat="47.28689" lon="4.98657">
        <ele>390</ele>
        <time>2025-11-11T15:03:25.000Z</time>
      </trkpt>
      <trkpt lat="47.28682" lon="4.9866">
        <ele>390.1</ele>
        <time>2025-11-11T15:03:30.000Z</time>
      </trkpt>
      <trkpt lat="47.28679" lon="4.98665">
        <ele>389.7</ele>
        <time>2025-11-11T15:03:35.000Z</time>
      </trkpt>
      <trkpt lat="47.28673" lon="4.98668">
        <ele>387.3</ele>
        <time>2025-11-11T15:03:40.000Z</time>
      </trkpt>
      <trkpt lat="47.28669" lon="4.98673">
        <ele>386.6</ele>
        <time>2025-11-11T15:03:45.000Z</time>
      </trkpt>
      <trkpt lat="47.28664" lon="4.98676">
        <ele>385.7</ele>
        <time>2025-11-11T15:03:50.000Z</time>
      </trkpt>
      <trkpt lat="47.2866" lon="4.98678">
        <ele>386.6</ele>
        <time>2025-11-11T15:03:55.000Z</time>
      </trkpt>
      <trkpt lat="47.28652" lon="4.9868">
        <ele>388.2</ele>
        <time>2025-11-11T15:04:00.000Z</time>
      </trkpt>
      <trkpt lat="47.28649" lon="4.98679">
        <ele>387.6</ele>
        <time>2025-11-11T15:04:05.000Z</time>
      </trkpt>
      <trkpt lat="47.28642" lon="4.98677">
        <ele>386.6</ele>
        <time>2025-11-11T15:04:10.000Z</time>
      </trkpt>
      <trkpt lat="47.28635" lon="4.98674">
        <ele>385.7</ele>
        <time>2025-11-11T15:04:15.000Z</time>
      </trkpt>
      <trkpt lat="47.28631" lon="4.98672">
        <ele>384.3</ele>
        <time>2025-11-11T15:04:20.000Z</time>
      </trkpt>
      <trkpt lat="47.28627" lon="4.98672">
        <ele>383.2</ele>
        <time>2025-11-11T15:04:25.000Z</time>
      </trkpt>
      <trkpt lat="47.28622" lon="4.98672">
        <ele>381.4</ele>
        <time>2025-11-11T15:04:30.000Z</time>
      </trkpt>
      <trkpt lat="47.28617" lon="4.98671">
        <ele>381.5</ele>
        <time>2025-11-11T15:04:35.000Z</time>
      </trkpt>
      <trkpt lat="47.28613" lon="4.98674">
        <ele>382.3</ele>
        <time>2025-11-11T15:04:40.000Z</time>
      </trkpt>
      <trkpt lat="47.28609" lon="4.98673">
        <ele>381</ele>
        <time>2025-11-11T15:04:45.000Z</time>
      </trkpt>
      <trkpt lat="47.28605" lon="4.98672">
        <ele>383.8</ele>
        <time>2025-11-11T15:04:50.000Z</time>
      </trkpt>
      <trkpt lat="47.286" lon="4.98669">
        <ele>383.3</ele>
        <time>2025-11-11T15:04:55.000Z</time>
      </trkpt>
      <trkpt lat="47.28595" lon="4.98666">
        <ele>381.1</ele>
        <time>2025-11-11T15:05:00.000Z</time>
      </trkpt>
      <trkpt lat="47.2859" lon="4.98663">
        <ele>379.8</ele>
        <time>2025-11-11T15:05:05.000Z</time>
      </trkpt>
      <trkpt lat="47.28585" lon="4.98661">
        <ele>380.7</ele>
        <time>2025-11-11T15:05:10.000Z</time>
      </trkpt>
      <trkpt lat="47.28581" lon="4.9866">
        <ele>379.6</ele>
        <time>2025-11-11T15:05:15.000Z</time>
      </trkpt>
      <trkpt lat="47.28575" lon="4.98659">
        <ele>378</ele>
        <time>2025-11-11T15:05:20.000Z</time>
      </trkpt>
      <trkpt lat="47.28572" lon="4.98657">
        <ele>376.5</ele>
        <time>2025-11-11T15:05:25.000Z</time>
      </trkpt>
      <trkpt lat="47.28567" lon="4.98656">
        <ele>373.4</ele>
        <time>2025-11-11T15:05:30.000Z</time>
      </trkpt>
      <trkpt lat="47.28561" lon="4.98654">
        <ele>375.1</ele>
        <time>2025-11-11T15:05:35.000Z</time>
      </trkpt>
      <trkpt lat="47.28557" lon="4.98651">
        <ele>374.2</ele>
        <time>2025-11-11T15:05:40.000Z</time>
      </trkpt>
      <trkpt lat="47.2855" lon="4.98648">
        <ele>375.9</ele>
        <time>2025-11-11T15:05:45.000Z</time>
      </trkpt>
      <trkpt lat="47.28545" lon="4.98645">
        <ele>375.8</ele>
        <time>2025-11-11T15:05:50.000Z</time>
      </trkpt>
      <trkpt lat="47.28541" lon="4.98641">
        <ele>375.8</ele>
        <time>2025-11-11T15:05:55.000Z</time>
      </trkpt>
      <trkpt lat="47.28534" lon="4.98638">
        <ele>376</ele>
        <time>2025-11-11T15:06:00.000Z</time>
      </trkpt>
      <trkpt lat="47.28531" lon="4.98634">
        <ele>374.1</ele>
        <time>2025-11-11T15:06:05.000Z</time>
      </trkpt>
      <trkpt lat="47.28526" lon="4.9863">
        <ele>376.1</ele>
        <time>2025-11-11T15:06:10.000Z</time>
      </trkpt>
      <trkpt lat="47.28519" lon="4.98626">
        <ele>372</ele>
        <time>2025-11-11T15:06:15.000Z</time>
      </trkpt>
      <trkpt lat="47.28511" lon="4.98625">
        <ele>373.2</ele>
        <time>2025-11-11T15:06:20.000Z</time>
      </trkpt>
      <trkpt lat="47.28504" lon="4.98622">
        <ele>373.2</ele>
        <time>2025-11-11T15:06:25.000Z</time>
      </trkpt>
      <trkpt lat="47.285" lon="4.98622">
        <ele>372.2</ele>
        <time>2025-11-11T15:06:30.000Z</time>
      </trkpt>
      <trkpt lat="47.28494" lon="4.9862">
        <ele>370</ele>
        <time>2025-11-11T15:06:35.000Z</time>
      </trkpt>
      <trkpt lat="47.28489" lon="4.98621">
        <ele>369.1</ele>
        <time>2025-11-11T15:06:40.000Z</time>
      </trkpt>
      <trkpt lat="47.28481" lon="4.98622">
        <ele>369.9</ele>
        <time>2025-11-11T15:06:45.000Z</time>
      </trkpt>
      <trkpt lat="47.28476" lon="4.98618">
        <ele>367.4</ele>
        <time>2025-11-11T15:06:50.000Z</time>
      </trkpt>
      <trkpt lat="47.28472" lon="4.98618">
        <ele>366.4</ele>
        <time>2025-11-11T15:06:55.000Z</time>
      </trkpt>
      <trkpt lat="47.28465" lon="4.98617">
        <ele>367.2</ele>
        <time>2025-11-11T15:07:00.000Z</time>
      </trkpt>
      <trkpt lat="47.28458" lon="4.98617">
        <ele>365.4</ele>
        <time>2025-11-11T15:07:05.000Z</time>
      </trkpt>
      <trkpt lat="47.28451" lon="4.98624">
        <ele>364.8</ele>
        <time>2025-11-11T15:07:10.000Z</time>
      </trkpt>
      <trkpt lat="47.28448" lon="4.98626">
        <ele>363.2</ele>
        <time>2025-11-11T15:07:15.000Z</time>
      </trkpt>
      <trkpt lat="47.28443" lon="4.98627">
        <ele>365</ele>
        <time>2025-11-11T15:07:20.000Z</time>
      </trkpt>
      <trkpt lat="47.28437" lon="4.9863">
        <ele>361.9</ele>
        <time>2025-11-11T15:07:25.000Z</time>
      </trkpt>
      <trkpt lat="47.28431" lon="4.98636">
        <ele>359.6</ele>
        <time>2025-11-11T15:07:30.000Z</time>
      </trkpt>
      <trkpt lat="47.28427" lon="4.9864">
        <ele>357.6</ele>
        <time>2025-11-11T15:07:35.000Z</time>
      </trkpt>
      <trkpt lat="47.28424" lon="4.98643">
        <ele>355.5</ele>
        <time>2025-11-11T15:07:40.000Z</time>
      </trkpt>
      <trkpt lat="47.28418" lon="4.98646">
        <ele>352.8</ele>
        <time>2025-11-11T15:07:45.000Z</time>
      </trkpt>
      <trkpt lat="47.28412" lon="4.98649">
        <ele>352</ele>
        <time>2025-11-11T15:07:50.000Z</time>
      </trkpt>
      <trkpt lat="47.28406" lon="4.98654">
        <ele>347.7</ele>
        <time>2025-11-11T15:07:55.000Z</time>
      </trkpt>
      <trkpt lat="47.28403" lon="4.98655">
        <ele>346</ele>
        <time>2025-11-11T15:08:00.000Z</time>
      </trkpt>
      <trkpt lat="47.28397" lon="4.98654">
        <ele>347.4</ele>
        <time>2025-11-11T15:08:05.000Z</time>
      </trkpt>
      <trkpt lat="47.2839" lon="4.98652">
        <ele>344.7</ele>
        <time>2025-11-11T15:08:10.000Z</time>
      </trkpt>
      <trkpt lat="47.28382" lon="4.98651">
        <ele>347.1</ele>
        <time>2025-11-11T15:08:15.000Z</time>
      </trkpt>
      <trkpt lat="47.28372" lon="4.98651">
        <ele>346</ele>
        <time>2025-11-11T15:08:20.000Z</time>
      </trkpt>
      <trkpt lat="47.28368" lon="4.9865">
        <ele>344</ele>
        <time>2025-11-11T15:08:25.000Z</time>
      </trkpt>
      <trkpt lat="47.28364" lon="4.98649">
        <ele>345.8</ele>
        <time>2025-11-11T15:08:30.000Z</time>
      </trkpt>
      <trkpt lat="47.28357" lon="4.98646">
        <ele>344.3</ele>
        <time>2025-11-11T15:08:35.000Z</time>
      </trkpt>
      <trkpt lat="47.28352" lon="4.98648">
        <ele>345.9</ele>
        <time>2025-11-11T15:08:40.000Z</time>
      </trkpt>
      <trkpt lat="47.28347" lon="4.98652">
        <ele>341.9</ele>
        <time>2025-11-11T15:08:45.000Z</time>
      </trkpt>
      <trkpt lat="47.28343" lon="4.98653">
        <ele>342.2</ele>
        <time>2025-11-11T15:08:50.000Z</time>
      </trkpt>
      <trkpt lat="47.28336" lon="4.98653">
        <ele>342.5</ele>
        <time>2025-11-11T15:08:55.000Z</time>
      </trkpt>
      <trkpt lat="47.2833" lon="4.98655">
        <ele>343.2</ele>
        <time>2025-11-11T15:09:00.000Z</time>
      </trkpt>
      <trkpt lat="47.2833" lon="4.98657">
        <ele>343.6</ele>
        <time>2025-11-11T15:09:05.000Z</time>
      </trkpt>
      <trkpt lat="47.28331" lon="4.98657">
        <ele>343.6</ele>
        <time>2025-11-11T15:09:10.000Z</time>
      </trkpt>
      <trkpt lat="47.28324" lon="4.98657">
        <ele>343.4</ele>
        <time>2025-11-11T15:09:15.000Z</time>
      </trkpt>
      <trkpt lat="47.2832" lon="4.98656">
        <ele>342.9</ele>
        <time>2025-11-11T15:09:20.000Z</time>
      </trkpt>
      <trkpt lat="47.28312" lon="4.98655">
        <ele>341.2</ele>
        <time>2025-11-11T15:09:25.000Z</time>
      </trkpt>
      <trkpt lat="47.28306" lon="4.98657">
        <ele>340.3</ele>
        <time>2025-11-11T15:09:30.000Z</time>
      </trkpt>
      <trkpt lat="47.28299" lon="4.98656">
        <ele>343</ele>
        <time>2025-11-11T15:09:35.000Z</time>
      </trkpt>
      <trkpt lat="47.28298" lon="4.98654">
        <ele>342.8</ele>
        <time>2025-11-11T15:09:40.000Z</time>
      </trkpt>
      <trkpt lat="47.28299" lon="4.98654">
        <ele>342.8</ele>
        <time>2025-11-11T15:09:45.000Z</time>
      </trkpt>
      <trkpt lat="47.28299" lon="4.98654">
        <ele>342.8</ele>
        <time>2025-11-11T15:09:50.000Z</time>
      </trkpt>
      <trkpt lat="47.28299" lon="4.98654">
        <ele>342.8</ele>
        <time>2025-11-11T15:09:55.000Z</time>
      </trkpt>
      <trkpt lat="47.28299" lon="4.98654">
        <ele>342.8</ele>
        <time>2025-11-11T15:10:00.000Z</time>
      </trkpt>
      <trkpt lat="47.28299" lon="4.98654">
        <ele>342.7</ele>
        <time>2025-11-11T15:10:05.000Z</time>
      </trkpt>
      <trkpt lat="47.28298" lon="4.98654">
        <ele>343.1</ele>
        <time>2025-11-11T15:10:10.000Z</time>
      </trkpt>
      <trkpt lat="47.28293" lon="4.98656">
        <ele>340.9</ele>
        <time>2025-11-11T15:10:15.000Z</time>
      </trkpt>
      <trkpt lat="47.28287" lon="4.98659">
        <ele>341.7</ele>
        <time>2025-11-11T15:10:20.000Z</time>
      </trkpt>
      <trkpt lat="47.28284" lon="4.98662">
        <ele>338.1</ele>
        <time>2025-11-11T15:10:25.000Z</time>
      </trkpt>
      <trkpt lat="47.28279" lon="4.98666">
        <ele>338.8</ele>
        <time>2025-11-11T15:10:30.000Z</time>
      </trkpt>
      <trkpt lat="47.28273" lon="4.98668">
        <ele>338.1</ele>
        <time>2025-11-11T15:10:35.000Z</time>
      </trkpt>
      <trkpt lat="47.28267" lon="4.9867">
        <ele>337.6</ele>
        <time>2025-11-11T15:10:40.000Z</time>
      </trkpt>
      <trkpt lat="47.28262" lon="4.98672">
        <ele>337.2</ele>
        <time>2025-11-11T15:10:45.000Z</time>
      </trkpt>
      <trkpt lat="47.28256" lon="4.98671">
        <ele>337.8</ele>
        <time>2025-11-11T15:10:50.000Z</time>
      </trkpt>
      <trkpt lat="47.28248" lon="4.98671">
        <ele>335.2</ele>
        <time>2025-11-11T15:10:55.000Z</time>
      </trkpt>
      <trkpt lat="47.28242" lon="4.98673">
        <ele>335.3</ele>
        <time>2025-11-11T15:11:00.000Z</time>
      </trkpt>
      <trkpt lat="47.28236" lon="4.98675">
        <ele>334.9</ele>
        <time>2025-11-11T15:11:05.000Z</time>
      </trkpt>
      <trkpt lat="47.28232" lon="4.98674">
        <ele>331.5</ele>
        <time>2025-11-11T15:11:10.000Z</time>
      </trkpt>
      <trkpt lat="47.28227" lon="4.98671">
        <ele>330.3</ele>
        <time>2025-11-11T15:11:15.000Z</time>
      </trkpt>
      <trkpt lat="47.2822" lon="4.98668">
        <ele>328.2</ele>
        <time>2025-11-11T15:11:20.000Z</time>
      </trkpt>
      <trkpt lat="47.28214" lon="4.98665">
        <ele>331.2</ele>
        <time>2025-11-11T15:11:25.000Z</time>
      </trkpt>
      <trkpt lat="47.28208" lon="4.98662">
        <ele>332</ele>
        <time>2025-11-11T15:11:30.000Z</time>
      </trkpt>
      <trkpt lat="47.28207" lon="4.9867">
        <ele>332.6</ele>
        <time>2025-11-11T15:11:35.000Z</time>
      </trkpt>
      <trkpt lat="47.28209" lon="4.98679">
        <ele>332</ele>
        <time>2025-11-11T15:11:40.000Z</time>
      </trkpt>
      <trkpt lat="47.28211" lon="4.98687">
        <ele>334.8</ele>
        <time>2025-11-11T15:11:45.000Z</time>
      </trkpt>
      <trkpt lat="47.28215" lon="4.98694">
        <ele>335.1</ele>
        <time>2025-11-11T15:11:50.000Z</time>
      </trkpt>
      <trkpt lat="47.28219" lon="4.987">
        <ele>333.8</ele>
        <time>2025-11-11T15:11:55.000Z</time>
      </trkpt>
      <trkpt lat="47.28223" lon="4.98707">
        <ele>334.7</ele>
        <time>2025-11-11T15:12:00.000Z</time>
      </trkpt>
      <trkpt lat="47.28226" lon="4.98715">
        <ele>334.2</ele>
        <time>2025-11-11T15:12:05.000Z</time>
      </trkpt>
      <trkpt lat="47.28228" lon="4.98721">
        <ele>334.3</ele>
        <time>2025-11-11T15:12:10.000Z</time>
      </trkpt>
      <trkpt lat="47.28232" lon="4.98729">
        <ele>335.2</ele>
        <time>2025-11-11T15:12:15.000Z</time>
      </trkpt>
      <trkpt lat="47.28236" lon="4.9874">
        <ele>335.3</ele>
        <time>2025-11-11T15:12:20.000Z</time>
      </trkpt>
      <trkpt lat="47.28239" lon="4.98744">
        <ele>334.2</ele>
        <time>2025-11-11T15:12:25.000Z</time>
      </trkpt>
      <trkpt lat="47.28245" lon="4.9875">
        <ele>336.8</ele>
        <time>2025-11-11T15:12:30.000Z</time>
      </trkpt>
      <trkpt lat="47.28251" lon="4.98754">
        <ele>335.8</ele>
        <time>2025-11-11T15:12:35.000Z</time>
      </trkpt>
      <trkpt lat="47.28255" lon="4.98756">
        <ele>332.9</ele>
        <time>2025-11-11T15:12:40.000Z</time>
      </trkpt>
      <trkpt lat="47.2826" lon="4.98762">
        <ele>332.5</ele>
        <time>2025-11-11T15:12:45.000Z</time>
      </trkpt>
      <trkpt lat="47.28265" lon="4.98768">
        <ele>334.3</ele>
        <time>2025-11-11T15:12:50.000Z</time>
      </trkpt>
      <trkpt lat="47.28268" lon="4.98773">
        <ele>334.5</ele>
        <time>2025-11-11T15:12:55.000Z</time>
      </trkpt>
      <trkpt lat="47.28271" lon="4.98782">
        <ele>333.8</ele>
        <time>2025-11-11T15:13:00.000Z</time>
      </trkpt>
      <trkpt lat="47.28276" lon="4.9879">
        <ele>336.4</ele>
        <time>2025-11-11T15:13:05.000Z</time>
      </trkpt>
      <trkpt lat="47.28279" lon="4.98795">
        <ele>334.3</ele>
        <time>2025-11-11T15:13:10.000Z</time>
      </trkpt>
      <trkpt lat="47.28281" lon="4.98805">
        <ele>332.1</ele>
        <time>2025-11-11T15:13:15.000Z</time>
      </trkpt>
      <trkpt lat="47.28284" lon="4.98813">
        <ele>331.9</ele>
        <time>2025-11-11T15:13:20.000Z</time>
      </trkpt>
      <trkpt lat="47.28288" lon="4.98821">
        <ele>332.1</ele>
        <time>2025-11-11T15:13:25.000Z</time>
      </trkpt>
      <trkpt lat="47.28292" lon="4.98828">
        <ele>332.3</ele>
        <time>2025-11-11T15:13:30.000Z</time>
      </trkpt>
      <trkpt lat="47.28294" lon="4.98836">
        <ele>332.2</ele>
        <time>2025-11-11T15:13:35.000Z</time>
      </trkpt>
      <trkpt lat="47.28297" lon="4.98844">
        <ele>332.9</ele>
        <time>2025-11-11T15:13:40.000Z</time>
      </trkpt>
      <trkpt lat="47.283" lon="4.98851">
        <ele>332.9</ele>
        <time>2025-11-11T15:13:45.000Z</time>
      </trkpt>
      <trkpt lat="47.28301" lon="4.98858">
        <ele>332.4</ele>
        <time>2025-11-11T15:13:50.000Z</time>
      </trkpt>
      <trkpt lat="47.28304" lon="4.98865">
        <ele>331</ele>
        <time>2025-11-11T15:13:55.000Z</time>
      </trkpt>
      <trkpt lat="47.28307" lon="4.98875">
        <ele>331.1</ele>
        <time>2025-11-11T15:14:00.000Z</time>
      </trkpt>
      <trkpt lat="47.28308" lon="4.98885">
        <ele>331.9</ele>
        <time>2025-11-11T15:14:05.000Z</time>
      </trkpt>
      <trkpt lat="47.2831" lon="4.98894">
        <ele>332.7</ele>
        <time>2025-11-11T15:14:10.000Z</time>
      </trkpt>
      <trkpt lat="47.28311" lon="4.98902">
        <ele>334.3</ele>
        <time>2025-11-11T15:14:15.000Z</time>
      </trkpt>
      <trkpt lat="47.28312" lon="4.9891">
        <ele>333.5</ele>
        <time>2025-11-11T15:14:20.000Z</time>
      </trkpt>
      <trkpt lat="47.28314" lon="4.98918">
        <ele>334.3</ele>
        <time>2025-11-11T15:14:25.000Z</time>
      </trkpt>
      <trkpt lat="47.28314" lon="4.98926">
        <ele>333.9</ele>
        <time>2025-11-11T15:14:30.000Z</time>
      </trkpt>
      <trkpt lat="47.28315" lon="4.98934">
        <ele>333.6</ele>
        <time>2025-11-11T15:14:35.000Z</time>
      </trkpt>
      <trkpt lat="47.28316" lon="4.98942">
        <ele>333.8</ele>
        <time>2025-11-11T15:14:40.000Z</time>
      </trkpt>
      <trkpt lat="47.28317" lon="4.98951">
        <ele>333.8</ele>
        <time>2025-11-11T15:14:45.000Z</time>
      </trkpt>
      <trkpt lat="47.28319" lon="4.9896">
        <ele>335.2</ele>
        <time>2025-11-11T15:14:50.000Z</time>
      </trkpt>
      <trkpt lat="47.2832" lon="4.98968">
        <ele>334.5</ele>
        <time>2025-11-11T15:14:55.000Z</time>
      </trkpt>
      <trkpt lat="47.28322" lon="4.98976">
        <ele>335.5</ele>
        <time>2025-11-11T15:15:00.000Z</time>
      </trkpt>
      <trkpt lat="47.28322" lon="4.98985">
        <ele>333.6</ele>
        <time>2025-11-11T15:15:05.000Z</time>
      </trkpt>
      <trkpt lat="47.28324" lon="4.98994">
        <ele>335.1</ele>
        <time>2025-11-11T15:15:10.000Z</time>
      </trkpt>
      <trkpt lat="47.28326" lon="4.99002">
        <ele>334.4</ele>
        <time>2025-11-11T15:15:15.000Z</time>
      </trkpt>
      <trkpt lat="47.28327" lon="4.99012">
        <ele>335.4</ele>
        <time>2025-11-11T15:15:20.000Z</time>
      </trkpt>
      <trkpt lat="47.2833" lon="4.99024">
        <ele>336.2</ele>
        <time>2025-11-11T15:15:25.000Z</time>
      </trkpt>
      <trkpt lat="47.28331" lon="4.9903">
        <ele>335.3</ele>
        <time>2025-11-11T15:15:30.000Z</time>
      </trkpt>
      <trkpt lat="47.28332" lon="4.99039">
        <ele>334.6</ele>
        <time>2025-11-11T15:15:35.000Z</time>
      </trkpt>
      <trkpt lat="47.28335" lon="4.99045">
        <ele>335.4</ele>
        <time>2025-11-11T15:15:40.000Z</time>
      </trkpt>
      <trkpt lat="47.28336" lon="4.99053">
        <ele>336.5</ele>
        <time>2025-11-11T15:15:45.000Z</time>
      </trkpt>
      <trkpt lat="47.28337" lon="4.99062">
        <ele>336</ele>
        <time>2025-11-11T15:15:50.000Z</time>
      </trkpt>
      <trkpt lat="47.28339" lon="4.99068">
        <ele>335.5</ele>
        <time>2025-11-11T15:15:55.000Z</time>
      </trkpt>
      <trkpt lat="47.28341" lon="4.99076">
        <ele>335.7</ele>
        <time>2025-11-11T15:16:00.000Z</time>
      </trkpt>
      <trkpt lat="47.28342" lon="4.99086">
        <ele>335.9</ele>
        <time>2025-11-11T15:16:05.000Z</time>
      </trkpt>
      <trkpt lat="47.28344" lon="4.99096">
        <ele>334.3</ele>
        <time>2025-11-11T15:16:10.000Z</time>
      </trkpt>
      <trkpt lat="47.28346" lon="4.99101">
        <ele>334.6</ele>
        <time>2025-11-11T15:16:15.000Z</time>
      </trkpt>
      <trkpt lat="47.28348" lon="4.99112">
        <ele>335.2</ele>
        <time>2025-11-11T15:16:20.000Z</time>
      </trkpt>
      <trkpt lat="47.28349" lon="4.99121">
        <ele>334.8</ele>
        <time>2025-11-11T15:16:25.000Z</time>
      </trkpt>
      <trkpt lat="47.28346" lon="4.99127">
        <ele>332.8</ele>
        <time>2025-11-11T15:16:30.000Z</time>
      </trkpt>
      <trkpt lat="47.28339" lon="4.99132">
        <ele>331.5</ele>
        <time>2025-11-11T15:16:35.000Z</time>
      </trkpt>
      <trkpt lat="47.28337" lon="4.99136">
        <ele>328.8</ele>
        <time>2025-11-11T15:16:40.000Z</time>
      </trkpt>
      <trkpt lat="47.28331" lon="4.99142">
        <ele>327.6</ele>
        <time>2025-11-11T15:16:45.000Z</time>
      </trkpt>
      <trkpt lat="47.28328" lon="4.99147">
        <ele>325.8</ele>
        <time>2025-11-11T15:16:50.000Z</time>
      </trkpt>
      <trkpt lat="47.28324" lon="4.99153">
        <ele>325.7</ele>
        <time>2025-11-11T15:16:55.000Z</time>
      </trkpt>
      <trkpt lat="47.28319" lon="4.9916">
        <ele>326.5</ele>
        <time>2025-11-11T15:17:00.000Z</time>
      </trkpt>
      <trkpt lat="47.28314" lon="4.99166">
        <ele>325.4</ele>
        <time>2025-11-11T15:17:05.000Z</time>
      </trkpt>
      <trkpt lat="47.28312" lon="4.9917">
        <ele>323.7</ele>
        <time>2025-11-11T15:17:10.000Z</time>
      </trkpt>
      <trkpt lat="47.28311" lon="4.99175">
        <ele>323.8</ele>
        <time>2025-11-11T15:17:15.000Z</time>
      </trkpt>
      <trkpt lat="47.28312" lon="4.99177">
        <ele>323.9</ele>
        <time>2025-11-11T15:17:20.000Z</time>
      </trkpt>
      <trkpt lat="47.28312" lon="4.99184">
        <ele>323</ele>
        <time>2025-11-11T15:17:25.000Z</time>
      </trkpt>
      <trkpt lat="47.28312" lon="4.99194">
        <ele>322.5</ele>
        <time>2025-11-11T15:17:30.000Z</time>
      </trkpt>
      <trkpt lat="47.28311" lon="4.99203">
        <ele>321.9</ele>
        <time>2025-11-11T15:17:35.000Z</time>
      </trkpt>
      <trkpt lat="47.28311" lon="4.9921">
        <ele>321.2</ele>
        <time>2025-11-11T15:17:40.000Z</time>
      </trkpt>
      <trkpt lat="47.2831" lon="4.99218">
        <ele>320.5</ele>
        <time>2025-11-11T15:17:45.000Z</time>
      </trkpt>
      <trkpt lat="47.28307" lon="4.99227">
        <ele>323.4</ele>
        <time>2025-11-11T15:17:50.000Z</time>
      </trkpt>
      <trkpt lat="47.28304" lon="4.99233">
        <ele>322.6</ele>
        <time>2025-11-11T15:17:55.000Z</time>
      </trkpt>
      <trkpt lat="47.283" lon="4.99239">
        <ele>321.9</ele>
        <time>2025-11-11T15:18:00.000Z</time>
      </trkpt>
      <trkpt lat="47.28296" lon="4.99247">
        <ele>322.1</ele>
        <time>2025-11-11T15:18:05.000Z</time>
      </trkpt>
      <trkpt lat="47.28295" lon="4.99255">
        <ele>323.9</ele>
        <time>2025-11-11T15:18:10.000Z</time>
      </trkpt>
      <trkpt lat="47.2829" lon="4.99265">
        <ele>323.3</ele>
        <time>2025-11-11T15:18:15.000Z</time>
      </trkpt>
      <trkpt lat="47.28288" lon="4.99272">
        <ele>324.5</ele>
        <time>2025-11-11T15:18:20.000Z</time>
      </trkpt>
      <trkpt lat="47.28286" lon="4.99279">
        <ele>321.2</ele>
        <time>2025-11-11T15:18:25.000Z</time>
      </trkpt>
      <trkpt lat="47.28285" lon="4.99288">
        <ele>321.4</ele>
        <time>2025-11-11T15:18:30.000Z</time>
      </trkpt>
      <trkpt lat="47.28286" lon="4.99291">
        <ele>321.2</ele>
        <time>2025-11-11T15:18:35.000Z</time>
      </trkpt>
      <trkpt lat="47.2829" lon="4.993">
        <ele>320.5</ele>
        <time>2025-11-11T15:18:40.000Z</time>
      </trkpt>
      <trkpt lat="47.28294" lon="4.99307">
        <ele>321.4</ele>
        <time>2025-11-11T15:18:45.000Z</time>
      </trkpt>
      <trkpt lat="47.283" lon="4.99313">
        <ele>321.9</ele>
        <time>2025-11-11T15:18:50.000Z</time>
      </trkpt>
      <trkpt lat="47.28303" lon="4.99318">
        <ele>323.5</ele>
        <time>2025-11-11T15:18:55.000Z</time>
      </trkpt>
      <trkpt lat="47.28307" lon="4.99325">
        <ele>324.2</ele>
        <time>2025-11-11T15:19:00.000Z</time>
      </trkpt>
      <trkpt lat="47.28313" lon="4.99334">
        <ele>326.9</ele>
        <time>2025-11-11T15:19:05.000Z</time>
      </trkpt>
      <trkpt lat="47.28317" lon="4.9934">
        <ele>325.9</ele>
        <time>2025-11-11T15:19:10.000Z</time>
      </trkpt>
      <trkpt lat="47.28322" lon="4.99344">
        <ele>325.3</ele>
        <time>2025-11-11T15:19:15.000Z</time>
      </trkpt>
      <trkpt lat="47.28328" lon="4.99352">
        <ele>327.4</ele>
        <time>2025-11-11T15:19:20.000Z</time>
      </trkpt>
      <trkpt lat="47.28331" lon="4.99357">
        <ele>326.1</ele>
        <time>2025-11-11T15:19:25.000Z</time>
      </trkpt>
      <trkpt lat="47.28335" lon="4.99361">
        <ele>323.4</ele>
        <time>2025-11-11T15:19:30.000Z</time>
      </trkpt>
      <trkpt lat="47.28339" lon="4.9937">
        <ele>326.2</ele>
        <time>2025-11-11T15:19:35.000Z</time>
      </trkpt>
      <trkpt lat="47.28343" lon="4.99379">
        <ele>327.4</ele>
        <time>2025-11-11T15:19:40.000Z</time>
      </trkpt>
      <trkpt lat="47.28347" lon="4.99383">
        <ele>327.1</ele>
        <time>2025-11-11T15:19:45.000Z</time>
      </trkpt>
      <trkpt lat="47.28351" lon="4.99391">
        <ele>326.8</ele>
        <time>2025-11-11T15:19:50.000Z</time>
      </trkpt>
      <trkpt lat="47.28357" lon="4.99397">
        <ele>327.2</ele>
        <time>2025-11-11T15:19:55.000Z</time>
      </trkpt>
      <trkpt lat="47.28361" lon="4.994">
        <ele>327.4</ele>
        <time>2025-11-11T15:20:00.000Z</time>
      </trkpt>
      <trkpt lat="47.28366" lon="4.99404">
        <ele>324.7</ele>
        <time>2025-11-11T15:20:05.000Z</time>
      </trkpt>
      <trkpt lat="47.28372" lon="4.99409">
        <ele>325</ele>
        <time>2025-11-11T15:20:10.000Z</time>
      </trkpt>
      <trkpt lat="47.28376" lon="4.99415">
        <ele>323.2</ele>
        <time>2025-11-11T15:20:15.000Z</time>
      </trkpt>
      <trkpt lat="47.2838" lon="4.99419">
        <ele>323.5</ele>
        <time>2025-11-11T15:20:20.000Z</time>
      </trkpt>
      <trkpt lat="47.28385" lon="4.99428">
        <ele>324.4</ele>
        <time>2025-11-11T15:20:25.000Z</time>
      </trkpt>
      <trkpt lat="47.28392" lon="4.99436">
        <ele>326</ele>
        <time>2025-11-11T15:20:30.000Z</time>
      </trkpt>
      <trkpt lat="47.28395" lon="4.99442">
        <ele>324.2</ele>
        <time>2025-11-11T15:20:35.000Z</time>
      </trkpt>
      <trkpt lat="47.28401" lon="4.99448">
        <ele>325</ele>
        <time>2025-11-11T15:20:40.000Z</time>
      </trkpt>
      <trkpt lat="47.28406" lon="4.99451">
        <ele>327</ele>
        <time>2025-11-11T15:20:45.000Z</time>
      </trkpt>
      <trkpt lat="47.28411" lon="4.99457">
        <ele>326.1</ele>
        <time>2025-11-11T15:20:50.000Z</time>
      </trkpt>
      <trkpt lat="47.28415" lon="4.9946">
        <ele>327.1</ele>
        <time>2025-11-11T15:20:55.000Z</time>
      </trkpt>
      <trkpt lat="47.28416" lon="4.99462">
        <ele>326.3</ele>
        <time>2025-11-11T15:21:00.000Z</time>
      </trkpt>
      <trkpt lat="47.28419" lon="4.99465">
        <ele>325.7</ele>
        <time>2025-11-11T15:21:05.000Z</time>
      </trkpt>
      <trkpt lat="47.28424" lon="4.9947">
        <ele>324.7</ele>
        <time>2025-11-11T15:21:10.000Z</time>
      </trkpt>
      <trkpt lat="47.28428" lon="4.99477">
        <ele>327.1</ele>
        <time>2025-11-11T15:21:15.000Z</time>
      </trkpt>
      <trkpt lat="47.28432" lon="4.99479">
        <ele>324.7</ele>
        <time>2025-11-11T15:21:20.000Z</time>
      </trkpt>
      <trkpt lat="47.28436" lon="4.99488">
        <ele>326.4</ele>
        <time>2025-11-11T15:21:25.000Z</time>
      </trkpt>
      <trkpt lat="47.2844" lon="4.99491">
        <ele>325.6</ele>
        <time>2025-11-11T15:21:30.000Z</time>
      </trkpt>
      <trkpt lat="47.28445" lon="4.99498">
        <ele>328.1</ele>
        <time>2025-11-11T15:21:35.000Z</time>
      </trkpt>
      <trkpt lat="47.28448" lon="4.99504">
        <ele>328.4</ele>
        <time>2025-11-11T15:21:40.000Z</time>
      </trkpt>
      <trkpt lat="47.28453" lon="4.99511">
        <ele>327.7</ele>
        <time>2025-11-11T15:21:45.000Z</time>
      </trkpt>
      <trkpt lat="47.28458" lon="4.9952">
        <ele>327.3</ele>
        <time>2025-11-11T15:21:50.000Z</time>
      </trkpt>
      <trkpt lat="47.2846" lon="4.99525">
        <ele>328.5</ele>
        <time>2025-11-11T15:21:55.000Z</time>
      </trkpt>
      <trkpt lat="47.28464" lon="4.99533">
        <ele>325.1</ele>
        <time>2025-11-11T15:22:00.000Z</time>
      </trkpt>
      <trkpt lat="47.28469" lon="4.99541">
        <ele>325.7</ele>
        <time>2025-11-11T15:22:05.000Z</time>
      </trkpt>
      <trkpt lat="47.28471" lon="4.99545">
        <ele>324.4</ele>
        <time>2025-11-11T15:22:10.000Z</time>
      </trkpt>
      <trkpt lat="47.28475" lon="4.99551">
        <ele>323.2</ele>
        <time>2025-11-11T15:22:15.000Z</time>
      </trkpt>
      <trkpt lat="47.28479" lon="4.99561">
        <ele>324.3</ele>
        <time>2025-11-11T15:22:20.000Z</time>
      </trkpt>
      <trkpt lat="47.28482" lon="4.99568">
        <ele>324.4</ele>
        <time>2025-11-11T15:22:25.000Z</time>
      </trkpt>
      <trkpt lat="47.28485" lon="4.99573">
        <ele>323.6</ele>
        <time>2025-11-11T15:22:30.000Z</time>
      </trkpt>
      <trkpt lat="47.28489" lon="4.99581">
        <ele>323.1</ele>
        <time>2025-11-11T15:22:35.000Z</time>
      </trkpt>
      <trkpt lat="47.28491" lon="4.99588">
        <ele>322.7</ele>
        <time>2025-11-11T15:22:40.000Z</time>
      </trkpt>
      <trkpt lat="47.28495" lon="4.99591">
        <ele>322.9</ele>
        <time>2025-11-11T15:22:45.000Z</time>
      </trkpt>
      <trkpt lat="47.28502" lon="4.99598">
        <ele>324.5</ele>
        <time>2025-11-11T15:22:50.000Z</time>
      </trkpt>
      <trkpt lat="47.28505" lon="4.99605">
        <ele>322.7</ele>
        <time>2025-11-11T15:22:55.000Z</time>
      </trkpt>
      <trkpt lat="47.28505" lon="4.99602">
        <ele>323.5</ele>
        <time>2025-11-11T15:23:00.000Z</time>
      </trkpt>
      <trkpt lat="47.28504" lon="4.99601">
        <ele>323.5</ele>
        <time>2025-11-11T15:23:05.000Z</time>
      </trkpt>
      <trkpt lat="47.28504" lon="4.99601">
        <ele>323.5</ele>
        <time>2025-11-11T15:23:10.000Z</time>
      </trkpt>
      <trkpt lat="47.28507" lon="4.99605">
        <ele>323.5</ele>
        <time>2025-11-11T15:23:15.000Z</time>
      </trkpt>
      <trkpt lat="47.28513" lon="4.99611">
        <ele>323.3</ele>
        <time>2025-11-11T15:23:20.000Z</time>
      </trkpt>
      <trkpt lat="47.28518" lon="4.99613">
        <ele>321.5</ele>
        <time>2025-11-11T15:23:25.000Z</time>
      </trkpt>
      <trkpt lat="47.28523" lon="4.99615">
        <ele>320.4</ele>
        <time>2025-11-11T15:23:30.000Z</time>
      </trkpt>
      <trkpt lat="47.28529" lon="4.99618">
        <ele>320.7</ele>
        <time>2025-11-11T15:23:35.000Z</time>
      </trkpt>
      <trkpt lat="47.28534" lon="4.99621">
        <ele>320.4</ele>
        <time>2025-11-11T15:23:40.000Z</time>
      </trkpt>
      <trkpt lat="47.2854" lon="4.99623">
        <ele>320.2</ele>
        <time>2025-11-11T15:23:45.000Z</time>
      </trkpt>
      <trkpt lat="47.28546" lon="4.99629">
        <ele>321.2</ele>
        <time>2025-11-11T15:23:50.000Z</time>
      </trkpt>
      <trkpt lat="47.28548" lon="4.99636">
        <ele>322.4</ele>
        <time>2025-11-11T15:23:55.000Z</time>
      </trkpt>
      <trkpt lat="47.28549" lon="4.99645">
        <ele>320.8</ele>
        <time>2025-11-11T15:24:00.000Z</time>
      </trkpt>
      <trkpt lat="47.2855" lon="4.99656">
        <ele>321.7</ele>
        <time>2025-11-11T15:24:05.000Z</time>
      </trkpt>
      <trkpt lat="47.28548" lon="4.99661">
        <ele>320.2</ele>
        <time>2025-11-11T15:24:10.000Z</time>
      </trkpt>
      <trkpt lat="47.28549" lon="4.99659">
        <ele>320.4</ele>
        <time>2025-11-11T15:24:15.000Z</time>
      </trkpt>
      <trkpt lat="47.28549" lon="4.99659">
        <ele>320.2</ele>
        <time>2025-11-11T15:24:20.000Z</time>
      </trkpt>
      <trkpt lat="47.28549" lon="4.99659">
        <ele>320.2</ele>
        <time>2025-11-11T15:24:25.000Z</time>
      </trkpt>
      <trkpt lat="47.28549" lon="4.99659">
        <ele>320.2</ele>
        <time>2025-11-11T15:24:30.000Z</time>
      </trkpt>
      <trkpt lat="47.28549" lon="4.99659">
        <ele>320.1</ele>
        <time>2025-11-11T15:24:35.000Z</time>
      </trkpt>
      <trkpt lat="47.28549" lon="4.99659">
        <ele>320.1</ele>
        <time>2025-11-11T15:24:40.000Z</time>
      </trkpt>
      <trkpt lat="47.28549" lon="4.99659">
        <ele>320</ele>
        <time>2025-11-11T15:24:46.000Z</time>
      </trkpt>
      <trkpt lat="47.28549" lon="4.99659">
        <ele>319.4</ele>
        <time>2025-11-11T15:24:51.000Z</time>
      </trkpt>
      <trkpt lat="47.2855" lon="4.99658">
        <ele>319.4</ele>
        <time>2025-11-11T15:24:56.000Z</time>
      </trkpt>
      <trkpt lat="47.2855" lon="4.99658">
        <ele>319.5</ele>
        <time>2025-11-11T15:25:01.000Z</time>
      </trkpt>
      <trkpt lat="47.2855" lon="4.99658">
        <ele>319.5</ele>
        <time>2025-11-11T15:25:06.000Z</time>
      </trkpt>
      <trkpt lat="47.2855" lon="4.99658">
        <ele>319.5</ele>
        <time>2025-11-11T15:25:11.000Z</time>
      </trkpt>
      <trkpt lat="47.2855" lon="4.99658">
        <ele>319.5</ele>
        <time>2025-11-11T15:25:16.000Z</time>
      </trkpt>
      <trkpt lat="47.2855" lon="4.99658">
        <ele>319.5</ele>
        <time>2025-11-11T15:25:21.000Z</time>
      </trkpt>
      <trkpt lat="47.2855" lon="4.99658">
        <ele>319.5</ele>
        <time>2025-11-11T15:25:26.000Z</time>
      </trkpt>
      <trkpt lat="47.28549" lon="4.99664">
        <ele>319.2</ele>
        <time>2025-11-11T15:25:31.000Z</time>
      </trkpt>
      <trkpt lat="47.28553" lon="4.99671">
        <ele>319.2</ele>
        <time>2025-11-11T15:25:36.000Z</time>
      </trkpt>
      <trkpt lat="47.28558" lon="4.99675">
        <ele>320</ele>
        <time>2025-11-11T15:25:41.000Z</time>
      </trkpt>
      <trkpt lat="47.28564" lon="4.9968">
        <ele>320.5</ele>
        <time>2025-11-11T15:25:46.000Z</time>
      </trkpt>
      <trkpt lat="47.28567" lon="4.99684">
        <ele>320.3</ele>
        <time>2025-11-11T15:25:51.000Z</time>
      </trkpt>
      <trkpt lat="47.28572" lon="4.99689">
        <ele>319.7</ele>
        <time>2025-11-11T15:25:56.000Z</time>
      </trkpt>
      <trkpt lat="47.28578" lon="4.99695">
        <ele>321.2</ele>
        <time>2025-11-11T15:26:01.000Z</time>
      </trkpt>
      <trkpt lat="47.28584" lon="4.997">
        <ele>324</ele>
        <time>2025-11-11T15:26:06.000Z</time>
      </trkpt>
      <trkpt lat="47.28589" lon="4.99701">
        <ele>321.3</ele>
        <time>2025-11-11T15:26:11.000Z</time>
      </trkpt>
      <trkpt lat="47.28594" lon="4.99703">
        <ele>320.5</ele>
        <time>2025-11-11T15:26:16.000Z</time>
      </trkpt>
      <trkpt lat="47.28599" lon="4.99705">
        <ele>319.4</ele>
        <time>2025-11-11T15:26:21.000Z</time>
      </trkpt>
      <trkpt lat="47.28603" lon="4.99706">
        <ele>318.2</ele>
        <time>2025-11-11T15:26:26.000Z</time>
      </trkpt>
      <trkpt lat="47.28609" lon="4.99708">
        <ele>316.1</ele>
        <time>2025-11-11T15:26:31.000Z</time>
      </trkpt>
      <trkpt lat="47.28614" lon="4.99711">
        <ele>316.3</ele>
        <time>2025-11-11T15:26:36.000Z</time>
      </trkpt>
      <trkpt lat="47.2862" lon="4.99714">
        <ele>315.8</ele>
        <time>2025-11-11T15:26:41.000Z</time>
      </trkpt>
      <trkpt lat="47.28626" lon="4.99716">
        <ele>317.3</ele>
        <time>2025-11-11T15:26:46.000Z</time>
      </trkpt>
      <trkpt lat="47.28632" lon="4.99721">
        <ele>317.2</ele>
        <time>2025-11-11T15:26:51.000Z</time>
      </trkpt>
      <trkpt lat="47.28638" lon="4.99724">
        <ele>317.6</ele>
        <time>2025-11-11T15:26:56.000Z</time>
      </trkpt>
      <trkpt lat="47.28645" lon="4.99726">
        <ele>317.1</ele>
        <time>2025-11-11T15:27:01.000Z</time>
      </trkpt>
      <trkpt lat="47.28651" lon="4.99728">
        <ele>317.4</ele>
        <time>2025-11-11T15:27:06.000Z</time>
      </trkpt>
      <trkpt lat="47.28656" lon="4.9973">
        <ele>316.8</ele>
        <time>2025-11-11T15:27:11.000Z</time>
      </trkpt>
      <trkpt lat="47.28661" lon="4.99732">
        <ele>315.8</ele>
        <time>2025-11-11T15:27:16.000Z</time>
      </trkpt>
      <trkpt lat="47.28666" lon="4.99737">
        <ele>315.4</ele>
        <time>2025-11-11T15:27:21.000Z</time>
      </trkpt>
      <trkpt lat="47.28671" lon="4.99741">
        <ele>314.3</ele>
        <time>2025-11-11T15:27:26.000Z</time>
      </trkpt>
      <trkpt lat="47.28678" lon="4.99745">
        <ele>314.8</ele>
        <time>2025-11-11T15:27:31.000Z</time>
      </trkpt>
      <trkpt lat="47.28682" lon="4.99748">
        <ele>315.1</ele>
        <time>2025-11-11T15:27:36.000Z</time>
      </trkpt>
      <trkpt lat="47.28688" lon="4.99754">
        <ele>314.2</ele>
        <time>2025-11-11T15:27:41.000Z</time>
      </trkpt>
      <trkpt lat="47.28695" lon="4.9976">
        <ele>316.3</ele>
        <time>2025-11-11T15:27:46.000Z</time>
      </trkpt>
      <trkpt lat="47.28701" lon="4.99768">
        <ele>316</ele>
        <time>2025-11-11T15:27:51.000Z</time>
      </trkpt>
      <trkpt lat="47.28705" lon="4.99769">
        <ele>317.2</ele>
        <time>2025-11-11T15:27:56.000Z</time>
      </trkpt>
      <trkpt lat="47.28711" lon="4.99775">
        <ele>317.5</ele>
        <time>2025-11-11T15:28:01.000Z</time>
      </trkpt>
      <trkpt lat="47.28717" lon="4.99782">
        <ele>320</ele>
        <time>2025-11-11T15:28:06.000Z</time>
      </trkpt>
      <trkpt lat="47.28722" lon="4.9979">
        <ele>321.2</ele>
        <time>2025-11-11T15:28:11.000Z</time>
      </trkpt>
      <trkpt lat="47.28727" lon="4.99792">
        <ele>323.2</ele>
        <time>2025-11-11T15:28:16.000Z</time>
      </trkpt>
      <trkpt lat="47.28733" lon="4.99795">
        <ele>324.3</ele>
        <time>2025-11-11T15:28:21.000Z</time>
      </trkpt>
      <trkpt lat="47.28737" lon="4.99799">
        <ele>322.9</ele>
        <time>2025-11-11T15:28:26.000Z</time>
      </trkpt>
      <trkpt lat="47.28743" lon="4.99802">
        <ele>321.6</ele>
        <time>2025-11-11T15:28:31.000Z</time>
      </trkpt>
      <trkpt lat="47.2875" lon="4.99803">
        <ele>318.4</ele>
        <time>2025-11-11T15:28:36.000Z</time>
      </trkpt>
      <trkpt lat="47.28755" lon="4.99805">
        <ele>320</ele>
        <time>2025-11-11T15:28:41.000Z</time>
      </trkpt>
      <trkpt lat="47.28761" lon="4.99809">
        <ele>321.8</ele>
        <time>2025-11-11T15:28:46.000Z</time>
      </trkpt>
      <trkpt lat="47.28766" lon="4.99813">
        <ele>319.8</ele>
        <time>2025-11-11T15:28:51.000Z</time>
      </trkpt>
      <trkpt lat="47.28771" lon="4.99819">
        <ele>319.6</ele>
        <time>2025-11-11T15:28:56.000Z</time>
      </trkpt>
      <trkpt lat="47.28776" lon="4.99823">
        <ele>319.9</ele>
        <time>2025-11-11T15:29:01.000Z</time>
      </trkpt>
      <trkpt lat="47.28783" lon="4.99826">
        <ele>316.3</ele>
        <time>2025-11-11T15:29:06.000Z</time>
      </trkpt>
      <trkpt lat="47.28791" lon="4.99825">
        <ele>317.9</ele>
        <time>2025-11-11T15:29:11.000Z</time>
      </trkpt>
      <trkpt lat="47.28796" lon="4.99827">
        <ele>317.9</ele>
        <time>2025-11-11T15:29:16.000Z</time>
      </trkpt>
      <trkpt lat="47.288" lon="4.9983">
        <ele>316.3</ele>
        <time>2025-11-11T15:29:21.000Z</time>
      </trkpt>
      <trkpt lat="47.28807" lon="4.99833">
        <ele>316.4</ele>
        <time>2025-11-11T15:29:26.000Z</time>
      </trkpt>
      <trkpt lat="47.28815" lon="4.99833">
        <ele>317.1</ele>
        <time>2025-11-11T15:29:31.000Z</time>
      </trkpt>
      <trkpt lat="47.2882" lon="4.99834">
        <ele>319</ele>
        <time>2025-11-11T15:29:36.000Z</time>
      </trkpt>
      <trkpt lat="47.28825" lon="4.99839">
        <ele>317.5</ele>
        <time>2025-11-11T15:29:41.000Z</time>
      </trkpt>
      <trkpt lat="47.28832" lon="4.99841">
        <ele>317.2</ele>
        <time>2025-11-11T15:29:46.000Z</time>
      </trkpt>
      <trkpt lat="47.28836" lon="4.99843">
        <ele>316.9</ele>
        <time>2025-11-11T15:29:51.000Z</time>
      </trkpt>
      <trkpt lat="47.28843" lon="4.99843">
        <ele>316.7</ele>
        <time>2025-11-11T15:29:56.000Z</time>
      </trkpt>
      <trkpt lat="47.28849" lon="4.99845">
        <ele>318.7</ele>
        <time>2025-11-11T15:30:01.000Z</time>
      </trkpt>
      <trkpt lat="47.28853" lon="4.99849">
        <ele>320.1</ele>
        <time>2025-11-11T15:30:06.000Z</time>
      </trkpt>
      <trkpt lat="47.2886" lon="4.99853">
        <ele>319.9</ele>
        <time>2025-11-11T15:30:11.000Z</time>
      </trkpt>
      <trkpt lat="47.28866" lon="4.99859">
        <ele>319.4</ele>
        <time>2025-11-11T15:30:16.000Z</time>
      </trkpt>
      <trkpt lat="47.28871" lon="4.99863">
        <ele>318.9</ele>
        <time>2025-11-11T15:30:21.000Z</time>
      </trkpt>
      <trkpt lat="47.28875" lon="4.99865">
        <ele>320.8</ele>
        <time>2025-11-11T15:30:26.000Z</time>
      </trkpt>
      <trkpt lat="47.28881" lon="4.99867">
        <ele>318.7</ele>
        <time>2025-11-11T15:30:31.000Z</time>
      </trkpt>
      <trkpt lat="47.28888" lon="4.99871">
        <ele>320.9</ele>
        <time>2025-11-11T15:30:36.000Z</time>
      </trkpt>
      <trkpt lat="47.28892" lon="4.99873">
        <ele>321.2</ele>
        <time>2025-11-11T15:30:41.000Z</time>
      </trkpt>
      <trkpt lat="47.28898" lon="4.99874">
        <ele>319.6</ele>
        <time>2025-11-11T15:30:46.000Z</time>
      </trkpt>
      <trkpt lat="47.28904" lon="4.99876">
        <ele>318</ele>
        <time>2025-11-11T15:30:51.000Z</time>
      </trkpt>
      <trkpt lat="47.28911" lon="4.99876">
        <ele>316.5</ele>
        <time>2025-11-11T15:30:56.000Z</time>
      </trkpt>
      <trkpt lat="47.28916" lon="4.99875">
        <ele>317.1</ele>
        <time>2025-11-11T15:31:01.000Z</time>
      </trkpt>
      <trkpt lat="47.28923" lon="4.99879">
        <ele>317.5</ele>
        <time>2025-11-11T15:31:06.000Z</time>
      </trkpt>
      <trkpt lat="47.28931" lon="4.9988">
        <ele>317.5</ele>
        <time>2025-11-11T15:31:11.000Z</time>
      </trkpt>
      <trkpt lat="47.28938" lon="4.99882">
        <ele>316.8</ele>
        <time>2025-11-11T15:31:16.000Z</time>
      </trkpt>
      <trkpt lat="47.28942" lon="4.99886">
        <ele>317.2</ele>
        <time>2025-11-11T15:31:21.000Z</time>
      </trkpt>
      <trkpt lat="47.28948" lon="4.9989">
        <ele>314.1</ele>
        <time>2025-11-11T15:31:26.000Z</time>
      </trkpt>
      <trkpt lat="47.28954" lon="4.99892">
        <ele>316.8</ele>
        <time>2025-11-11T15:31:31.000Z</time>
      </trkpt>
      <trkpt lat="47.28958" lon="4.99895">
        <ele>317</ele>
        <time>2025-11-11T15:31:36.000Z</time>
      </trkpt>
      <trkpt lat="47.28965" lon="4.99898">
        <ele>314.5</ele>
        <time>2025-11-11T15:31:41.000Z</time>
      </trkpt>
      <trkpt lat="47.28972" lon="4.999">
        <ele>315.2</ele>
        <time>2025-11-11T15:31:46.000Z</time>
      </trkpt>
      <trkpt lat="47.28976" lon="4.99901">
        <ele>315.5</ele>
        <time>2025-11-11T15:31:51.000Z</time>
      </trkpt>
      <trkpt lat="47.28981" lon="4.99906">
        <ele>315.2</ele>
        <time>2025-11-11T15:31:56.000Z</time>
      </trkpt>
      <trkpt lat="47.28987" lon="4.99911">
        <ele>314.1</ele>
        <time>2025-11-11T15:32:01.000Z</time>
      </trkpt>
      <trkpt lat="47.28992" lon="4.99913">
        <ele>311.8</ele>
        <time>2025-11-11T15:32:06.000Z</time>
      </trkpt>
      <trkpt lat="47.28998" lon="4.99918">
        <ele>311.6</ele>
        <time>2025-11-11T15:32:11.000Z</time>
      </trkpt>
      <trkpt lat="47.29004" lon="4.99924">
        <ele>312.4</ele>
        <time>2025-11-11T15:32:16.000Z</time>
      </trkpt>
      <trkpt lat="47.29008" lon="4.99929">
        <ele>312.6</ele>
        <time>2025-11-11T15:32:21.000Z</time>
      </trkpt>
      <trkpt lat="47.29014" lon="4.99935">
        <ele>313.4</ele>
        <time>2025-11-11T15:32:26.000Z</time>
      </trkpt>
      <trkpt lat="47.2902" lon="4.99941">
        <ele>312.8</ele>
        <time>2025-11-11T15:32:31.000Z</time>
      </trkpt>
      <trkpt lat="47.29025" lon="4.99943">
        <ele>313.2</ele>
        <time>2025-11-11T15:32:36.000Z</time>
      </trkpt>
      <trkpt lat="47.2903" lon="4.99941">
        <ele>312.8</ele>
        <time>2025-11-11T15:32:41.000Z</time>
      </trkpt>
      <trkpt lat="47.29036" lon="4.99943">
        <ele>311.7</ele>
        <time>2025-11-11T15:32:46.000Z</time>
      </trkpt>
      <trkpt lat="47.29042" lon="4.99945">
        <ele>314.8</ele>
        <time>2025-11-11T15:32:51.000Z</time>
      </trkpt>
      <trkpt lat="47.29049" lon="4.99951">
        <ele>312.9</ele>
        <time>2025-11-11T15:32:56.000Z</time>
      </trkpt>
      <trkpt lat="47.29056" lon="4.99955">
        <ele>313.5</ele>
        <time>2025-11-11T15:33:01.000Z</time>
      </trkpt>
      <trkpt lat="47.2906" lon="4.9996">
        <ele>314.1</ele>
        <time>2025-11-11T15:33:06.000Z</time>
      </trkpt>
      <trkpt lat="47.29065" lon="4.99966">
        <ele>313.5</ele>
        <time>2025-11-11T15:33:11.000Z</time>
      </trkpt>
      <trkpt lat="47.29073" lon="4.99973">
        <ele>313.8</ele>
        <time>2025-11-11T15:33:16.000Z</time>
      </trkpt>
      <trkpt lat="47.29076" lon="4.99974">
        <ele>313</ele>
        <time>2025-11-11T15:33:21.000Z</time>
      </trkpt>
      <trkpt lat="47.29082" lon="4.99978">
        <ele>313.8</ele>
        <time>2025-11-11T15:33:26.000Z</time>
      </trkpt>
      <trkpt lat="47.29088" lon="4.99983">
        <ele>312.5</ele>
        <time>2025-11-11T15:33:31.000Z</time>
      </trkpt>
      <trkpt lat="47.29093" lon="4.99987">
        <ele>312.4</ele>
        <time>2025-11-11T15:33:36.000Z</time>
      </trkpt>
      <trkpt lat="47.29097" lon="4.99991">
        <ele>312.6</ele>
        <time>2025-11-11T15:33:41.000Z</time>
      </trkpt>
      <trkpt lat="47.29101" lon="4.99993">
        <ele>310.9</ele>
        <time>2025-11-11T15:33:46.000Z</time>
      </trkpt>
      <trkpt lat="47.29106" lon="4.99996">
        <ele>310.5</ele>
        <time>2025-11-11T15:33:51.000Z</time>
      </trkpt>
      <trkpt lat="47.29112" lon="4.99999">
        <ele>311</ele>
        <time>2025-11-11T15:33:56.000Z</time>
      </trkpt>
      <trkpt lat="47.29118" lon="5.00001">
        <ele>308.4</ele>
        <time>2025-11-11T15:34:01.000Z</time>
      </trkpt>
      <trkpt lat="47.29125" lon="5.00006">
        <ele>309.9</ele>
        <time>2025-11-11T15:34:06.000Z</time>
      </trkpt>
      <trkpt lat="47.29131" lon="5.0001">
        <ele>310.2</ele>
        <time>2025-11-11T15:34:11.000Z</time>
      </trkpt>
      <trkpt lat="47.29137" lon="5.00012">
        <ele>311.6</ele>
        <time>2025-11-11T15:34:16.000Z</time>
      </trkpt>
      <trkpt lat="47.29143" lon="5.00013">
        <ele>312</ele>
        <time>2025-11-11T15:34:21.000Z</time>
      </trkpt>
      <trkpt lat="47.29149" lon="5.00017">
        <ele>312</ele>
        <time>2025-11-11T15:34:26.000Z</time>
      </trkpt>
      <trkpt lat="47.29153" lon="5.00019">
        <ele>314.3</ele>
        <time>2025-11-11T15:34:31.000Z</time>
      </trkpt>
      <trkpt lat="47.29161" lon="5.0002">
        <ele>315.5</ele>
        <time>2025-11-11T15:34:36.000Z</time>
      </trkpt>
      <trkpt lat="47.29168" lon="5.00022">
        <ele>315.4</ele>
        <time>2025-11-11T15:34:41.000Z</time>
      </trkpt>
      <trkpt lat="47.29175" lon="5.00024">
        <ele>316.7</ele>
        <time>2025-11-11T15:34:46.000Z</time>
      </trkpt>
      <trkpt lat="47.29181" lon="5.00026">
        <ele>317.2</ele>
        <time>2025-11-11T15:34:51.000Z</time>
      </trkpt>
      <trkpt lat="47.29185" lon="5.00028">
        <ele>316.7</ele>
        <time>2025-11-11T15:34:56.000Z</time>
      </trkpt>
      <trkpt lat="47.29193" lon="5.00027">
        <ele>318.5</ele>
        <time>2025-11-11T15:35:01.000Z</time>
      </trkpt>
      <trkpt lat="47.29199" lon="5.00031">
        <ele>318.9</ele>
        <time>2025-11-11T15:35:06.000Z</time>
      </trkpt>
      <trkpt lat="47.29206" lon="5.00034">
        <ele>321</ele>
        <time>2025-11-11T15:35:11.000Z</time>
      </trkpt>
      <trkpt lat="47.29212" lon="5.00036">
        <ele>320</ele>
        <time>2025-11-11T15:35:16.000Z</time>
      </trkpt>
      <trkpt lat="47.29219" lon="5.00037">
        <ele>319.4</ele>
        <time>2025-11-11T15:35:21.000Z</time>
      </trkpt>
      <trkpt lat="47.29219" lon="5.00031">
        <ele>316.8</ele>
        <time>2025-11-11T15:35:26.000Z</time>
      </trkpt>
      <trkpt lat="47.29221" lon="5.00022">
        <ele>316.5</ele>
        <time>2025-11-11T15:35:31.000Z</time>
      </trkpt>
      <trkpt lat="47.29224" lon="5.00013">
        <ele>317.8</ele>
        <time>2025-11-11T15:35:36.000Z</time>
      </trkpt>
      <trkpt lat="47.2923" lon="5.00012">
        <ele>319.4</ele>
        <time>2025-11-11T15:35:41.000Z</time>
      </trkpt>
      <trkpt lat="47.29235" lon="5.00014">
        <ele>319.7</ele>
        <time>2025-11-11T15:35:46.000Z</time>
      </trkpt>
      <trkpt lat="47.2924" lon="5.00017">
        <ele>319.2</ele>
        <time>2025-11-11T15:35:51.000Z</time>
      </trkpt>
      <trkpt lat="47.29245" lon="5.0002">
        <ele>317.1</ele>
        <time>2025-11-11T15:35:56.000Z</time>
      </trkpt>
      <trkpt lat="47.29251" lon="5.00023">
        <ele>318.1</ele>
        <time>2025-11-11T15:36:01.000Z</time>
      </trkpt>
      <trkpt lat="47.29255" lon="5.00029">
        <ele>318.3</ele>
        <time>2025-11-11T15:36:06.000Z</time>
      </trkpt>
      <trkpt lat="47.2926" lon="5.00032">
        <ele>317.8</ele>
        <time>2025-11-11T15:36:11.000Z</time>
      </trkpt>
      <trkpt lat="47.29266" lon="5.00035">
        <ele>317.3</ele>
        <time>2025-11-11T15:36:16.000Z</time>
      </trkpt>
      <trkpt lat="47.29271" lon="5.00041">
        <ele>315.6</ele>
        <time>2025-11-11T15:36:21.000Z</time>
      </trkpt>
      <trkpt lat="47.29276" lon="5.00043">
        <ele>313.5</ele>
        <time>2025-11-11T15:36:26.000Z</time>
      </trkpt>
      <trkpt lat="47.29281" lon="5.00046">
        <ele>314.4</ele>
        <time>2025-11-11T15:36:31.000Z</time>
      </trkpt>
      <trkpt lat="47.29286" lon="5.00051">
        <ele>314.5</ele>
        <time>2025-11-11T15:36:36.000Z</time>
      </trkpt>
      <trkpt lat="47.29291" lon="5.00057">
        <ele>316.6</ele>
        <time>2025-11-11T15:36:41.000Z</time>
      </trkpt>
      <trkpt lat="47.29294" lon="5.00063">
        <ele>315.3</ele>
        <time>2025-11-11T15:36:46.000Z</time>
      </trkpt>
      <trkpt lat="47.293" lon="5.00069">
        <ele>314.6</ele>
        <time>2025-11-11T15:36:51.000Z</time>
      </trkpt>
      <trkpt lat="47.29304" lon="5.00077">
        <ele>313.5</ele>
        <time>2025-11-11T15:36:56.000Z</time>
      </trkpt>
      <trkpt lat="47.29308" lon="5.00083">
        <ele>312.4</ele>
        <time>2025-11-11T15:37:01.000Z</time>
      </trkpt>
      <trkpt lat="47.29312" lon="5.00087">
        <ele>312.4</ele>
        <time>2025-11-11T15:37:06.000Z</time>
      </trkpt>
      <trkpt lat="47.29317" lon="5.00091">
        <ele>311.9</ele>
        <time>2025-11-11T15:37:11.000Z</time>
      </trkpt>
      <trkpt lat="47.29323" lon="5.00097">
        <ele>314.9</ele>
        <time>2025-11-11T15:37:16.000Z</time>
      </trkpt>
      <trkpt lat="47.29328" lon="5.00102">
        <ele>314.6</ele>
        <time>2025-11-11T15:37:21.000Z</time>
      </trkpt>
      <trkpt lat="47.29333" lon="5.00107">
        <ele>314.4</ele>
        <time>2025-11-11T15:37:26.000Z</time>
      </trkpt>
      <trkpt lat="47.29338" lon="5.00113">
        <ele>315.6</ele>
        <time>2025-11-11T15:37:31.000Z</time>
      </trkpt>
      <trkpt lat="47.29343" lon="5.00119">
        <ele>315.5</ele>
        <time>2025-11-11T15:37:36.000Z</time>
      </trkpt>
      <trkpt lat="47.29347" lon="5.00123">
        <ele>315.1</ele>
        <time>2025-11-11T15:37:41.000Z</time>
      </trkpt>
      <trkpt lat="47.29353" lon="5.00123">
        <ele>315.3</ele>
        <time>2025-11-11T15:37:46.000Z</time>
      </trkpt>
      <trkpt lat="47.29357" lon="5.00123">
        <ele>312</ele>
        <time>2025-11-11T15:37:51.000Z</time>
      </trkpt>
      <trkpt lat="47.29362" lon="5.00121">
        <ele>312.7</ele>
        <time>2025-11-11T15:37:56.000Z</time>
      </trkpt>
      <trkpt lat="47.29367" lon="5.00121">
        <ele>312.9</ele>
        <time>2025-11-11T15:38:01.000Z</time>
      </trkpt>
      <trkpt lat="47.29373" lon="5.00122">
        <ele>310.3</ele>
        <time>2025-11-11T15:38:06.000Z</time>
      </trkpt>
      <trkpt lat="47.29379" lon="5.00125">
        <ele>311.1</ele>
        <time>2025-11-11T15:38:11.000Z</time>
      </trkpt>
      <trkpt lat="47.29385" lon="5.00126">
        <ele>310.3</ele>
        <time>2025-11-11T15:38:16.000Z</time>
      </trkpt>
      <trkpt lat="47.29391" lon="5.00127">
        <ele>308.4</ele>
        <time>2025-11-11T15:38:21.000Z</time>
      </trkpt>
      <trkpt lat="47.29397" lon="5.0013">
        <ele>307.1</ele>
        <time>2025-11-11T15:38:26.000Z</time>
      </trkpt>
      <trkpt lat="47.29402" lon="5.00135">
        <ele>306.8</ele>
        <time>2025-11-11T15:38:31.000Z</time>
      </trkpt>
      <trkpt lat="47.29407" lon="5.00139">
        <ele>309</ele>
        <time>2025-11-11T15:38:36.000Z</time>
      </trkpt>
      <trkpt lat="47.29412" lon="5.00142">
        <ele>308.7</ele>
        <time>2025-11-11T15:38:41.000Z</time>
      </trkpt>
      <trkpt lat="47.29418" lon="5.00147">
        <ele>308.9</ele>
        <time>2025-11-11T15:38:46.000Z</time>
      </trkpt>
      <trkpt lat="47.29424" lon="5.00149">
        <ele>310.3</ele>
        <time>2025-11-11T15:38:51.000Z</time>
      </trkpt>
      <trkpt lat="47.29431" lon="5.0015">
        <ele>309.9</ele>
        <time>2025-11-11T15:38:56.000Z</time>
      </trkpt>
      <trkpt lat="47.29436" lon="5.00152">
        <ele>310</ele>
        <time>2025-11-11T15:39:01.000Z</time>
      </trkpt>
      <trkpt lat="47.29442" lon="5.00153">
        <ele>308</ele>
        <time>2025-11-11T15:39:06.000Z</time>
      </trkpt>
      <trkpt lat="47.29448" lon="5.00155">
        <ele>306</ele>
        <time>2025-11-11T15:39:11.000Z</time>
      </trkpt>
      <trkpt lat="47.29454" lon="5.00156">
        <ele>305.9</ele>
        <time>2025-11-11T15:39:16.000Z</time>
      </trkpt>
      <trkpt lat="47.29458" lon="5.00157">
        <ele>305.5</ele>
        <time>2025-11-11T15:39:21.000Z</time>
      </trkpt>
      <trkpt lat="47.29463" lon="5.00159">
        <ele>304.7</ele>
        <time>2025-11-11T15:39:26.000Z</time>
      </trkpt>
      <trkpt lat="47.29469" lon="5.00162">
        <ele>306.8</ele>
        <time>2025-11-11T15:39:31.000Z</time>
      </trkpt>
      <trkpt lat="47.29474" lon="5.00168">
        <ele>307.2</ele>
        <time>2025-11-11T15:39:36.000Z</time>
      </trkpt>
      <trkpt lat="47.2948" lon="5.00172">
        <ele>306.9</ele>
        <time>2025-11-11T15:39:41.000Z</time>
      </trkpt>
      <trkpt lat="47.29486" lon="5.00177">
        <ele>307.8</ele>
        <time>2025-11-11T15:39:46.000Z</time>
      </trkpt>
      <trkpt lat="47.29492" lon="5.00178">
        <ele>307.8</ele>
        <time>2025-11-11T15:39:51.000Z</time>
      </trkpt>
      <trkpt lat="47.29497" lon="5.00179">
        <ele>307.7</ele>
        <time>2025-11-11T15:39:56.000Z</time>
      </trkpt>
      <trkpt lat="47.29503" lon="5.0018">
        <ele>305.7</ele>
        <time>2025-11-11T15:40:01.000Z</time>
      </trkpt>
      <trkpt lat="47.29508" lon="5.0018">
        <ele>306.3</ele>
        <time>2025-11-11T15:40:06.000Z</time>
      </trkpt>
      <trkpt lat="47.29514" lon="5.00184">
        <ele>307.1</ele>
        <time>2025-11-11T15:40:11.000Z</time>
      </trkpt>
      <trkpt lat="47.29519" lon="5.00189">
        <ele>307.6</ele>
        <time>2025-11-11T15:40:16.000Z</time>
      </trkpt>
      <trkpt lat="47.29524" lon="5.00193">
        <ele>308.1</ele>
        <time>2025-11-11T15:40:21.000Z</time>
      </trkpt>
      <trkpt lat="47.29529" lon="5.00195">
        <ele>307.5</ele>
        <time>2025-11-11T15:40:26.000Z</time>
      </trkpt>
      <trkpt lat="47.29535" lon="5.00195">
        <ele>308.5</ele>
        <time>2025-11-11T15:40:31.000Z</time>
      </trkpt>
      <trkpt lat="47.29541" lon="5.00195">
        <ele>309</ele>
        <time>2025-11-11T15:40:36.000Z</time>
      </trkpt>
      <trkpt lat="47.29546" lon="5.00193">
        <ele>308.7</ele>
        <time>2025-11-11T15:40:41.000Z</time>
      </trkpt>
      <trkpt lat="47.29551" lon="5.00187">
        <ele>308.9</ele>
        <time>2025-11-11T15:40:46.000Z</time>
      </trkpt>
      <trkpt lat="47.29556" lon="5.00182">
        <ele>309.6</ele>
        <time>2025-11-11T15:40:51.000Z</time>
      </trkpt>
      <trkpt lat="47.29561" lon="5.00176">
        <ele>309.4</ele>
        <time>2025-11-11T15:40:56.000Z</time>
      </trkpt>
      <trkpt lat="47.29565" lon="5.00169">
        <ele>309.1</ele>
        <time>2025-11-11T15:41:01.000Z</time>
      </trkpt>
      <trkpt lat="47.29568" lon="5.00163">
        <ele>308</ele>
        <time>2025-11-11T15:41:06.000Z</time>
      </trkpt>
      <trkpt lat="47.29572" lon="5.00157">
        <ele>307.9</ele>
        <time>2025-11-11T15:41:11.000Z</time>
      </trkpt>
      <trkpt lat="47.29575" lon="5.00152">
        <ele>307</ele>
        <time>2025-11-11T15:41:16.000Z</time>
      </trkpt>
      <trkpt lat="47.29578" lon="5.00146">
        <ele>306.7</ele>
        <time>2025-11-11T15:41:21.000Z</time>
      </trkpt>
      <trkpt lat="47.29581" lon="5.00139">
        <ele>307.7</ele>
        <time>2025-11-11T15:41:26.000Z</time>
      </trkpt>
      <trkpt lat="47.29585" lon="5.00134">
        <ele>308.2</ele>
        <time>2025-11-11T15:41:31.000Z</time>
      </trkpt>
      <trkpt lat="47.29589" lon="5.00128">
        <ele>309.8</ele>
        <time>2025-11-11T15:41:36.000Z</time>
      </trkpt>
      <trkpt lat="47.29594" lon="5.00122">
        <ele>312.7</ele>
        <time>2025-11-11T15:41:41.000Z</time>
      </trkpt>
      <trkpt lat="47.29596" lon="5.00117">
        <ele>312</ele>
        <time>2025-11-11T15:41:46.000Z</time>
      </trkpt>
      <trkpt lat="47.29598" lon="5.00108">
        <ele>312.8</ele>
        <time>2025-11-11T15:41:51.000Z</time>
      </trkpt>
      <trkpt lat="47.29599" lon="5.00101">
        <ele>313.4</ele>
        <time>2025-11-11T15:41:56.000Z</time>
      </trkpt>
      <trkpt lat="47.29601" lon="5.00094">
        <ele>312.5</ele>
        <time>2025-11-11T15:42:01.000Z</time>
      </trkpt>
      <trkpt lat="47.29604" lon="5.00087">
        <ele>313.6</ele>
        <time>2025-11-11T15:42:06.000Z</time>
      </trkpt>
      <trkpt lat="47.29605" lon="5.0008">
        <ele>312.3</ele>
        <time>2025-11-11T15:42:11.000Z</time>
      </trkpt>
      <trkpt lat="47.29606" lon="5.00073">
        <ele>312.8</ele>
        <time>2025-11-11T15:42:16.000Z</time>
      </trkpt>
      <trkpt lat="47.29607" lon="5.00067">
        <ele>312.7</ele>
        <time>2025-11-11T15:42:21.000Z</time>
      </trkpt>
      <trkpt lat="47.29609" lon="5.0006">
        <ele>311.7</ele>
        <time>2025-11-11T15:42:26.000Z</time>
      </trkpt>
      <trkpt lat="47.29613" lon="5.00054">
        <ele>313.6</ele>
        <time>2025-11-11T15:42:31.000Z</time>
      </trkpt>
      <trkpt lat="47.29619" lon="5.00052">
        <ele>313.1</ele>
        <time>2025-11-11T15:42:36.000Z</time>
      </trkpt>
      <trkpt lat="47.29624" lon="5.00053">
        <ele>313.1</ele>
        <time>2025-11-11T15:42:41.000Z</time>
      </trkpt>
      <trkpt lat="47.2963" lon="5.00054">
        <ele>313.7</ele>
        <time>2025-11-11T15:42:46.000Z</time>
      </trkpt>
      <trkpt lat="47.29635" lon="5.00058">
        <ele>313</ele>
        <time>2025-11-11T15:42:51.000Z</time>
      </trkpt>
      <trkpt lat="47.2964" lon="5.00058">
        <ele>313.5</ele>
        <time>2025-11-11T15:42:56.000Z</time>
      </trkpt>
      <trkpt lat="47.29646" lon="5.0006">
        <ele>313.3</ele>
        <time>2025-11-11T15:43:01.000Z</time>
      </trkpt>
      <trkpt lat="47.29651" lon="5.00062">
        <ele>312.7</ele>
        <time>2025-11-11T15:43:06.000Z</time>
      </trkpt>
      <trkpt lat="47.29656" lon="5.00063">
        <ele>313.4</ele>
        <time>2025-11-11T15:43:11.000Z</time>
      </trkpt>
      <trkpt lat="47.29662" lon="5.00065">
        <ele>312.6</ele>
        <time>2025-11-11T15:43:16.000Z</time>
      </trkpt>
      <trkpt lat="47.29666" lon="5.00065">
        <ele>313.7</ele>
        <time>2025-11-11T15:43:21.000Z</time>
      </trkpt>
      <trkpt lat="47.29672" lon="5.00069">
        <ele>313.8</ele>
        <time>2025-11-11T15:43:26.000Z</time>
      </trkpt>
      <trkpt lat="47.29677" lon="5.00069">
        <ele>313.1</ele>
        <time>2025-11-11T15:43:31.000Z</time>
      </trkpt>
      <trkpt lat="47.29683" lon="5.00071">
        <ele>314.6</ele>
        <time>2025-11-11T15:43:36.000Z</time>
      </trkpt>
      <trkpt lat="47.2969" lon="5.00073">
        <ele>314.7</ele>
        <time>2025-11-11T15:43:41.000Z</time>
      </trkpt>
      <trkpt lat="47.29695" lon="5.00076">
        <ele>314.2</ele>
        <time>2025-11-11T15:43:46.000Z</time>
      </trkpt>
      <trkpt lat="47.297" lon="5.00076">
        <ele>313</ele>
        <time>2025-11-11T15:43:51.000Z</time>
      </trkpt>
      <trkpt lat="47.29706" lon="5.00075">
        <ele>311.4</ele>
        <time>2025-11-11T15:43:56.000Z</time>
      </trkpt>
      <trkpt lat="47.29712" lon="5.00076">
        <ele>313.6</ele>
        <time>2025-11-11T15:44:01.000Z</time>
      </trkpt>
      <trkpt lat="47.29718" lon="5.0008">
        <ele>317</ele>
        <time>2025-11-11T15:44:06.000Z</time>
      </trkpt>
      <trkpt lat="47.29725" lon="5.00082">
        <ele>316.7</ele>
        <time>2025-11-11T15:44:11.000Z</time>
      </trkpt>
      <trkpt lat="47.29729" lon="5.00082">
        <ele>316.1</ele>
        <time>2025-11-11T15:44:16.000Z</time>
      </trkpt>
      <trkpt lat="47.29735" lon="5.00082">
        <ele>316.9</ele>
        <time>2025-11-11T15:44:21.000Z</time>
      </trkpt>
      <trkpt lat="47.2974" lon="5.00082">
        <ele>317.6</ele>
        <time>2025-11-11T15:44:26.000Z</time>
      </trkpt>
      <trkpt lat="47.29745" lon="5.00085">
        <ele>318</ele>
        <time>2025-11-11T15:44:31.000Z</time>
      </trkpt>
      <trkpt lat="47.29751" lon="5.00088">
        <ele>318</ele>
        <time>2025-11-11T15:44:36.000Z</time>
      </trkpt>
      <trkpt lat="47.29757" lon="5.0009">
        <ele>317.2</ele>
        <time>2025-11-11T15:44:41.000Z</time>
      </trkpt>
      <trkpt lat="47.29761" lon="5.00093">
        <ele>316.9</ele>
        <time>2025-11-11T15:44:46.000Z</time>
      </trkpt>
      <trkpt lat="47.29766" lon="5.00094">
        <ele>317.3</ele>
        <time>2025-11-11T15:44:51.000Z</time>
      </trkpt>
      <trkpt lat="47.29771" lon="5.00096">
        <ele>317.3</ele>
        <time>2025-11-11T15:44:56.000Z</time>
      </trkpt>
      <trkpt lat="47.29777" lon="5.00099">
        <ele>315.2</ele>
        <time>2025-11-11T15:45:01.000Z</time>
      </trkpt>
      <trkpt lat="47.29781" lon="5.00101">
        <ele>316.5</ele>
        <time>2025-11-11T15:45:06.000Z</time>
      </trkpt>
      <trkpt lat="47.29786" lon="5.00103">
        <ele>316.2</ele>
        <time>2025-11-11T15:45:11.000Z</time>
      </trkpt>
      <trkpt lat="47.29792" lon="5.00105">
        <ele>314.6</ele>
        <time>2025-11-11T15:45:16.000Z</time>
      </trkpt>
      <trkpt lat="47.29798" lon="5.00106">
        <ele>315.6</ele>
        <time>2025-11-11T15:45:21.000Z</time>
      </trkpt>
      <trkpt lat="47.29803" lon="5.00106">
        <ele>316.8</ele>
        <time>2025-11-11T15:45:26.000Z</time>
      </trkpt>
      <trkpt lat="47.29808" lon="5.00107">
        <ele>319.1</ele>
        <time>2025-11-11T15:45:31.000Z</time>
      </trkpt>
      <trkpt lat="47.29813" lon="5.00109">
        <ele>320.4</ele>
        <time>2025-11-11T15:45:36.000Z</time>
      </trkpt>
      <trkpt lat="47.29818" lon="5.00108">
        <ele>317.9</ele>
        <time>2025-11-11T15:45:41.000Z</time>
      </trkpt>
      <trkpt lat="47.29822" lon="5.00105">
        <ele>317.1</ele>
        <time>2025-11-11T15:45:46.000Z</time>
      </trkpt>
      <trkpt lat="47.29827" lon="5.00106">
        <ele>316.3</ele>
        <time>2025-11-11T15:45:51.000Z</time>
      </trkpt>
      <trkpt lat="47.29833" lon="5.00109">
        <ele>316.9</ele>
        <time>2025-11-11T15:45:56.000Z</time>
      </trkpt>
      <trkpt lat="47.29838" lon="5.00111">
        <ele>318.8</ele>
        <time>2025-11-11T15:46:01.000Z</time>
      </trkpt>
      <trkpt lat="47.29842" lon="5.00114">
        <ele>317.8</ele>
        <time>2025-11-11T15:46:06.000Z</time>
      </trkpt>
      <trkpt lat="47.29847" lon="5.00116">
        <ele>318</ele>
        <time>2025-11-11T15:46:11.000Z</time>
      </trkpt>
      <trkpt lat="47.29852" lon="5.00119">
        <ele>319.7</ele>
        <time>2025-11-11T15:46:16.000Z</time>
      </trkpt>
      <trkpt lat="47.29857" lon="5.00123">
        <ele>320.9</ele>
        <time>2025-11-11T15:46:21.000Z</time>
      </trkpt>
      <trkpt lat="47.29863" lon="5.00127">
        <ele>323</ele>
        <time>2025-11-11T15:46:26.000Z</time>
      </trkpt>
      <trkpt lat="47.2987" lon="5.0013">
        <ele>323.5</ele>
        <time>2025-11-11T15:46:31.000Z</time>
      </trkpt>
      <trkpt lat="47.29876" lon="5.00132">
        <ele>324.8</ele>
        <time>2025-11-11T15:46:36.000Z</time>
      </trkpt>
      <trkpt lat="47.29881" lon="5.00132">
        <ele>326.4</ele>
        <time>2025-11-11T15:46:41.000Z</time>
      </trkpt>
      <trkpt lat="47.29885" lon="5.00133">
        <ele>325.9</ele>
        <time>2025-11-11T15:46:46.000Z</time>
      </trkpt>
      <trkpt lat="47.29888" lon="5.00134">
        <ele>326.9</ele>
        <time>2025-11-11T15:46:51.000Z</time>
      </trkpt>
      <trkpt lat="47.29892" lon="5.00129">
        <ele>327.2</ele>
        <time>2025-11-11T15:46:56.000Z</time>
      </trkpt>
      <trkpt lat="47.29897" lon="5.00127">
        <ele>327.1</ele>
        <time>2025-11-11T15:47:01.000Z</time>
      </trkpt>
      <trkpt lat="47.29902" lon="5.00126">
        <ele>327.9</ele>
        <time>2025-11-11T15:47:06.000Z</time>
      </trkpt>
      <trkpt lat="47.29907" lon="5.00124">
        <ele>325.4</ele>
        <time>2025-11-11T15:47:11.000Z</time>
      </trkpt>
      <trkpt lat="47.29913" lon="5.00124">
        <ele>326.3</ele>
        <time>2025-11-11T15:47:16.000Z</time>
      </trkpt>
      <trkpt lat="47.29919" lon="5.00124">
        <ele>327.1</ele>
        <time>2025-11-11T15:47:21.000Z</time>
      </trkpt>
      <trkpt lat="47.29924" lon="5.00123">
        <ele>324.7</ele>
        <time>2025-11-11T15:47:26.000Z</time>
      </trkpt>
      <trkpt lat="47.29929" lon="5.00122">
        <ele>324</ele>
        <time>2025-11-11T15:47:31.000Z</time>
      </trkpt>
      <trkpt lat="47.29934" lon="5.00121">
        <ele>323.9</ele>
        <time>2025-11-11T15:47:36.000Z</time>
      </trkpt>
      <trkpt lat="47.2994" lon="5.00122">
        <ele>326.3</ele>
        <time>2025-11-11T15:47:41.000Z</time>
      </trkpt>
      <trkpt lat="47.29947" lon="5.00123">
        <ele>327</ele>
        <time>2025-11-11T15:47:46.000Z</time>
      </trkpt>
      <trkpt lat="47.29954" lon="5.00122">
        <ele>328.4</ele>
        <time>2025-11-11T15:47:51.000Z</time>
      </trkpt>
      <trkpt lat="47.2996" lon="5.00122">
        <ele>329.4</ele>
        <time>2025-11-11T15:47:56.000Z</time>
      </trkpt>
      <trkpt lat="47.29967" lon="5.00122">
        <ele>330.3</ele>
        <time>2025-11-11T15:48:01.000Z</time>
      </trkpt>
      <trkpt lat="47.29973" lon="5.00123">
        <ele>330.8</ele>
        <time>2025-11-11T15:48:06.000Z</time>
      </trkpt>
      <trkpt lat="47.29979" lon="5.00117">
        <ele>326.1</ele>
        <time>2025-11-11T15:48:11.000Z</time>
      </trkpt>
      <trkpt lat="47.29985" lon="5.00115">
        <ele>325.9</ele>
        <time>2025-11-11T15:48:16.000Z</time>
      </trkpt>
      <trkpt lat="47.29991" lon="5.00117">
        <ele>326.6</ele>
        <time>2025-11-11T15:48:21.000Z</time>
      </trkpt>
      <trkpt lat="47.29996" lon="5.00119">
        <ele>327</ele>
        <time>2025-11-11T15:48:26.000Z</time>
      </trkpt>
      <trkpt lat="47.30001" lon="5.0012">
        <ele>329.1</ele>
        <time>2025-11-11T15:48:31.000Z</time>
      </trkpt>
      <trkpt lat="47.30008" lon="5.00122">
        <ele>329.7</ele>
        <time>2025-11-11T15:48:36.000Z</time>
      </trkpt>
      <trkpt lat="47.30012" lon="5.00126">
        <ele>329.6</ele>
        <time>2025-11-11T15:48:41.000Z</time>
      </trkpt>
      <trkpt lat="47.30017" lon="5.00132">
        <ele>328.4</ele>
        <time>2025-11-11T15:48:46.000Z</time>
      </trkpt>
      <trkpt lat="47.30016" lon="5.00138">
        <ele>326</ele>
        <time>2025-11-11T15:48:51.000Z</time>
      </trkpt>
      <trkpt lat="47.30015" lon="5.00147">
        <ele>326.1</ele>
        <time>2025-11-11T15:48:56.000Z</time>
      </trkpt>
      <trkpt lat="47.30013" lon="5.00154">
        <ele>324.3</ele>
        <time>2025-11-11T15:49:01.000Z</time>
      </trkpt>
      <trkpt lat="47.30011" lon="5.0016">
        <ele>320.9</ele>
        <time>2025-11-11T15:49:06.000Z</time>
      </trkpt>
      <trkpt lat="47.30012" lon="5.00165">
        <ele>320.4</ele>
        <time>2025-11-11T15:49:11.000Z</time>
      </trkpt>
      <trkpt lat="47.30012" lon="5.00174">
        <ele>320.5</ele>
        <time>2025-11-11T15:49:16.000Z</time>
      </trkpt>
      <trkpt lat="47.30014" lon="5.00182">
        <ele>319.1</ele>
        <time>2025-11-11T15:49:21.000Z</time>
      </trkpt>
      <trkpt lat="47.30017" lon="5.00188">
        <ele>318.7</ele>
        <time>2025-11-11T15:49:26.000Z</time>
      </trkpt>
      <trkpt lat="47.30021" lon="5.00194">
        <ele>322</ele>
        <time>2025-11-11T15:49:31.000Z</time>
      </trkpt>
      <trkpt lat="47.30025" lon="5.00201">
        <ele>322.1</ele>
        <time>2025-11-11T15:49:36.000Z</time>
      </trkpt>
      <trkpt lat="47.30029" lon="5.00206">
        <ele>320.4</ele>
        <time>2025-11-11T15:49:41.000Z</time>
      </trkpt>
      <trkpt lat="47.30034" lon="5.00213">
        <ele>322.6</ele>
        <time>2025-11-11T15:49:46.000Z</time>
      </trkpt>
      <trkpt lat="47.30038" lon="5.00219">
        <ele>322.2</ele>
        <time>2025-11-11T15:49:51.000Z</time>
      </trkpt>
      <trkpt lat="47.30042" lon="5.00225">
        <ele>322.8</ele>
        <time>2025-11-11T15:49:56.000Z</time>
      </trkpt>
      <trkpt lat="47.30046" lon="5.00231">
        <ele>323.5</ele>
        <time>2025-11-11T15:50:01.000Z</time>
      </trkpt>
      <trkpt lat="47.30051" lon="5.00233">
        <ele>323.3</ele>
        <time>2025-11-11T15:50:06.000Z</time>
      </trkpt>
      <trkpt lat="47.30051" lon="5.00229">
        <ele>322.6</ele>
        <time>2025-11-11T15:50:11.000Z</time>
      </trkpt>
      <trkpt lat="47.30052" lon="5.0023">
        <ele>323.3</ele>
        <time>2025-11-11T15:50:16.000Z</time>
      </trkpt>
      <trkpt lat="47.30058" lon="5.00233">
        <ele>323.4</ele>
        <time>2025-11-11T15:50:21.000Z</time>
      </trkpt>
      <trkpt lat="47.30062" lon="5.00236">
        <ele>323.9</ele>
        <time>2025-11-11T15:50:26.000Z</time>
      </trkpt>
      <trkpt lat="47.30067" lon="5.00239">
        <ele>323.5</ele>
        <time>2025-11-11T15:50:31.000Z</time>
      </trkpt>
      <trkpt lat="47.30071" lon="5.00243">
        <ele>325.3</ele>
        <time>2025-11-11T15:50:36.000Z</time>
      </trkpt>
      <trkpt lat="47.30076" lon="5.00249">
        <ele>324.1</ele>
        <time>2025-11-11T15:50:41.000Z</time>
      </trkpt>
      <trkpt lat="47.3008" lon="5.00253">
        <ele>323.7</ele>
        <time>2025-11-11T15:50:46.000Z</time>
      </trkpt>
      <trkpt lat="47.30085" lon="5.00256">
        <ele>321.7</ele>
        <time>2025-11-11T15:50:51.000Z</time>
      </trkpt>
      <trkpt lat="47.30088" lon="5.00261">
        <ele>321.9</ele>
        <time>2025-11-11T15:50:56.000Z</time>
      </trkpt>
      <trkpt lat="47.30096" lon="5.00262">
        <ele>321.2</ele>
        <time>2025-11-11T15:51:01.000Z</time>
      </trkpt>
      <trkpt lat="47.30101" lon="5.00266">
        <ele>320.4</ele>
        <time>2025-11-11T15:51:06.000Z</time>
      </trkpt>
      <trkpt lat="47.30108" lon="5.00268">
        <ele>320</ele>
        <time>2025-11-11T15:51:11.000Z</time>
      </trkpt>
      <trkpt lat="47.30112" lon="5.0027">
        <ele>319.3</ele>
        <time>2025-11-11T15:51:16.000Z</time>
      </trkpt>
      <trkpt lat="47.30117" lon="5.00271">
        <ele>321.1</ele>
        <time>2025-11-11T15:51:21.000Z</time>
      </trkpt>
      <trkpt lat="47.30121" lon="5.00275">
        <ele>320.5</ele>
        <time>2025-11-11T15:51:26.000Z</time>
      </trkpt>
      <trkpt lat="47.30125" lon="5.00278">
        <ele>320.9</ele>
        <time>2025-11-11T15:51:31.000Z</time>
      </trkpt>
      <trkpt lat="47.30132" lon="5.00282">
        <ele>320.8</ele>
        <time>2025-11-11T15:51:36.000Z</time>
      </trkpt>
      <trkpt lat="47.30137" lon="5.00284">
        <ele>320.9</ele>
        <time>2025-11-11T15:51:41.000Z</time>
      </trkpt>
      <trkpt lat="47.30143" lon="5.00288">
        <ele>323.3</ele>
        <time>2025-11-11T15:51:46.000Z</time>
      </trkpt>
      <trkpt lat="47.30147" lon="5.00292">
        <ele>323.4</ele>
        <time>2025-11-11T15:51:51.000Z</time>
      </trkpt>
      <trkpt lat="47.30153" lon="5.003">
        <ele>324.3</ele>
        <time>2025-11-11T15:51:56.000Z</time>
      </trkpt>
      <trkpt lat="47.30156" lon="5.00303">
        <ele>322.4</ele>
        <time>2025-11-11T15:52:01.000Z</time>
      </trkpt>
      <trkpt lat="47.3016" lon="5.00307">
        <ele>323.2</ele>
        <time>2025-11-11T15:52:06.000Z</time>
      </trkpt>
      <trkpt lat="47.30164" lon="5.00314">
        <ele>322.5</ele>
        <time>2025-11-11T15:52:11.000Z</time>
      </trkpt>
      <trkpt lat="47.30167" lon="5.00319">
        <ele>321.6</ele>
        <time>2025-11-11T15:52:16.000Z</time>
      </trkpt>
      <trkpt lat="47.30172" lon="5.00326">
        <ele>322.1</ele>
        <time>2025-11-11T15:52:21.000Z</time>
      </trkpt>
      <trkpt lat="47.30176" lon="5.00327">
        <ele>320.3</ele>
        <time>2025-11-11T15:52:26.000Z</time>
      </trkpt>
      <trkpt lat="47.30182" lon="5.00328">
        <ele>319.1</ele>
        <time>2025-11-11T15:52:31.000Z</time>
      </trkpt>
      <trkpt lat="47.30188" lon="5.00331">
        <ele>319.8</ele>
        <time>2025-11-11T15:52:36.000Z</time>
      </trkpt>
      <trkpt lat="47.30192" lon="5.00333">
        <ele>320.6</ele>
        <time>2025-11-11T15:52:41.000Z</time>
      </trkpt>
      <trkpt lat="47.30198" lon="5.00337">
        <ele>318.7</ele>
        <time>2025-11-11T15:52:46.000Z</time>
      </trkpt>
      <trkpt lat="47.30203" lon="5.00339">
        <ele>318</ele>
        <time>2025-11-11T15:52:51.000Z</time>
      </trkpt>
      <trkpt lat="47.30206" lon="5.00342">
        <ele>316.6</ele>
        <time>2025-11-11T15:52:56.000Z</time>
      </trkpt>
      <trkpt lat="47.3021" lon="5.00343">
        <ele>316.9</ele>
        <time>2025-11-11T15:53:01.000Z</time>
      </trkpt>
      <trkpt lat="47.30216" lon="5.00345">
        <ele>316.9</ele>
        <time>2025-11-11T15:53:06.000Z</time>
      </trkpt>
      <trkpt lat="47.30219" lon="5.00345">
        <ele>314.6</ele>
        <time>2025-11-11T15:53:11.000Z</time>
      </trkpt>
      <trkpt lat="47.30223" lon="5.00347">
        <ele>314.7</ele>
        <time>2025-11-11T15:53:16.000Z</time>
      </trkpt>
      <trkpt lat="47.30229" lon="5.0035">
        <ele>314.1</ele>
        <time>2025-11-11T15:53:21.000Z</time>
      </trkpt>
      <trkpt lat="47.30235" lon="5.00354">
        <ele>314.6</ele>
        <time>2025-11-11T15:53:26.000Z</time>
      </trkpt>
      <trkpt lat="47.30241" lon="5.00357">
        <ele>316.2</ele>
        <time>2025-11-11T15:53:31.000Z</time>
      </trkpt>
      <trkpt lat="47.30246" lon="5.0036">
        <ele>319.5</ele>
        <time>2025-11-11T15:53:36.000Z</time>
      </trkpt>
      <trkpt lat="47.30253" lon="5.00365">
        <ele>321</ele>
        <time>2025-11-11T15:53:41.000Z</time>
      </trkpt>
      <trkpt lat="47.30259" lon="5.00371">
        <ele>322.6</ele>
        <time>2025-11-11T15:53:46.000Z</time>
      </trkpt>
      <trkpt lat="47.30266" lon="5.00377">
        <ele>323</ele>
        <time>2025-11-11T15:53:51.000Z</time>
      </trkpt>
      <trkpt lat="47.30273" lon="5.00382">
        <ele>324.3</ele>
        <time>2025-11-11T15:53:56.000Z</time>
      </trkpt>
      <trkpt lat="47.30278" lon="5.00383">
        <ele>324.2</ele>
        <time>2025-11-11T15:54:01.000Z</time>
      </trkpt>
      <trkpt lat="47.30282" lon="5.00388">
        <ele>326</ele>
        <time>2025-11-11T15:54:06.000Z</time>
      </trkpt>
      <trkpt lat="47.30287" lon="5.00389">
        <ele>323.7</ele>
        <time>2025-11-11T15:54:11.000Z</time>
      </trkpt>
      <trkpt lat="47.30291" lon="5.00391">
        <ele>322</ele>
        <time>2025-11-11T15:54:16.000Z</time>
      </trkpt>
      <trkpt lat="47.30297" lon="5.00392">
        <ele>323.7</ele>
        <time>2025-11-11T15:54:21.000Z</time>
      </trkpt>
      <trkpt lat="47.30303" lon="5.00396">
        <ele>323.6</ele>
        <time>2025-11-11T15:54:26.000Z</time>
      </trkpt>
      <trkpt lat="47.30308" lon="5.00399">
        <ele>323.7</ele>
        <time>2025-11-11T15:54:31.000Z</time>
      </trkpt>
      <trkpt lat="47.30313" lon="5.004">
        <ele>322.8</ele>
        <time>2025-11-11T15:54:36.000Z</time>
      </trkpt>
      <trkpt lat="47.30315" lon="5.00394">
        <ele>322.7</ele>
        <time>2025-11-11T15:54:41.000Z</time>
      </trkpt>
      <trkpt lat="47.30316" lon="5.00386">
        <ele>321.8</ele>
        <time>2025-11-11T15:54:46.000Z</time>
      </trkpt>
      <trkpt lat="47.30315" lon="5.00379">
        <ele>319.7</ele>
        <time>2025-11-11T15:54:51.000Z</time>
      </trkpt>
      <trkpt lat="47.30314" lon="5.00373">
        <ele>319.5</ele>
        <time>2025-11-11T15:54:56.000Z</time>
      </trkpt>
      <trkpt lat="47.30313" lon="5.00365">
        <ele>318.8</ele>
        <time>2025-11-11T15:55:01.000Z</time>
      </trkpt>
      <trkpt lat="47.3031" lon="5.00359">
        <ele>321.3</ele>
        <time>2025-11-11T15:55:06.000Z</time>
      </trkpt>
      <trkpt lat="47.30308" lon="5.00357">
        <ele>320.9</ele>
        <time>2025-11-11T15:55:11.000Z</time>
      </trkpt>
      <trkpt lat="47.30304" lon="5.00354">
        <ele>319.1</ele>
        <time>2025-11-11T15:55:16.000Z</time>
      </trkpt>
      <trkpt lat="47.30301" lon="5.00351">
        <ele>318.5</ele>
        <time>2025-11-11T15:55:21.000Z</time>
      </trkpt>
      <trkpt lat="47.30298" lon="5.00346">
        <ele>317.4</ele>
        <time>2025-11-11T15:55:26.000Z</time>
      </trkpt>
      <trkpt lat="47.30297" lon="5.0034">
        <ele>318.7</ele>
        <time>2025-11-11T15:55:31.000Z</time>
      </trkpt>
      <trkpt lat="47.30302" lon="5.00339">
        <ele>320.4</ele>
        <time>2025-11-11T15:55:36.000Z</time>
      </trkpt>
      <trkpt lat="47.30304" lon="5.00337">
        <ele>323.5</ele>
        <time>2025-11-11T15:55:41.000Z</time>
      </trkpt>
      <trkpt lat="47.30308" lon="5.00335">
        <ele>323.1</ele>
        <time>2025-11-11T15:55:46.000Z</time>
      </trkpt>
      <trkpt lat="47.30311" lon="5.00331">
        <ele>324.9</ele>
        <time>2025-11-11T15:55:51.000Z</time>
      </trkpt>
      <trkpt lat="47.30313" lon="5.00328">
        <ele>326.6</ele>
        <time>2025-11-11T15:55:56.000Z</time>
      </trkpt>
      <trkpt lat="47.30315" lon="5.00325">
        <ele>327</ele>
        <time>2025-11-11T15:56:01.000Z</time>
      </trkpt>
      <trkpt lat="47.30316" lon="5.00321">
        <ele>326.1</ele>
        <time>2025-11-11T15:56:06.000Z</time>
      </trkpt>
      <trkpt lat="47.30317" lon="5.00316">
        <ele>326.3</ele>
        <time>2025-11-11T15:56:11.000Z</time>
      </trkpt>
      <trkpt lat="47.30321" lon="5.00311">
        <ele>325.3</ele>
        <time>2025-11-11T15:56:16.000Z</time>
      </trkpt>
      <trkpt lat="47.30325" lon="5.00306">
        <ele>329.2</ele>
        <time>2025-11-11T15:56:21.000Z</time>
      </trkpt>
      <trkpt lat="47.30329" lon="5.00301">
        <ele>329</ele>
        <time>2025-11-11T15:56:26.000Z</time>
      </trkpt>
      <trkpt lat="47.30332" lon="5.00296">
        <ele>329.2</ele>
        <time>2025-11-11T15:56:31.000Z</time>
      </trkpt>
      <trkpt lat="47.30333" lon="5.00291">
        <ele>330.8</ele>
        <time>2025-11-11T15:56:36.000Z</time>
      </trkpt>
      <trkpt lat="47.30335" lon="5.00286">
        <ele>330.2</ele>
        <time>2025-11-11T15:56:41.000Z</time>
      </trkpt>
      <trkpt lat="47.3034" lon="5.00283">
        <ele>329.9</ele>
        <time>2025-11-11T15:56:47.000Z</time>
      </trkpt>
      <trkpt lat="47.30341" lon="5.00278">
        <ele>329.9</ele>
        <time>2025-11-11T15:56:52.000Z</time>
      </trkpt>
      <trkpt lat="47.30344" lon="5.00273">
        <ele>332.1</ele>
        <time>2025-11-11T15:56:57.000Z</time>
      </trkpt>
      <trkpt lat="47.30348" lon="5.00269">
        <ele>334.7</ele>
        <time>2025-11-11T15:57:02.000Z</time>
      </trkpt>
      <trkpt lat="47.30351" lon="5.0027">
        <ele>337</ele>
        <time>2025-11-11T15:57:07.000Z</time>
      </trkpt>
      <trkpt lat="47.30357" lon="5.00267">
        <ele>337.2</ele>
        <time>2025-11-11T15:57:12.000Z</time>
      </trkpt>
      <trkpt lat="47.30363" lon="5.00263">
        <ele>338.8</ele>
        <time>2025-11-11T15:57:17.000Z</time>
      </trkpt>
      <trkpt lat="47.30365" lon="5.00261">
        <ele>340.5</ele>
        <time>2025-11-11T15:57:22.000Z</time>
      </trkpt>
      <trkpt lat="47.30368" lon="5.00258">
        <ele>339.7</ele>
        <time>2025-11-11T15:57:27.000Z</time>
      </trkpt>
      <trkpt lat="47.30373" lon="5.00253">
        <ele>339.8</ele>
        <time>2025-11-11T15:57:32.000Z</time>
      </trkpt>
      <trkpt lat="47.30378" lon="5.00248">
        <ele>342.1</ele>
        <time>2025-11-11T15:57:37.000Z</time>
      </trkpt>
      <trkpt lat="47.30383" lon="5.00244">
        <ele>342.3</ele>
        <time>2025-11-11T15:57:42.000Z</time>
      </trkpt>
      <trkpt lat="47.30388" lon="5.00244">
        <ele>343.6</ele>
        <time>2025-11-11T15:57:47.000Z</time>
      </trkpt>
      <trkpt lat="47.30393" lon="5.00246">
        <ele>344</ele>
        <time>2025-11-11T15:57:52.000Z</time>
      </trkpt>
      <trkpt lat="47.30398" lon="5.00245">
        <ele>343.3</ele>
        <time>2025-11-11T15:57:57.000Z</time>
      </trkpt>
      <trkpt lat="47.30402" lon="5.00242">
        <ele>341.8</ele>
        <time>2025-11-11T15:58:02.000Z</time>
      </trkpt>
      <trkpt lat="47.30408" lon="5.0024">
        <ele>342.4</ele>
        <time>2025-11-11T15:58:07.000Z</time>
      </trkpt>
      <trkpt lat="47.30413" lon="5.00239">
        <ele>343.3</ele>
        <time>2025-11-11T15:58:12.000Z</time>
      </trkpt>
      <trkpt lat="47.30417" lon="5.00239">
        <ele>343.9</ele>
        <time>2025-11-11T15:58:17.000Z</time>
      </trkpt>
      <trkpt lat="47.30423" lon="5.00238">
        <ele>344.6</ele>
        <time>2025-11-11T15:58:22.000Z</time>
      </trkpt>
      <trkpt lat="47.30429" lon="5.00236">
        <ele>346.5</ele>
        <time>2025-11-11T15:58:27.000Z</time>
      </trkpt>
      <trkpt lat="47.30434" lon="5.00233">
        <ele>344.1</ele>
        <time>2025-11-11T15:58:32.000Z</time>
      </trkpt>
      <trkpt lat="47.30438" lon="5.00231">
        <ele>346.4</ele>
        <time>2025-11-11T15:58:37.000Z</time>
      </trkpt>
      <trkpt lat="47.30444" lon="5.0023">
        <ele>348.9</ele>
        <time>2025-11-11T15:58:42.000Z</time>
      </trkpt>
      <trkpt lat="47.30447" lon="5.00226">
        <ele>346.9</ele>
        <time>2025-11-11T15:58:47.000Z</time>
      </trkpt>
      <trkpt lat="47.30452" lon="5.00221">
        <ele>347.4</ele>
        <time>2025-11-11T15:58:52.000Z</time>
      </trkpt>
      <trkpt lat="47.30455" lon="5.00213">
        <ele>346.3</ele>
        <time>2025-11-11T15:58:57.000Z</time>
      </trkpt>
      <trkpt lat="47.30455" lon="5.00206">
        <ele>346.5</ele>
        <time>2025-11-11T15:59:02.000Z</time>
      </trkpt>
      <trkpt lat="47.30454" lon="5.002">
        <ele>345.3</ele>
        <time>2025-11-11T15:59:07.000Z</time>
      </trkpt>
      <trkpt lat="47.30451" lon="5.00196">
        <ele>342.7</ele>
        <time>2025-11-11T15:59:12.000Z</time>
      </trkpt>
      <trkpt lat="47.30448" lon="5.00194">
        <ele>342.6</ele>
        <time>2025-11-11T15:59:17.000Z</time>
      </trkpt>
      <trkpt lat="47.30443" lon="5.00192">
        <ele>344.8</ele>
        <time>2025-11-11T15:59:22.000Z</time>
      </trkpt>
      <trkpt lat="47.30438" lon="5.0019">
        <ele>344.2</ele>
        <time>2025-11-11T15:59:27.000Z</time>
      </trkpt>
      <trkpt lat="47.30433" lon="5.00188">
        <ele>343.9</ele>
        <time>2025-11-11T15:59:32.000Z</time>
      </trkpt>
      <trkpt lat="47.30427" lon="5.00187">
        <ele>345.7</ele>
        <time>2025-11-11T15:59:37.000Z</time>
      </trkpt>
      <trkpt lat="47.30424" lon="5.00185">
        <ele>343.6</ele>
        <time>2025-11-11T15:59:42.000Z</time>
      </trkpt>
      <trkpt lat="47.30419" lon="5.0018">
        <ele>346.8</ele>
        <time>2025-11-11T15:59:47.000Z</time>
      </trkpt>
      <trkpt lat="47.30411" lon="5.00174">
        <ele>347.9</ele>
        <time>2025-11-11T15:59:52.000Z</time>
      </trkpt>
      <trkpt lat="47.30405" lon="5.00168">
        <ele>346.3</ele>
        <time>2025-11-11T15:59:57.000Z</time>
      </trkpt>
      <trkpt lat="47.304" lon="5.00168">
        <ele>345.1</ele>
        <time>2025-11-11T16:00:02.000Z</time>
      </trkpt>
      <trkpt lat="47.30396" lon="5.00172">
        <ele>345.7</ele>
        <time>2025-11-11T16:00:07.000Z</time>
      </trkpt>
      <trkpt lat="47.30391" lon="5.00173">
        <ele>346.2</ele>
        <time>2025-11-11T16:00:12.000Z</time>
      </trkpt>
      <trkpt lat="47.30386" lon="5.00171">
        <ele>348.7</ele>
        <time>2025-11-11T16:00:17.000Z</time>
      </trkpt>
      <trkpt lat="47.30382" lon="5.00168">
        <ele>352.2</ele>
        <time>2025-11-11T16:00:22.000Z</time>
      </trkpt>
      <trkpt lat="47.30377" lon="5.00164">
        <ele>354.3</ele>
        <time>2025-11-11T16:00:27.000Z</time>
      </trkpt>
      <trkpt lat="47.30372" lon="5.0016">
        <ele>356.7</ele>
        <time>2025-11-11T16:00:32.000Z</time>
      </trkpt>
      <trkpt lat="47.30368" lon="5.00157">
        <ele>354.8</ele>
        <time>2025-11-11T16:00:37.000Z</time>
      </trkpt>
      <trkpt lat="47.30363" lon="5.00155">
        <ele>352.9</ele>
        <time>2025-11-11T16:00:42.000Z</time>
      </trkpt>
      <trkpt lat="47.30359" lon="5.00154">
        <ele>350.8</ele>
        <time>2025-11-11T16:00:47.000Z</time>
      </trkpt>
      <trkpt lat="47.30355" lon="5.00152">
        <ele>350.2</ele>
        <time>2025-11-11T16:00:52.000Z</time>
      </trkpt>
      <trkpt lat="47.3035" lon="5.00149">
        <ele>351.4</ele>
        <time>2025-11-11T16:00:57.000Z</time>
      </trkpt>
      <trkpt lat="47.30345" lon="5.00144">
        <ele>349.2</ele>
        <time>2025-11-11T16:01:02.000Z</time>
      </trkpt>
      <trkpt lat="47.3034" lon="5.00141">
        <ele>348.1</ele>
        <time>2025-11-11T16:01:07.000Z</time>
      </trkpt>
      <trkpt lat="47.30336" lon="5.00137">
        <ele>348.9</ele>
        <time>2025-11-11T16:01:12.000Z</time>
      </trkpt>
      <trkpt lat="47.30331" lon="5.00133">
        <ele>349.8</ele>
        <time>2025-11-11T16:01:17.000Z</time>
      </trkpt>
      <trkpt lat="47.30327" lon="5.00129">
        <ele>352.1</ele>
        <time>2025-11-11T16:01:22.000Z</time>
      </trkpt>
      <trkpt lat="47.30322" lon="5.00126">
        <ele>349.6</ele>
        <time>2025-11-11T16:01:27.000Z</time>
      </trkpt>
      <trkpt lat="47.30318" lon="5.00124">
        <ele>349.9</ele>
        <time>2025-11-11T16:01:32.000Z</time>
      </trkpt>
    </trkseg>
  </trk>
</gpx>